Provisional Data: Grays Run near Gray, PA


Please select a monitoring station.
Please select start date.
Please select start date.

Toggle Unit: C/F Toggle Unit: C/F
Sample Time Temperature (C) Temperature (F) Specific Conductivity (mS/cm) pH   Turbidity (NTU+) DO (mg/L)
12/11/2021 12:00:00 AM 4.72 40.496 0.033 6.79 23.03 11.77
12/11/2021 12:15:00 AM 4.73 40.514 0.033 6.76 22.74 11.78
12/11/2021 12:30:00 AM 4.76 40.568 0.033 6.83 22.45 11.77
12/11/2021 12:45:00 AM 4.79 40.622 0.033 6.84 22.57 11.76
12/11/2021 1:00:00 AM 4.81 40.658 0.033 6.8 23.19 11.74
12/11/2021 1:15:00 AM 4.83 40.694 0.033 6.74 23.08 11.73
12/11/2021 1:30:00 AM 4.85 40.73 0.033 6.8 21.89 11.72
12/11/2021 1:45:00 AM 4.87 40.766 0.033 6.75 21.41 11.71
12/11/2021 2:00:00 AM 4.89 40.802 0.033 6.78 22.19 11.7
12/11/2021 2:15:00 AM 4.91 40.838 0.033 6.76 24.77 11.69
12/11/2021 2:30:00 AM 4.93 40.874 0.033 6.79 23.51 11.69
12/11/2021 2:45:00 AM 4.96 40.928 0.033 6.77 17.01 11.67
12/11/2021 3:00:00 AM 4.98 40.964 0.033 6.8 16.66 11.65
12/11/2021 3:15:00 AM 5 41 0.033 6.72 19.91 11.64
12/11/2021 3:30:00 AM 5.02 41.036 0.033 6.81 27.31 11.63
12/11/2021 3:45:00 AM 5.05 41.09 0.033 6.83 16.11 11.62
12/11/2021 4:00:00 AM 5.07 41.126 0.033 6.71 15.72 11.61
12/11/2021 4:15:00 AM 5.09 41.162 0.033 6.81 16.04 11.6
12/11/2021 4:30:00 AM 5.11 41.198 0.033 6.79 17 11.59
12/11/2021 4:45:00 AM 5.13 41.234 0.033 6.84 16.78 11.58
12/11/2021 5:00:00 AM 5.14 41.252 0.033 6.76 18.03 11.57
12/11/2021 5:15:00 AM 5.16 41.288 0.033 6.82 17.81 11.56
12/11/2021 5:30:00 AM 5.18 41.324 0.033 6.81 17.66 11.55
12/11/2021 5:45:00 AM 5.2 41.36 0.033 6.8 17.99 11.54
12/11/2021 6:00:00 AM 5.22 41.396 0.033 6.75 18.62 11.54
12/11/2021 6:15:00 AM 5.24 41.432 0.033 6.83 19.27 11.54
12/11/2021 6:30:00 AM 5.26 41.468 0.032 6.74 18.5 11.56
12/11/2021 6:45:00 AM 5.29 41.522 0.032 6.87 18.57 11.54
12/11/2021 7:00:00 AM 5.31 41.558 0.032 6.78 16.58 11.52
12/11/2021 7:15:00 AM 5.33 41.594 0.032 6.88 18.12 11.51
12/11/2021 7:30:00 AM 5.36 41.648 0.033 6.76 19.92 11.51
12/11/2021 7:45:00 AM 5.36 41.648 0.033 6.75 26.89 11.52
12/11/2021 8:00:00 AM 5.32 41.576 0.034 6.89 52.6 11.52
12/11/2021 8:15:00 AM 5.31 41.558 0.034 6.87 46.34 11.53
12/11/2021 8:30:00 AM 5.32 41.576 0.034 6.86 39.72 11.52
12/11/2021 8:45:00 AM 5.33 41.594 0.033 6.85 33.88 11.52
12/11/2021 9:00:00 AM 5.34 41.612 0.034 6.78 30.92 11.53
12/11/2021 9:15:00 AM 5.35 41.63 0.034 6.85 29.69 11.55
12/11/2021 9:30:00 AM 5.36 41.648 0.034 6.86 25.87 11.57
12/11/2021 9:45:00 AM 5.38 41.684 0.034 6.92 27.19 11.58
12/11/2021 10:00:00 AM 5.38 41.684 0.035 6.96 26.22 11.59
12/11/2021 10:15:00 AM 5.4 41.72 0.035 6.9 26.27 11.59
12/11/2021 10:30:00 AM 5.42 41.756 0.035 7 26.27 11.59
12/11/2021 10:45:00 AM 5.43 41.774 0.035 6.92 26.49 11.59
12/11/2021 11:00:00 AM 5.44 41.792 0.034 6.89 22.4 11.58
12/11/2021 11:15:00 AM 5.45 41.81 0.034 6.91 28.23 11.59
12/11/2021 11:30:00 AM 5.47 41.846 0.034 6.92 23.06 11.58
12/11/2021 11:45:00 AM 5.48 41.864 0.034 6.91 25.1 11.56
12/11/2021 12:00:00 PM 5.5 41.9 0.033 6.94 21.62 11.55
12/11/2021 12:15:00 PM 5.53 41.954 0.033 6.83 21.87 11.56
12/11/2021 12:30:00 PM 5.56 42.008 0.033 6.91 25.85 11.53
12/11/2021 12:45:00 PM 5.58 42.044 0.033 6.94 23.66 11.52
12/11/2021 1:00:00 PM 5.6 42.08 0.033 6.94 23.08 11.51
12/11/2021 1:15:00 PM 5.63 42.134 0.033 6.91 23.75 11.48
12/11/2021 1:30:00 PM 5.67 42.206 0.033 6.93 25.41 11.47
12/11/2021 1:45:00 PM 5.73 42.314 0.033 6.94 25.67 11.45
12/11/2021 2:00:00 PM 5.78 42.404 0.033 6.88 26.71 11.42
12/11/2021 2:15:00 PM 5.83 42.494 0.033 6.91 22.13 11.43
12/11/2021 2:30:00 PM 5.88 42.584 0.033 6.92 22.39 11.41
12/11/2021 2:45:00 PM 5.92 42.656 0.033 6.9 26.65 11.38
12/11/2021 3:00:00 PM 5.97 42.746 0.033 6.91 20.3 11.35
12/11/2021 3:15:00 PM 6.01 42.818 0.033 6.85 19.19 11.32
12/11/2021 3:30:00 PM 6.05 42.89 0.033 6.91 20.04 11.32
12/11/2021 3:45:00 PM 6.08 42.944 0.034 6.91 20.57 11.29
12/11/2021 4:00:00 PM 6.13 43.034 0.034 6.91 34.23 11.25
12/11/2021 4:15:00 PM 6.16 43.088 0.034 6.84 20 11.24
12/11/2021 4:30:00 PM 6.2 43.16 0.034 6.92 22.97 11.2
12/11/2021 4:45:00 PM 6.22 43.196 0.034 6.88 20.95 11.19
12/11/2021 5:00:00 PM 6.24 43.232 0.034 6.87 25.04 11.18
12/11/2021 5:15:00 PM 6.25 43.25 0.034 6.86 18.95 11.16
12/11/2021 5:30:00 PM 6.26 43.268 0.034 6.87 20.28 11.16
12/11/2021 5:45:00 PM 6.27 43.286 0.034 6.86 22.11 11.15
12/11/2021 6:00:00 PM 6.28 43.304 0.034 6.87 21.34 11.15
12/11/2021 6:15:00 PM 6.31 43.358 0.034 6.85 22.32 11.14
12/11/2021 6:30:00 PM 6.36 43.448 0.034 6.87 18.94 11.14
12/11/2021 6:45:00 PM 6.38 43.484 0.034 6.76 17.66 11.13
12/11/2021 7:00:00 PM 6.42 43.556 0.034 6.82 19.32 11.13
12/11/2021 7:15:00 PM 6.45 43.61 0.034 6.78 19.32 11.12
12/11/2021 7:30:00 PM 6.47 43.646 0.034 6.85 19.36 11.12
12/11/2021 7:45:00 PM 6.47 43.646 0.034 6.89 21.15 11.14
12/11/2021 8:00:00 PM 6.45 43.61 0.034 6.91 20.24 11.14
12/11/2021 8:15:00 PM 6.43 43.574 0.034 6.84 19.19 11.13
12/11/2021 8:30:00 PM 6.4 43.52 0.034 6.9 21.89 11.16
12/11/2021 8:45:00 PM 6.36 43.448 0.034 6.79 20.19 11.17
12/11/2021 9:00:00 PM 6.3 43.34 0.034 6.86 18.59 11.2
12/11/2021 9:15:00 PM 6.24 43.232 0.034 6.72 18.65 11.24
12/11/2021 9:30:00 PM 6.17 43.106 0.034 6.86 20.21 11.26
12/11/2021 9:45:00 PM 6.11 42.998 0.034 6.88 19.36 11.3
12/11/2021 10:00:00 PM 6.06 42.908 0.034 6.9 19.53 11.32
12/11/2021 10:15:00 PM 6.01 42.818 0.034 6.89 19.03 11.34
12/11/2021 10:30:00 PM 5.98 42.764 0.034 6.72 18.62 11.36
12/11/2021 10:45:00 PM 5.94 42.692 0.034 6.77 18.95 11.38
12/11/2021 11:00:00 PM 5.9 42.62 0.034 6.9 19.79 11.39
12/11/2021 11:15:00 PM 5.85 42.53 0.034 6.76 20.52 11.4
12/11/2021 11:30:00 PM 5.81 42.458 0.034 6.79 19.97 11.41
12/11/2021 11:45:00 PM 5.77 42.386 0.034 6.79 19.84 11.43
12/12/2021 12:00:00 AM 5.73 42.314 0.034 6.88 19.43 11.43
12/12/2021 12:15:00 AM 5.69 42.242 0.034 6.9 20.21 11.45
12/12/2021 12:30:00 AM 5.68 42.224 0.034 6.91 22.53 11.45
12/12/2021 12:45:00 AM 5.68 42.224 0.034 6.9 19.3 11.46
12/12/2021 1:00:00 AM 5.67 42.206 0.034 6.9 22.52 11.47
12/12/2021 1:15:00 AM 5.66 42.188 0.034 6.81 24.38 11.46
12/12/2021 1:30:00 AM 5.65 42.17 0.034 6.87 22.12 11.48
12/12/2021 1:45:00 AM 5.65 42.17 0.034 6.9 20.21 11.48
12/12/2021 2:00:00 AM 5.66 42.188 0.034 6.78 66.64 11.48
12/12/2021 2:15:00 AM 5.65 42.17 0.034 6.89 23.55 11.48
12/12/2021 2:30:00 AM 5.63 42.134 0.034 6.78 22.84 11.49
12/12/2021 2:45:00 AM 5.59 42.062 0.034 6.89 20.69 11.51
12/12/2021 3:00:00 AM 5.56 42.008 0.033 6.86 20.04 11.52
12/12/2021 3:15:00 AM 5.55 41.99 0.033 6.91 18.74 11.54
12/12/2021 3:30:00 AM 5.52 41.936 0.033 6.84 19.5 11.56
12/12/2021 3:45:00 AM 5.49 41.882 0.033 6.83 21.81 11.56
12/12/2021 4:00:00 AM 5.47 41.846 0.034 6.81 25.77 11.58
12/12/2021 4:15:00 AM 5.44 41.792 0.034 6.9 20.07 11.58
12/12/2021 4:30:00 AM 5.42 41.756 0.034 6.9 19.02 11.59
12/12/2021 4:45:00 AM 5.38 41.684 0.034 6.81 19.5 11.6
12/12/2021 5:00:00 AM 5.36 41.648 0.034 6.88 18.11 11.61
12/12/2021 5:15:00 AM 5.33 41.594 0.034 6.83 18.12 11.62
12/12/2021 5:30:00 AM 5.29 41.522 0.034 6.81 19.49 11.63
12/12/2021 5:45:00 AM 5.26 41.468 0.034 6.85 19.1 11.63
12/12/2021 6:00:00 AM 5.22 41.396 0.034 6.87 19.9 11.64
12/12/2021 6:15:00 AM 5.19 41.342 0.034 6.86 19.8 11.65
12/12/2021 6:30:00 AM 5.15 41.27 0.034 6.87 19.19 11.66
12/12/2021 6:45:00 AM 5.11 41.198 0.034 6.87 19.17 11.68
12/12/2021 7:00:00 AM 5.08 41.144 0.034 6.77 20.26 11.68
12/12/2021 7:15:00 AM 5.04 41.072 0.034 6.88 18.97 11.7
12/12/2021 7:30:00 AM 5.01 41.018 0.034 6.87 20.24 11.72
12/12/2021 7:45:00 AM 4.99 40.982 0.034 6.83 20.34 11.75
12/12/2021 8:00:00 AM 4.97 40.946 0.034 6.85 18.57 11.78
12/12/2021 8:15:00 AM 4.94 40.892 0.034 6.87 19.16 11.8
12/12/2021 8:30:00 AM 4.93 40.874 0.034 6.88 20.19 11.83
12/12/2021 8:45:00 AM 4.91 40.838 0.034 6.88 18.25 11.85
12/12/2021 9:00:00 AM 4.9 40.82 0.034 6.86 20.87 11.86
12/12/2021 9:15:00 AM 4.89 40.802 0.034 6.81 19.19 11.88
12/12/2021 9:30:00 AM 4.91 40.838 0.033 6.89 18.89 11.91
12/12/2021 9:45:00 AM 4.93 40.874 0.033 6.92 19.28 11.93
12/12/2021 10:00:00 AM 4.97 40.946 0.033 6.86 19.69 11.93
12/12/2021 10:15:00 AM 5 41 0.033 6.85 19.54 11.93
12/12/2021 10:30:00 AM 5.05 41.09 0.033 6.92 18.12 11.92
12/12/2021 10:45:00 AM 5.08 41.144 0.033 6.93 19.1 11.9
12/12/2021 11:00:00 AM 5.12 41.216 0.033 6.78 20.15 11.88
12/12/2021 11:15:00 AM 5.17 41.306 0.033 6.88 19.15 11.88
12/12/2021 11:30:00 AM 5.22 41.396 0.033 6.88 18.88 11.87
12/12/2021 11:45:00 AM 5.28 41.504 0.033 6.84 18.52 11.86
12/12/2021 12:00:00 PM 5.34 41.612 0.033 6.84 18.81 11.84
12/12/2021 12:15:00 PM 5.4 41.72 0.033 6.89 18.47 11.83
12/12/2021 12:30:00 PM 5.47 41.846 0.033 6.88 18.26 11.82
12/12/2021 12:45:00 PM 5.5 41.9 0.033 6.87 18.34 11.79
12/12/2021 1:00:00 PM 5.54 41.972 0.033 6.85 21.24 11.78
12/12/2021 1:15:00 PM 5.58 42.044 0.033 6.92 18.03 11.76
12/12/2021 1:30:00 PM 5.59 42.062 0.033 6.91 18.22 11.75
12/12/2021 1:45:00 PM 5.61 42.098 0.033 6.91 20 11.73
12/12/2021 2:00:00 PM 5.63 42.134 0.033 6.84 19.06 11.7
12/12/2021 2:15:00 PM 5.61 42.098 0.033 6.91 19.76 11.7
12/12/2021 2:30:00 PM 5.59 42.062 0.033 6.9 20.01 11.7
12/12/2021 2:45:00 PM 5.59 42.062 0.033 6.88 18.77 11.7
12/12/2021 3:00:00 PM 5.57 42.026 0.033 6.89 18.57 11.69
12/12/2021 3:15:00 PM 5.55 41.99 0.033 6.88 18.19 11.7
12/12/2021 3:30:00 PM 5.5 41.9 0.033 6.88 18.42 11.7
12/12/2021 3:45:00 PM 5.47 41.846 0.033 6.87 18.8 11.71
12/12/2021 4:00:00 PM 5.44 41.792 0.033 6.87 21.29 11.71
12/12/2021 4:15:00 PM 5.42 41.756 0.033 6.87 17.77 11.7
12/12/2021 4:30:00 PM 5.39 41.702 0.033 6.88 21.06 11.7
12/12/2021 4:45:00 PM 5.36 41.648 0.033 6.83 20.02 11.68
12/12/2021 5:00:00 PM 5.32 41.576 0.033 6.79 19.43 11.68
12/12/2021 5:15:00 PM 5.28 41.504 0.034 6.86 18.27 11.68
12/12/2021 5:30:00 PM 5.22 41.396 0.034 6.78 18.18 11.71
12/12/2021 5:45:00 PM 5.17 41.306 0.034 6.86 20.13 11.71
12/12/2021 6:00:00 PM 5.11 41.198 0.034 6.86 20.76 11.72
12/12/2021 6:15:00 PM 5.06 41.108 0.034 6.75 20.28 11.73
12/12/2021 6:30:00 PM 5.01 41.018 0.034 6.85 20.21 11.76
12/12/2021 6:45:00 PM 4.96 40.928 0.034 6.85 20.51 11.77
12/12/2021 7:00:00 PM 4.91 40.838 0.034 6.84 18.25 11.8
12/12/2021 7:15:00 PM 4.87 40.766 0.034 6.68 19.7 11.81
12/12/2021 7:30:00 PM 4.83 40.694 0.034 6.84 17.08 11.84
12/12/2021 7:45:00 PM 4.79 40.622 0.034 6.82 17.5 11.85
12/12/2021 8:00:00 PM 4.75 40.55 0.034 6.84 18.28 11.87
12/12/2021 8:15:00 PM 4.72 40.496 0.034 6.82 18.81 11.88
12/12/2021 8:30:00 PM 4.68 40.424 0.034 6.83 17.48 11.88
12/12/2021 8:45:00 PM 4.65 40.37 0.034 6.82 17.86 11.89
12/12/2021 9:00:00 PM 4.61 40.298 0.034 6.81 19.36 11.9
12/12/2021 9:15:00 PM 4.58 40.244 0.034 6.81 18.84 11.91
12/12/2021 9:30:00 PM 4.55 40.19 0.034 6.82 18.39 11.91
12/12/2021 9:45:00 PM 4.52 40.136 0.034 6.79 18.81 11.92
12/12/2021 10:00:00 PM 4.49 40.082 0.034 6.66 17.61 11.93
12/12/2021 10:15:00 PM 4.47 40.046 0.034 6.78 18.68 11.93
12/12/2021 10:30:00 PM 4.44 39.992 0.034 6.7 18.41 11.95
12/12/2021 10:45:00 PM 4.41 39.938 0.034 6.71 18.48 11.95
12/12/2021 11:00:00 PM 4.38 39.884 0.034 6.74 17.61 11.97
12/12/2021 11:15:00 PM 4.35 39.83 0.034 6.67 18.65 11.97
12/12/2021 11:30:00 PM 4.32 39.776 0.034 6.76 16.83 11.99
12/12/2021 11:45:00 PM 4.3 39.74 0.034 6.76 19.37 12
12/13/2021 12:00:00 AM 4.27 39.686 0.034 6.76 17.2 12.02
12/13/2021 12:15:00 AM 4.24 39.632 0.034 6.76 18.84 12.02
12/13/2021 12:30:00 AM 4.22 39.596 0.034 6.59 19.32 12.03
12/13/2021 12:45:00 AM 4.2 39.56 0.034 6.76 18.94 12.04
12/13/2021 1:00:00 AM 4.19 39.542 0.034 6.77 17.41 12.05
12/13/2021 1:15:00 AM 4.17 39.506 0.034 6.77 19.91 12.05
12/13/2021 1:30:00 AM 4.15 39.47 0.034 6.64 18.19 12.06
12/13/2021 1:45:00 AM 4.13 39.434 0.034 6.76 18.85 12.07
12/13/2021 2:00:00 AM 4.12 39.416 0.034 6.72 17.92 12.07
12/13/2021 2:15:00 AM 4.11 39.398 0.034 6.64 17.84 12.08
12/13/2021 2:30:00 AM 4.1 39.38 0.034 6.78 18.41 12.08
12/13/2021 2:45:00 AM 4.09 39.362 0.034 6.57 19.34 12.09
12/13/2021 3:00:00 AM 4.09 39.362 0.034 6.65 18.15 12.09
12/13/2021 3:15:00 AM 4.08 39.344 0.034 6.64 17.65 12.09
12/13/2021 3:30:00 AM 4.08 39.344 0.034 6.69 17.63 12.09
12/13/2021 3:45:00 AM 4.08 39.344 0.034 6.67 18.27 12.1
12/13/2021 4:00:00 AM 4.07 39.326 0.034 6.77 18.25 12.09
12/13/2021 4:15:00 AM 4.08 39.344 0.034 6.76 18.66 12.08
12/13/2021 4:30:00 AM 4.07 39.326 0.034 6.8 18.92 12.09
12/13/2021 4:45:00 AM 4.07 39.326 0.034 6.81 18.94 12.1
12/13/2021 5:00:00 AM 4.07 39.326 0.034 6.8 18.4 12.1
12/13/2021 5:15:00 AM 4.08 39.344 0.034 6.77 17.53 12.1
12/13/2021 5:30:00 AM 4.08 39.344 0.034 6.64 19.13 12.1
12/13/2021 5:45:00 AM 4.07 39.326 0.034 6.78 18.25 12.1
12/13/2021 6:00:00 AM 4.07 39.326 0.034 6.64 19.52 12.1
12/13/2021 6:15:00 AM 4.08 39.344 0.034 6.76 18.6 12.1
12/13/2021 6:30:00 AM 4.08 39.344 0.034 6.79 20.38 12.1
12/13/2021 6:45:00 AM 4.08 39.344 0.034 6.8 18.71 12.11
12/13/2021 7:00:00 AM 4.09 39.362 0.034 6.69 18.46 12.11
12/13/2021 7:15:00 AM 4.09 39.362 0.034 6.8 20.12 12.1
12/13/2021 7:30:00 AM 4.09 39.362 0.034 6.82 17.35 12.11
12/13/2021 7:45:00 AM 4.1 39.38 0.034 6.72 20.85 12.11
12/13/2021 8:00:00 AM 4.11 39.398 0.034 6.82 19.89 12.11
12/13/2021 8:15:00 AM 4.13 39.434 0.034 6.78 20.14 12.14
12/13/2021 8:30:00 AM 4.15 39.47 0.034 6.8 17.94 12.15
12/13/2021 8:45:00 AM 4.17 39.506 0.034 6.82 17.52 12.16
12/13/2021 9:00:00 AM 4.2 39.56 0.034 6.81 18.07 12.17
12/13/2021 9:15:00 AM 4.21 39.578 0.034 6.83 18.07 12.17
12/13/2021 9:30:00 AM 4.22 39.596 0.034 6.82 17.64 12.17
12/13/2021 9:45:00 AM 4.24 39.632 0.034 6.84 18.75 12.18
12/13/2021 10:00:00 AM 4.27 39.686 0.034 6.85 18.68 12.17
12/13/2021 10:15:00 AM 4.31 39.758 0.034 6.84 20.47 12.17
12/13/2021 10:30:00 AM 4.38 39.884 0.034 6.71 18.89 12.16
12/13/2021 10:45:00 AM 4.44 39.992 0.034 6.85 19.63 12.14
12/13/2021 11:00:00 AM 4.5 40.1 0.033 6.86 18.64 12.12
12/13/2021 11:15:00 AM 4.58 40.244 0.033 6.87 16.96 12.12
12/13/2021 11:30:00 AM 4.66 40.388 0.033 6.86 18.24 12.11
12/13/2021 11:45:00 AM 4.75 40.55 0.033 6.85 21.24 12.08
12/13/2021 12:00:00 PM 4.85 40.73 0.033 6.86 20.04 12.05
12/13/2021 12:15:00 PM 4.94 40.892 0.033 6.77 19.94 12.02
12/13/2021 12:30:00 PM 5.02 41.036 0.033 6.87 19.48 11.98
12/13/2021 12:45:00 PM 5.1 41.18 0.033 6.87 18.72 11.94
12/13/2021 1:00:00 PM 5.17 41.306 0.033 6.89 18.94 11.91
12/13/2021 1:15:00 PM 5.24 41.432 0.034 6.85 17.71 11.89
12/13/2021 1:30:00 PM 5.3 41.54 0.034 6.88 19.55 11.87
12/13/2021 1:45:00 PM 5.34 41.612 0.034 6.84 17.89 11.84
12/13/2021 2:00:00 PM 5.39 41.702 0.033 6.88 19.3 11.83
12/13/2021 2:15:00 PM 5.42 41.756 0.033 6.89 20.37 11.8
12/13/2021 2:30:00 PM 5.45 41.81 0.033 6.86 18.34 11.78
12/13/2021 2:45:00 PM 5.46 41.828 0.033 6.78 17.66 11.77
12/13/2021 3:00:00 PM 5.46 41.828 0.033 6.79 19.83 11.77
12/13/2021 3:15:00 PM 5.46 41.828 0.033 6.86 19.45 11.76
12/13/2021 3:30:00 PM 5.44 41.792 0.033 6.85 21.82 11.75
12/13/2021 3:45:00 PM 5.42 41.756 0.033 6.81 20.01 11.74
12/13/2021 4:00:00 PM 5.4 41.72 0.033 6.85 20.05 11.74
12/13/2021 4:15:00 PM 5.37 41.666 0.034 6.86 20.1 11.74
12/13/2021 4:30:00 PM 5.34 41.612 0.034 6.79 20.28 11.73
12/13/2021 4:45:00 PM 5.31 41.558 0.034 6.86 19.89 11.73
12/13/2021 5:00:00 PM 5.27 41.486 0.034 6.85 20.83 11.72
12/13/2021 5:15:00 PM 5.23 41.414 0.034 6.83 19.48 11.73
12/13/2021 5:30:00 PM 5.17 41.306 0.034 6.85 19.32 11.72
12/13/2021 5:45:00 PM 5.11 41.198 0.034 6.74 21.64 11.74
12/13/2021 6:00:00 PM 5.06 41.108 0.034 6.84 18.56 11.76
12/13/2021 6:15:00 PM 5.01 41.018 0.034 6.85 19.25 11.79
12/13/2021 6:30:00 PM 4.96 40.928 0.034 6.83 18.75 11.81
12/13/2021 6:45:00 PM 4.91 40.838 0.034 6.83 19.5 11.82
12/13/2021 7:00:00 PM 4.87 40.766 0.034 6.73 18.1 11.84
12/13/2021 7:15:00 PM 4.83 40.694 0.034 6.77 19.74 11.85
12/13/2021 7:30:00 PM 4.79 40.622 0.034 6.76 19.02 11.87
12/13/2021 7:45:00 PM 4.75 40.55 0.034 6.77 19.31 11.88
12/13/2021 8:00:00 PM 4.72 40.496 0.034 6.81 18.58 11.89
12/13/2021 8:15:00 PM 4.68 40.424 0.034 6.82 18.66 11.9
12/13/2021 8:30:00 PM 4.65 40.37 0.034 6.82 18.67 11.91
12/13/2021 8:45:00 PM 4.62 40.316 0.034 6.71 17.93 11.92
12/13/2021 9:00:00 PM 4.58 40.244 0.034 6.83 18.88 11.93
12/13/2021 9:15:00 PM 4.55 40.19 0.034 6.7 19.45 11.94
12/13/2021 9:30:00 PM 4.52 40.136 0.034 6.78 18.85 11.94
12/13/2021 9:45:00 PM 4.49 40.082 0.034 6.83 18.23 11.95
12/13/2021 10:00:00 PM 4.47 40.046 0.034 6.82 18.31 11.96
12/13/2021 10:15:00 PM 4.45 40.01 0.034 6.69 16.67 11.97
12/13/2021 10:30:00 PM 4.42 39.956 0.034 6.82 19.5 11.98
12/13/2021 10:45:00 PM 4.4 39.92 0.034 6.78 20.83 11.99
12/13/2021 11:00:00 PM 4.38 39.884 0.034 6.81 19.03 12
12/13/2021 11:15:00 PM 4.36 39.848 0.034 6.72 22.94 12.02
12/13/2021 11:30:00 PM 4.34 39.812 0.034 6.73 20.5 12.01
12/13/2021 11:45:00 PM 4.32 39.776 0.034 6.8 20.42 12.03
12/14/2021 12:00:00 AM 4.3 39.74 0.034 6.8 19.18 12.04
12/14/2021 12:15:00 AM 4.28 39.704 0.034 6.82 19.34 12.05
12/14/2021 12:30:00 AM 4.26 39.668 0.034 6.76 19.63 12.05
12/14/2021 12:45:00 AM 4.24 39.632 0.034 6.82 18.6 12.07
12/14/2021 1:00:00 AM 4.22 39.596 0.034 6.73 18.78 12.08
12/14/2021 1:15:00 AM 4.21 39.578 0.034 6.75 18.97 12.09
12/14/2021 1:30:00 AM 4.19 39.542 0.034 6.76 19.39 12.09
12/14/2021 1:45:00 AM 4.17 39.506 0.034 6.75 20.49 12.09
12/14/2021 2:00:00 AM 4.16 39.488 0.034 6.71 44.93 12.1
12/14/2021 2:15:00 AM 4.14 39.452 0.034 6.73 20.06 12.1
12/14/2021 2:30:00 AM 4.11 39.398 0.034 6.76 26 12.12
12/14/2021 2:45:00 AM 4.1 39.38 0.034 6.66 20.38 12.13
12/14/2021 3:00:00 AM 4.08 39.344 0.034 6.76 20.86 12.13
12/14/2021 3:15:00 AM 4.06 39.308 0.034 6.72 110.62 12.14
12/14/2021 3:30:00 AM 4.04 39.272 0.034 6.76 18.36 12.14
12/14/2021 3:45:00 AM 4.03 39.254 0.034 6.77 19.01 12.15
12/14/2021 4:00:00 AM 4 39.2 0.034 6.67 20.41 12.16
12/14/2021 4:15:00 AM 3.98 39.164 0.034 6.75 20.19 12.17
12/14/2021 4:30:00 AM 3.96 39.128 0.034 6.76 21.59 12.17
12/14/2021 4:45:00 AM 3.95 39.11 0.034 6.69 18.9 12.19
12/14/2021 5:00:00 AM 3.94 39.092 0.034 6.77 19.42 12.18
12/14/2021 5:15:00 AM 3.92 39.056 0.034 6.76 20.06 12.18
12/14/2021 5:30:00 AM 3.9 39.02 0.034 6.67 19.15 12.19
12/14/2021 5:45:00 AM 3.87 38.966 0.034 6.77 19.65 12.2
12/14/2021 6:00:00 AM 3.86 38.948 0.034 6.75 19.8 12.21
12/14/2021 6:15:00 AM 3.84 38.912 0.034 6.74 20.79 12.22
12/14/2021 6:30:00 AM 3.82 38.876 0.034 6.77 21.37 12.22
12/14/2021 6:45:00 AM 3.81 38.858 0.034 6.76 18.82 12.22
12/14/2021 7:00:00 AM 3.79 38.822 0.034 6.74 18.22 12.24
12/14/2021 7:15:00 AM 3.78 38.804 0.034 6.71 17.5 12.25
12/14/2021 7:30:00 AM 3.76 38.768 0.034 6.77 20.68 12.26
12/14/2021 7:45:00 AM 3.76 38.768 0.034 6.8 17.25 12.27
12/14/2021 8:00:00 AM 3.75 38.75 0.034 6.77 18.58 12.29
12/14/2021 8:15:00 AM 3.74 38.732 0.034 6.79 20.76 12.32
12/14/2021 8:30:00 AM 3.73 38.714 0.034 6.79 18.36 12.35
12/14/2021 8:45:00 AM 3.74 38.732 0.034 6.8 18.66 12.36
12/14/2021 9:00:00 AM 3.74 38.732 0.034 6.8 21.08 12.37
12/14/2021 9:15:00 AM 3.74 38.732 0.034 6.79 18.9 12.38
12/14/2021 9:30:00 AM 3.76 38.768 0.034 6.83 20.38 12.39
12/14/2021 9:45:00 AM 3.78 38.804 0.034 6.82 19.83 12.41
12/14/2021 10:00:00 AM 3.82 38.876 0.034 6.81 17.84 12.4
12/14/2021 10:15:00 AM 3.89 39.002 0.034 6.84 17.59 12.39
12/14/2021 10:30:00 AM 3.97 39.146 0.034 6.74 23.04 12.4
12/14/2021 10:45:00 AM 4.1 39.38 0.034 6.77 18.26 12.4
12/14/2021 11:00:00 AM 4.19 39.542 0.034 6.85 25.92 12.39
12/14/2021 11:15:00 AM 4.29 39.722 0.034 6.85 21.74 12.34
12/14/2021 11:30:00 AM 4.4 39.92 0.034 6.82 20.9 12.3
12/14/2021 11:45:00 AM 4.5 40.1 0.034 6.81 20.73 12.26
12/14/2021 12:00:00 PM 4.61 40.298 0.033 6.84 22.32 12.25
12/14/2021 12:15:00 PM 4.74 40.532 0.033 6.77 20.95 12.21
12/14/2021 12:30:00 PM 4.84 40.712 0.033 6.85 20.41 12.19
12/14/2021 12:45:00 PM 4.94 40.892 0.033 6.86 23.19 12.14
12/14/2021 1:00:00 PM 5.03 41.054 0.033 6.84 21.43 12.09
12/14/2021 1:15:00 PM 5.12 41.216 0.033 6.87 27.45 12.08
12/14/2021 1:30:00 PM 5.19 41.342 0.033 6.85 19.94 12.04
12/14/2021 1:45:00 PM 5.24 41.432 0.033 6.87 20.98 12
12/14/2021 2:00:00 PM 5.29 41.522 0.033 6.88 21.04 11.98
12/14/2021 2:15:00 PM 5.32 41.576 0.033 6.87 20.69 11.97
12/14/2021 2:30:00 PM 5.34 41.612 0.033 6.87 18.92 11.95
12/14/2021 2:45:00 PM 5.33 41.594 0.034 6.66 19.11 11.94
12/14/2021 3:00:00 PM 5.33 41.594 0.034 6.8 18.99 11.93
12/14/2021 3:15:00 PM 5.32 41.576 0.034 6.83 18.58 11.91
12/14/2021 3:30:00 PM 5.31 41.558 0.034 6.77 18.68 11.92
12/14/2021 3:45:00 PM 5.28 41.504 0.034 6.83 19.6 11.93
12/14/2021 4:00:00 PM 5.26 41.468 0.034 6.76 21.77 11.91
12/14/2021 4:15:00 PM 5.24 41.432 0.034 6.73 18.16 11.9
12/14/2021 4:30:00 PM 5.21 41.378 0.034 6.8 20.25 11.9
12/14/2021 4:45:00 PM 5.17 41.306 0.034 6.81 21.64 11.89
12/14/2021 5:00:00 PM 5.14 41.252 0.034 6.8 17.51 11.88
12/14/2021 5:15:00 PM 5.1 41.18 0.034 6.81 19.15 11.88
12/14/2021 5:30:00 PM 5.05 41.09 0.034 6.74 18.89 11.91
12/14/2021 5:45:00 PM 5 41 0.034 6.75 19.42 11.92
12/14/2021 6:00:00 PM 4.95 40.91 0.034 6.74 21.82 11.93
12/14/2021 6:15:00 PM 4.91 40.838 0.034 6.81 18.97 11.96
12/14/2021 6:30:00 PM 4.85 40.73 0.034 6.75 19.25 11.98
12/14/2021 6:45:00 PM 4.82 40.676 0.034 6.75 17.44 11.99
12/14/2021 7:00:00 PM 4.77 40.586 0.034 6.69 20.13 12
12/14/2021 7:15:00 PM 4.74 40.532 0.034 6.71 19.52 12.01
12/14/2021 7:30:00 PM 4.7 40.46 0.034 6.8 19.89 12.02
12/14/2021 7:45:00 PM 4.66 40.388 0.034 6.79 20.25 12.04
12/14/2021 8:00:00 PM 4.63 40.334 0.034 6.7 19.37 12.05
12/14/2021 8:15:00 PM 4.6 40.28 0.034 6.71 17.69 12.05
12/14/2021 8:30:00 PM 4.58 40.244 0.034 6.78 18.76 12.05
12/14/2021 8:45:00 PM 4.55 40.19 0.034 6.79 18.99 12.06
12/14/2021 9:00:00 PM 4.52 40.136 0.034 6.71 21.29 12.06
12/14/2021 9:15:00 PM 4.5 40.1 0.034 6.81 19.87 12.07
12/14/2021 9:30:00 PM 4.48 40.064 0.034 6.65 18.58 12.08
12/14/2021 9:45:00 PM 4.47 40.046 0.034 6.72 18.64 12.08
12/14/2021 10:00:00 PM 4.44 39.992 0.034 6.68 20.02 12.09
12/14/2021 10:15:00 PM 4.43 39.974 0.034 6.71 19.41 12.1
12/14/2021 10:30:00 PM 4.41 39.938 0.034 6.79 22.73 12.11
12/14/2021 10:45:00 PM 4.39 39.902 0.034 6.69 20.89 12.12
12/14/2021 11:00:00 PM 4.37 39.866 0.034 6.79 23.46 12.12
12/14/2021 11:15:00 PM 4.35 39.83 0.034 6.66 22.56 12.13
12/14/2021 11:30:00 PM 4.33 39.794 0.034 6.79 19.77 12.14
12/14/2021 11:45:00 PM 4.32 39.776 0.034 6.75 20.66 12.15
12/15/2021 12:00:00 AM 4.31 39.758 0.034 6.77 19.8 12.15
12/15/2021 12:15:00 AM 4.3 39.74 0.034 6.79 20.64 12.15
12/15/2021 12:30:00 AM 4.28 39.704 0.034 6.68 20.87 12.16
12/15/2021 12:45:00 AM 4.27 39.686 0.034 6.8 17.89 12.16
12/15/2021 1:00:00 AM 4.25 39.65 0.034 6.8 20.07 12.16
12/15/2021 1:15:00 AM 4.23 39.614 0.034 6.75 19.03 12.18
12/15/2021 1:30:00 AM 4.21 39.578 0.034 6.68 19.56 12.18
12/15/2021 1:45:00 AM 4.18 39.524 0.034 6.8 18.37 12.19
12/15/2021 2:00:00 AM 4.17 39.506 0.034 6.78 18.6 12.2
12/15/2021 2:15:00 AM 4.15 39.47 0.034 6.64 18.66 12.19
12/15/2021 2:30:00 AM 4.12 39.416 0.034 6.77 18.59 12.21
12/15/2021 2:45:00 AM 4.1 39.38 0.034 6.7 19.62 12.22
12/15/2021 3:00:00 AM 4.07 39.326 0.034 6.76 17.23 12.22
12/15/2021 3:15:00 AM 4.05 39.29 0.034 6.69 18.09 12.22
12/15/2021 3:30:00 AM 4.04 39.272 0.034 6.75 21.88 12.23
12/15/2021 3:45:00 AM 4.01 39.218 0.034 6.62 18.01 12.23
12/15/2021 4:00:00 AM 4 39.2 0.034 6.68 20.32 12.23
12/15/2021 4:15:00 AM 3.96 39.128 0.034 6.79 20.83 12.24
12/15/2021 4:30:00 AM 3.95 39.11 0.034 6.74 19.87 12.25
12/15/2021 4:45:00 AM 3.94 39.092 0.034 6.73 18.46 12.25
12/15/2021 5:00:00 AM 3.94 39.092 0.034 6.78 18.41 12.24
12/15/2021 5:15:00 AM 3.92 39.056 0.034 6.76 18.7 12.26
12/15/2021 5:30:00 AM 3.91 39.038 0.034 6.77 18.61 12.25
12/15/2021 5:45:00 AM 3.91 39.038 0.034 6.73 20.15 12.26
12/15/2021 6:00:00 AM 3.9 39.02 0.034 6.72 16.29 12.26
12/15/2021 6:15:00 AM 3.89 39.002 0.034 6.77 21.44 12.26
12/15/2021 6:30:00 AM 3.88 38.984 0.034 6.67 20.24 12.27
12/15/2021 6:45:00 AM 3.87 38.966 0.034 6.75 19.03 12.26
12/15/2021 7:00:00 AM 3.87 38.966 0.034 6.76 20.52 12.26
12/15/2021 7:15:00 AM 3.86 38.948 0.034 6.72 21.02 12.27
12/15/2021 7:30:00 AM 3.85 38.93 0.034 6.75 18.53 12.27
12/15/2021 7:45:00 AM 3.85 38.93 0.034 6.74 20.35 12.28
12/15/2021 8:00:00 AM 3.86 38.948 0.034 6.72 19.93 12.31
12/15/2021 8:15:00 AM 3.88 38.984 0.034 6.79 19.9 12.32
12/15/2021 8:30:00 AM 3.92 39.056 0.034 6.78 16.59 12.34
12/15/2021 8:45:00 AM 3.95 39.11 0.034 6.81 16.77 12.35
12/15/2021 9:00:00 AM 4 39.2 0.034 6.7 20.05 12.36
12/15/2021 9:15:00 AM 4.04 39.272 0.034 6.69 20.53 12.37
12/15/2021 9:30:00 AM 4.11 39.398 0.034 6.81 20.63 12.36
12/15/2021 9:45:00 AM 4.17 39.506 0.034 6.81 19.77 12.37
12/15/2021 10:00:00 AM 4.23 39.614 0.034 6.83 18.57 12.35
12/15/2021 10:15:00 AM 4.29 39.722 0.034 6.76 18.27 12.33
12/15/2021 10:30:00 AM 4.35 39.83 0.034 6.82 19.93 12.32
12/15/2021 10:45:00 AM 4.41 39.938 0.034 6.86 18.97 12.29
12/15/2021 11:00:00 AM 4.48 40.064 0.034 6.83 18.77 12.26
12/15/2021 11:15:00 AM 4.54 40.172 0.033 6.85 20.04 12.23
12/15/2021 11:30:00 AM 4.6 40.28 0.033 6.85 16.88 12.22
12/15/2021 11:45:00 AM 4.66 40.388 0.033 6.82 19.48 12.2
12/15/2021 12:00:00 PM 4.7 40.46 0.033 6.81 19.78 12.17
12/15/2021 12:15:00 PM 4.75 40.55 0.033 6.77 18.85 12.16
12/15/2021 12:30:00 PM 4.8 40.64 0.033 6.76 20.16 12.14
12/15/2021 12:45:00 PM 4.84 40.712 0.033 6.76 19.43 12.1
12/15/2021 1:00:00 PM 4.87 40.766 0.033 6.8 17.91 12.08
12/15/2021 1:15:00 PM 4.91 40.838 0.034 6.8 18.25 12.06
12/15/2021 1:30:00 PM 4.94 40.892 0.034 6.82 18.07 12.03
12/15/2021 1:45:00 PM 4.96 40.928 0.033 6.78 20.85 12.02
12/15/2021 2:00:00 PM 4.99 40.982 0.033 6.81 20.23 12
12/15/2021 2:15:00 PM 5 41 0.033 6.79 21.2 11.98
12/15/2021 2:30:00 PM 5.02 41.036 0.033 6.82 24.02 11.96
12/15/2021 2:45:00 PM 5.04 41.072 0.033 6.81 20.34 11.96
12/15/2021 3:00:00 PM 5.06 41.108 0.034 6.71 19.83 11.94
12/15/2021 3:15:00 PM 5.08 41.144 0.034 6.81 18.13 11.92
12/15/2021 3:30:00 PM 5.1 41.18 0.034 6.75 19.52 11.9
12/15/2021 3:45:00 PM 5.12 41.216 0.034 6.72 19.61 11.89
12/15/2021 4:00:00 PM 5.13 41.234 0.034 6.72 17.91 11.87
12/15/2021 4:15:00 PM 5.15 41.27 0.034 6.75 17.72 11.85
12/15/2021 4:30:00 PM 5.16 41.288 0.034 6.81 21.23 11.85
12/15/2021 4:45:00 PM 5.18 41.324 0.034 6.76 18.24 11.82
12/15/2021 5:00:00 PM 5.19 41.342 0.034 6.79 18.18 11.82
12/15/2021 5:15:00 PM 5.21 41.378 0.034 6.83 18.04 11.81
12/15/2021 5:30:00 PM 5.23 41.414 0.034 6.79 22.05 11.8
12/15/2021 5:45:00 PM 5.24 41.432 0.034 6.79 19.96 11.8
12/15/2021 6:00:00 PM 5.26 41.468 0.034 6.81 22.25 11.8
12/15/2021 6:15:00 PM 5.28 41.504 0.034 6.72 20.89 11.78
12/15/2021 6:30:00 PM 5.29 41.522 0.034 6.81 27.06 11.79
12/15/2021 6:45:00 PM 5.31 41.558 0.034 6.69 17.71 11.78
12/15/2021 7:00:00 PM 5.32 41.576 0.034 6.71 19.18 11.75
12/15/2021 7:15:00 PM 5.33 41.594 0.034 6.78 19.4 11.76
12/15/2021 7:30:00 PM 5.34 41.612 0.034 6.82 20.74 11.76
12/15/2021 7:45:00 PM 5.35 41.63 0.034 6.81 18.8 11.75
12/15/2021 8:00:00 PM 5.36 41.648 0.034 6.78 19.72 11.74
12/15/2021 8:15:00 PM 5.37 41.666 0.034 6.71 19.15 11.74
12/15/2021 8:30:00 PM 5.38 41.684 0.034 6.8 19.13 11.74
12/15/2021 8:45:00 PM 5.38 41.684 0.034 6.79 25.16 11.74
12/15/2021 9:00:00 PM 5.39 41.702 0.034 6.78 18.46 11.74
12/15/2021 9:15:00 PM 5.4 41.72 0.034 6.79 18.54 11.72
12/15/2021 9:30:00 PM 5.41 41.738 0.034 6.68 19.92 11.72
12/15/2021 9:45:00 PM 5.43 41.774 0.034 6.81 18.6 11.73
12/15/2021 10:00:00 PM 5.43 41.774 0.034 6.8 22.24 11.71
12/15/2021 10:15:00 PM 5.43 41.774 0.034 6.78 16.86 11.72
12/15/2021 10:30:00 PM 5.44 41.792 0.034 6.8 20.26 11.64
12/15/2021 10:45:00 PM 5.43 41.774 0.034 6.75 19.81 11.67
12/15/2021 11:00:00 PM 5.43 41.774 0.034 6.73 20.06 11.66
12/15/2021 11:15:00 PM 5.45 41.81 0.034 6.73 19.65 11.67
12/15/2021 11:30:00 PM 5.46 41.828 0.034 6.76 19.24 11.65
12/15/2021 11:45:00 PM 5.48 41.864 0.034 6.77 19.98 11.64
12/16/2021 12:00:00 AM 5.49 41.882 0.034 6.76 19 11.65
12/16/2021 12:15:00 AM 5.52 41.936 0.034 6.72 21.01 11.64
12/16/2021 12:30:00 AM 5.54 41.972 0.034 6.75 19.56 11.62
12/16/2021 12:45:00 AM 5.54 41.972 0.034 6.75 18.81 11.61
12/16/2021 1:00:00 AM 5.55 41.99 0.034 6.75 20.74 11.6
12/16/2021 1:15:00 AM 5.55 41.99 0.034 6.74 19.05 11.61
12/16/2021 1:30:00 AM 5.56 42.008 0.034 6.66 19.07 11.6
12/16/2021 1:45:00 AM 5.57 42.026 0.034 6.75 18.3 11.6
12/16/2021 2:00:00 AM 5.59 42.062 0.034 6.77 18.74 11.58
12/16/2021 2:15:00 AM 5.6 42.08 0.034 6.74 19.65 11.58
12/16/2021 2:30:00 AM 5.62 42.116 0.034 6.77 19.92 11.56
12/16/2021 2:45:00 AM 5.64 42.152 0.034 6.75 18.95 11.56
12/16/2021 3:00:00 AM 5.66 42.188 0.034 6.76 19.92 11.56
12/16/2021 3:15:00 AM 5.67 42.206 0.034 6.75 20.39 11.55
12/16/2021 3:30:00 AM 5.69 42.242 0.034 6.83 20.6 11.54
12/16/2021 3:45:00 AM 5.7 42.26 0.034 6.68 20.63 11.53
12/16/2021 4:00:00 AM 5.71 42.278 0.034 6.74 19.48 11.53
12/16/2021 4:15:00 AM 5.72 42.296 0.034 6.73 20.06 11.52
12/16/2021 4:30:00 AM 5.72 42.296 0.034 6.58 19.43 11.51
12/16/2021 4:45:00 AM 5.73 42.314 0.034 6.78 19.4 11.5
12/16/2021 5:00:00 AM 5.73 42.314 0.034 6.74 18.76 11.51
12/16/2021 5:15:00 AM 5.73 42.314 0.034 6.74 19.65 11.51
12/16/2021 5:30:00 AM 5.73 42.314 0.034 6.74 19.75 11.5
12/16/2021 5:45:00 AM 5.74 42.332 0.034 6.59 19.1 11.5
12/16/2021 6:00:00 AM 5.74 42.332 0.034 6.65 16.4 11.5
12/16/2021 6:15:00 AM 5.74 42.332 0.034 6.68 20.13 11.49
12/16/2021 6:30:00 AM 5.73 42.314 0.034 6.66 18.4 11.5
12/16/2021 6:45:00 AM 5.72 42.296 0.034 6.75 18.58 11.5
12/16/2021 7:00:00 AM 5.7 42.26 0.034 6.74 21.33 11.51
12/16/2021 7:15:00 AM 5.69 42.242 0.034 6.75 20.36 11.52
12/16/2021 7:30:00 AM 5.67 42.206 0.034 6.73 17.64 11.53
12/16/2021 7:45:00 AM 5.65 42.17 0.034 6.71 20.2 11.55
12/16/2021 8:00:00 AM 5.64 42.152 0.034 6.73 19.43 11.58
12/16/2021 8:15:00 AM 5.63 42.134 0.034 6.74 20.34 11.6
12/16/2021 8:30:00 AM 5.63 42.134 0.034 6.72 22.48 11.62
12/16/2021 8:45:00 AM 5.63 42.134 0.034 6.69 19.73 11.64
12/16/2021 9:00:00 AM 5.64 42.152 0.034 6.8 20.58 11.64
12/16/2021 9:15:00 AM 5.65 42.17 0.034 6.79 18.61 11.65
12/16/2021 9:30:00 AM 5.67 42.206 0.034 6.8 19.6 11.67
12/16/2021 9:45:00 AM 5.68 42.224 0.034 6.73 17.8 11.67
12/16/2021 10:00:00 AM 5.71 42.278 0.034 6.81 18.21 11.66
12/16/2021 10:15:00 AM 5.76 42.368 0.034 6.81 18.29 11.63
12/16/2021 10:30:00 AM 5.82 42.476 0.034 6.77 18.99 11.65
12/16/2021 10:45:00 AM 5.9 42.62 0.034 6.82 18.59 11.65
12/16/2021 11:00:00 AM 5.97 42.746 0.034 6.76 17.97 11.62
12/16/2021 11:15:00 AM 6.06 42.908 0.034 6.75 18.69 11.6
12/16/2021 11:30:00 AM 6.14 43.052 0.034 6.82 19.52 11.59
12/16/2021 11:45:00 AM 6.24 43.232 0.034 6.83 21.97 11.54
12/16/2021 12:00:00 PM 6.33 43.394 0.034 6.83 18.56 11.52
12/16/2021 12:15:00 PM 6.42 43.556 0.033 6.87 26.16 11.52
12/16/2021 12:30:00 PM 6.52 43.736 0.034 6.86 20.86 11.49
12/16/2021 12:45:00 PM 6.59 43.862 0.033 6.85 23.85 11.46
12/16/2021 1:00:00 PM 6.67 44.006 0.033 6.87 17.47 11.45
12/16/2021 1:15:00 PM 6.75 44.15 0.033 6.8 20.66 11.43
12/16/2021 1:30:00 PM 6.82 44.276 0.033 6.87 18.36 11.4
12/16/2021 1:45:00 PM 6.9 44.42 0.033 6.9 23.39 11.37
12/16/2021 2:00:00 PM 6.96 44.528 0.033 6.83 19.36 11.33
12/16/2021 2:15:00 PM 7.01 44.618 0.033 6.9 20.19 11.3
12/16/2021 2:30:00 PM 7.05 44.69 0.033 6.88 20.53 11.28
12/16/2021 2:45:00 PM 7.08 44.744 0.033 6.74 18.87 11.26
12/16/2021 3:00:00 PM 7.11 44.798 0.033 6.89 21.77 11.25
12/16/2021 3:15:00 PM 7.13 44.834 0.033 6.89 19.65 11.24
12/16/2021 3:30:00 PM 7.14 44.852 0.033 6.88 17.74 11.22
12/16/2021 3:45:00 PM 7.15 44.87 0.034 6.88 20.39 11.19
12/16/2021 4:00:00 PM 7.15 44.87 0.034 6.66 20.88 11.17
12/16/2021 4:15:00 PM 7.16 44.888 0.034 6.7 19.6 11.15
12/16/2021 4:30:00 PM 7.16 44.888 0.034 6.73 18.31 11.11
12/16/2021 4:45:00 PM 7.15 44.87 0.034 6.82 20.26 11.1
12/16/2021 5:00:00 PM 7.15 44.87 0.034 6.84 19.12 11.09
12/16/2021 5:15:00 PM 7.15 44.87 0.034 6.83 18.75 11.09
12/16/2021 5:30:00 PM 7.14 44.852 0.034 6.83 18.64 11.08
12/16/2021 5:45:00 PM 7.13 44.834 0.034 6.82 18.55 11.08
12/16/2021 6:00:00 PM 7.12 44.816 0.034 6.66 19.23 11.08
12/16/2021 6:15:00 PM 7.12 44.816 0.034 6.82 18.33 11.08
12/16/2021 6:30:00 PM 7.11 44.798 0.034 6.81 20.42 11.08
12/16/2021 6:45:00 PM 7.1 44.78 0.034 6.82 20.25 11.07
12/16/2021 7:00:00 PM 7.1 44.78 0.034 6.73 18.64 11.07
12/16/2021 7:15:00 PM 7.1 44.78 0.034 6.79 17.99 11.07
12/16/2021 7:30:00 PM 7.1 44.78 0.034 6.77 19.12 11.07
12/16/2021 7:45:00 PM 7.1 44.78 0.034 6.7 19.11 11.07
12/16/2021 8:00:00 PM 7.1 44.78 0.034 6.65 16.74 11.07
12/16/2021 8:15:00 PM 7.11 44.798 0.034 6.79 18.5 11.07
12/16/2021 8:30:00 PM 7.1 44.78 0.034 6.78 16.74 11.07
12/16/2021 8:45:00 PM 7.1 44.78 0.034 6.69 18.09 11.07
12/16/2021 9:00:00 PM 7.11 44.798 0.034 6.8 18.45 11.06
12/16/2021 9:15:00 PM 7.12 44.816 0.034 6.58 15.67 11.06
12/16/2021 9:30:00 PM 7.14 44.852 0.034 6.66 16.07 11.05
12/16/2021 9:45:00 PM 7.17 44.906 0.034 6.75 18.09 11.05
12/16/2021 10:00:00 PM 7.19 44.942 0.034 6.63 20.47 11.05
12/16/2021 10:15:00 PM 7.24 45.032 0.034 6.69 18.79 11.04
12/16/2021 10:30:00 PM 7.26 45.068 0.034 6.8 17.3 11.03
12/16/2021 10:45:00 PM 7.29 45.122 0.034 6.6 18.04 11.02
12/16/2021 11:00:00 PM 7.32 45.176 0.034 6.7 17.47 11.02
12/16/2021 11:15:00 PM 7.36 45.248 0.034 6.81 16.39 11.01
12/16/2021 11:30:00 PM 7.38 45.284 0.034 6.81 15.39 11.01
12/16/2021 11:45:00 PM 7.4 45.32 0.034 6.8 16.32 10.99
12/17/2021 12:00:00 AM 7.43 45.374 0.034 6.62 17.03 10.98
12/17/2021 12:15:00 AM 7.47 45.446 0.034 6.77 16.63 10.98
12/17/2021 12:30:00 AM 7.48 45.464 0.034 6.83 17.35 10.97
12/17/2021 12:45:00 AM 7.46 45.428 0.034 6.72 15.77 10.98
12/17/2021 1:00:00 AM 7.44 45.392 0.034 6.67 19.55 10.98
12/17/2021 1:15:00 AM 7.43 45.374 0.034 6.8 16.9 10.98
12/17/2021 1:30:00 AM 7.42 45.356 0.034 6.82 15.98 10.99
12/17/2021 1:45:00 AM 7.41 45.338 0.034 6.72 16.67 10.99
12/17/2021 2:00:00 AM 7.38 45.284 0.034 6.82 16.57 11
12/17/2021 2:15:00 AM 7.35 45.23 0.034 6.81 16.72 11.01
12/17/2021 2:30:00 AM 7.33 45.194 0.034 6.81 16.55 11.03
12/17/2021 2:45:00 AM 7.29 45.122 0.034 6.81 16.44 11.04
12/17/2021 3:00:00 AM 7.25 45.05 0.034 6.64 16.66 11.06
12/17/2021 3:15:00 AM 7.21 44.978 0.034 6.8 16.95 11.07
12/17/2021 3:30:00 AM 7.15 44.87 0.034 6.69 16.27 11.09
12/17/2021 3:45:00 AM 7.09 44.762 0.034 6.81 16.21 11.1
12/17/2021 4:00:00 AM 7.05 44.69 0.034 6.79 16.08 11.11
12/17/2021 4:15:00 AM 7 44.6 0.034 6.78 16.76 11.12
12/17/2021 4:30:00 AM 6.95 44.51 0.034 6.79 18.64 11.13
12/17/2021 4:45:00 AM 6.9 44.42 0.034 6.79 17.53 11.16
12/17/2021 5:00:00 AM 6.85 44.33 0.034 6.63 17.05 11.18
12/17/2021 5:15:00 AM 6.78 44.204 0.034 6.81 16 11.21
12/17/2021 5:30:00 AM 6.73 44.114 0.034 6.82 19.98 11.23
12/17/2021 5:45:00 AM 6.67 44.006 0.034 6.84 17.53 11.25
12/17/2021 6:00:00 AM 6.62 43.916 0.034 6.78 19.41 11.26
12/17/2021 6:15:00 AM 6.56 43.808 0.034 6.77 21.3 11.27
12/17/2021 6:30:00 AM 6.5 43.7 0.034 6.83 20.26 11.29
12/17/2021 6:45:00 AM 6.45 43.61 0.034 6.73 20.4 11.31
12/17/2021 7:00:00 AM 6.38 43.484 0.034 6.85 23.28 11.31
12/17/2021 7:15:00 AM 6.31 43.358 0.034 6.83 19.5 11.34
12/17/2021 7:30:00 AM 6.25 43.25 0.034 6.83 19.1 11.37
12/17/2021 7:45:00 AM 6.2 43.16 0.034 6.84 17.93 11.4
12/17/2021 8:00:00 AM 6.13 43.034 0.034 6.85 22.18 11.43
12/17/2021 8:15:00 AM 6.08 42.944 0.034 6.84 16.32 11.46
12/17/2021 8:30:00 AM 6.04 42.872 0.034 6.85 19.93 11.49
12/17/2021 8:45:00 AM 5.98 42.764 0.034 6.86 17.95 11.52
12/17/2021 9:00:00 AM 5.93 42.674 0.034 6.87 17.44 11.55
12/17/2021 9:15:00 AM 5.91 42.638 0.034 6.79 17.68 11.54
12/17/2021 9:30:00 AM 5.88 42.584 0.034 6.82 17.27 11.56
12/17/2021 9:45:00 AM 5.86 42.548 0.034 6.9 18.6 11.59
12/17/2021 10:00:00 AM 5.86 42.548 0.034 6.86 19.3 11.6
12/17/2021 10:15:00 AM 5.89 42.602 0.034 6.81 20.35 11.64
12/17/2021 10:30:00 AM 5.95 42.71 0.034 6.86 21.45 11.64
12/17/2021 10:45:00 AM 6 42.8 0.034 6.88 20.52 11.65
12/17/2021 11:00:00 AM 6.04 42.872 0.034 6.79 19.54 11.64
12/17/2021 11:15:00 AM 6.11 42.998 0.034 6.89 18.68 11.62
12/17/2021 11:30:00 AM 6.18 43.124 0.034 6.89 17.98 11.61
12/17/2021 11:45:00 AM 6.25 43.25 0.034 6.87 18.65 11.58
12/17/2021 12:00:00 PM 6.32 43.376 0.034 6.88 21 11.55
12/17/2021 12:15:00 PM 6.38 43.484 0.034 6.88 20.09 11.54
12/17/2021 12:30:00 PM 6.43 43.574 0.034 6.86 18.71 11.52
12/17/2021 12:45:00 PM 6.48 43.664 0.034 6.85 19.3 11.51
12/17/2021 1:00:00 PM 6.52 43.736 0.033 6.89 17.31 11.49
12/17/2021 1:15:00 PM 6.57 43.826 0.033 6.89 19.43 11.49
12/17/2021 1:30:00 PM 6.6 43.88 0.033 6.89 18.21 11.48
12/17/2021 1:45:00 PM 6.64 43.952 0.033 6.9 17.52 11.49
12/17/2021 2:00:00 PM 6.68 44.024 0.033 6.89 18.98 11.46
12/17/2021 2:15:00 PM 6.72 44.096 0.033 6.89 20.54 11.46
12/17/2021 2:30:00 PM 6.74 44.132 0.033 6.9 18.64 11.45
12/17/2021 2:45:00 PM 6.76 44.168 0.033 6.87 19.16 11.44
12/17/2021 3:00:00 PM 6.77 44.186 0.033 6.89 19.81 11.41
12/17/2021 3:15:00 PM 6.78 44.204 0.033 6.88 20.14 11.39
12/17/2021 3:30:00 PM 6.78 44.204 0.033 6.9 18.01 11.38
12/17/2021 3:45:00 PM 6.79 44.222 0.033 6.8 18.33 11.37
12/17/2021 4:00:00 PM 6.79 44.222 0.034 6.88 17.93 11.34
12/17/2021 4:15:00 PM 6.78 44.204 0.034 6.77 18.62 11.31
12/17/2021 4:30:00 PM 6.75 44.15 0.034 6.86 18.67 11.31
12/17/2021 4:45:00 PM 6.72 44.096 0.034 6.84 20.77 11.3
12/17/2021 5:00:00 PM 6.7 44.06 0.034 6.78 18.79 11.29
12/17/2021 5:15:00 PM 6.66 43.988 0.034 6.84 19.14 11.29
12/17/2021 5:30:00 PM 6.62 43.916 0.034 6.85 18.3 11.29
12/17/2021 5:45:00 PM 6.58 43.844 0.034 6.79 17.88 11.3
12/17/2021 6:00:00 PM 6.53 43.754 0.034 6.75 18.31 11.3
12/17/2021 6:15:00 PM 6.48 43.664 0.034 6.8 18.5 11.31
12/17/2021 6:30:00 PM 6.43 43.574 0.034 6.77 18.27 11.32
12/17/2021 6:45:00 PM 6.38 43.484 0.034 6.81 17.95 11.32
12/17/2021 7:00:00 PM 6.31 43.358 0.034 6.76 18.48 11.37
12/17/2021 7:15:00 PM 6.26 43.268 0.034 6.77 19.55 11.39
12/17/2021 7:30:00 PM 6.21 43.178 0.034 6.8 18.08 11.4
12/17/2021 7:45:00 PM 6.16 43.088 0.034 6.83 19.38 11.42
12/17/2021 8:00:00 PM 6.11 42.998 0.034 6.8 18.31 11.43
12/17/2021 8:15:00 PM 6.06 42.908 0.034 6.84 18.63 11.46
12/17/2021 8:30:00 PM 6.02 42.836 0.034 6.7 19.19 11.47
12/17/2021 8:45:00 PM 5.98 42.764 0.034 6.81 18.01 11.48
12/17/2021 9:00:00 PM 5.94 42.692 0.034 6.82 18.1 11.49
12/17/2021 9:15:00 PM 5.9 42.62 0.034 6.76 18.17 11.5
12/17/2021 9:30:00 PM 5.88 42.584 0.034 6.82 18.11 11.5
12/17/2021 9:45:00 PM 5.85 42.53 0.034 6.82 18.55 11.5
12/17/2021 10:00:00 PM 5.82 42.476 0.034 6.7 19.15 11.51
12/17/2021 10:15:00 PM 5.79 42.422 0.034 6.74 18.11 11.51
12/17/2021 10:30:00 PM 5.77 42.386 0.034 6.81 18.26 11.52
12/17/2021 10:45:00 PM 5.76 42.368 0.034 6.73 18.46 11.54
12/17/2021 11:00:00 PM 5.75 42.35 0.034 6.76 19.06 11.53
12/17/2021 11:15:00 PM 5.74 42.332 0.034 6.82 17.97 11.53
12/17/2021 11:30:00 PM 5.72 42.296 0.034 6.84 19.04 11.54
12/17/2021 11:45:00 PM 5.73 42.314 0.034 6.79 19.23 11.54
12/18/2021 12:00:00 AM 5.72 42.296 0.034 6.73 19.39 11.55
12/18/2021 12:15:00 AM 5.7 42.26 0.034 6.77 18.18 11.57
12/18/2021 12:30:00 AM 5.69 42.242 0.034 6.82 18.01 11.58
12/18/2021 12:45:00 AM 5.69 42.242 0.034 6.75 17.51 11.57
12/18/2021 1:00:00 AM 5.69 42.242 0.034 6.84 18.91 11.57
12/18/2021 1:15:00 AM 5.69 42.242 0.034 6.84 19.3 11.57
12/18/2021 1:30:00 AM 5.68 42.224 0.034 6.71 19.55 11.58
12/18/2021 1:45:00 AM 5.67 42.206 0.034 6.82 20.77 11.58
12/18/2021 2:00:00 AM 5.68 42.224 0.034 6.83 19.44 11.58
12/18/2021 2:15:00 AM 5.68 42.224 0.034 6.69 20.26 11.57
12/18/2021 2:30:00 AM 5.69 42.242 0.034 6.83 20.47 11.56
12/18/2021 2:45:00 AM 5.69 42.242 0.034 6.73 19.76 11.56
12/18/2021 3:00:00 AM 5.69 42.242 0.034 6.8 18.68 11.56
12/18/2021 3:15:00 AM 5.68 42.224 0.034 6.75 21.29 11.57
12/18/2021 3:30:00 AM 5.68 42.224 0.034 6.73 20.1 11.57
12/18/2021 3:45:00 AM 5.68 42.224 0.034 6.75 20.25 11.57
12/18/2021 4:00:00 AM 5.69 42.242 0.034 6.75 23.3 11.57
12/18/2021 4:15:00 AM 5.69 42.242 0.034 6.82 19.78 11.56
12/18/2021 4:30:00 AM 5.69 42.242 0.034 6.81 18.05 11.56
12/18/2021 4:45:00 AM 5.7 42.26 0.034 6.81 19.57 11.57
12/18/2021 5:00:00 AM 5.7 42.26 0.034 6.82 17.68 11.56
12/18/2021 5:15:00 AM 5.7 42.26 0.034 6.81 19.64 11.56
12/18/2021 5:30:00 AM 5.71 42.278 0.034 6.83 18.07 11.56
12/18/2021 5:45:00 AM 5.71 42.278 0.034 6.81 19.11 11.56
12/18/2021 6:00:00 AM 5.71 42.278 0.034 6.82 19.49 11.55
12/18/2021 6:15:00 AM 5.72 42.296 0.034 6.78 18.31 11.55
12/18/2021 6:30:00 AM 5.71 42.278 0.034 6.82 18.13 11.55
12/18/2021 6:45:00 AM 5.71 42.278 0.034 6.82 18.19 11.55
12/18/2021 7:00:00 AM 5.7 42.26 0.034 6.82 20.61 11.55
12/18/2021 7:15:00 AM 5.7 42.26 0.034 6.83 21.17 11.56
12/18/2021 7:30:00 AM 5.68 42.224 0.034 6.75 19.15 11.57
12/18/2021 7:45:00 AM 5.67 42.206 0.034 6.82 20.27 11.57
12/18/2021 8:00:00 AM 5.66 42.188 0.034 6.83 17.57 11.58
12/18/2021 8:15:00 AM 5.66 42.188 0.034 6.77 18.52 11.59
12/18/2021 8:30:00 AM 5.66 42.188 0.034 6.84 19.18 11.59
12/18/2021 8:45:00 AM 5.65 42.17 0.034 6.84 16.75 11.6
12/18/2021 9:00:00 AM 5.64 42.152 0.034 6.84 19.81 11.62
12/18/2021 9:15:00 AM 5.64 42.152 0.034 6.74 21.59 11.63
12/18/2021 9:30:00 AM 5.64 42.152 0.034 6.78 19.91 11.64
12/18/2021 9:45:00 AM 5.64 42.152 0.034 6.85 19.35 11.65
12/18/2021 10:00:00 AM 5.64 42.152 0.034 6.75 19.5 11.65
12/18/2021 10:15:00 AM 5.64 42.152 0.034 6.85 21.8 11.65
12/18/2021 10:30:00 AM 5.64 42.152 0.034 6.86 21.64 11.64
12/18/2021 10:45:00 AM 5.64 42.152 0.034 6.74 19.54 11.65
12/18/2021 11:00:00 AM 5.65 42.17 0.034 6.84 20.66 11.66
12/18/2021 11:15:00 AM 5.65 42.17 0.034 6.8 20.47 11.66
12/18/2021 11:30:00 AM 5.65 42.17 0.033 6.86 20.4 11.65
12/18/2021 11:45:00 AM 5.65 42.17 0.033 6.84 19.79 11.64
12/18/2021 12:00:00 PM 5.65 42.17 0.033 6.81 19.25 11.65
12/18/2021 12:15:00 PM 5.65 42.17 0.033 6.83 23.77 11.66
12/18/2021 12:30:00 PM 5.65 42.17 0.033 6.79 18.75 11.65
12/18/2021 12:45:00 PM 5.65 42.17 0.033 6.85 22.77 11.64
12/18/2021 1:00:00 PM 5.65 42.17 0.033 6.81 19.94 11.64
12/18/2021 1:15:00 PM 5.66 42.188 0.033 6.85 22.69 11.61
12/18/2021 1:30:00 PM 5.66 42.188 0.033 6.84 22.24 11.59
12/18/2021 1:45:00 PM 5.66 42.188 0.033 6.83 19.64 11.58
12/18/2021 2:00:00 PM 5.65 42.17 0.033 6.85 20.25 11.57
12/18/2021 2:15:00 PM 5.65 42.17 0.033 6.83 18.55 11.58
12/18/2021 2:30:00 PM 5.65 42.17 0.033 6.75 18.89 11.57
12/18/2021 2:45:00 PM 5.66 42.188 0.033 6.86 20.42 11.58
12/18/2021 3:00:00 PM 5.66 42.188 0.033 6.83 19.15 11.57
12/18/2021 3:15:00 PM 5.66 42.188 0.034 6.78 19.51 11.56
12/18/2021 3:30:00 PM 5.67 42.206 0.034 6.83 20.42 11.53
12/18/2021 3:45:00 PM 5.66 42.188 0.034 6.83 20.13 11.53
12/18/2021 4:00:00 PM 5.66 42.188 0.034 6.76 20.36 11.53
12/18/2021 4:15:00 PM 5.66 42.188 0.034 6.83 19.67 11.52
12/18/2021 4:30:00 PM 5.66 42.188 0.034 6.77 20.55 11.5
12/18/2021 4:45:00 PM 5.66 42.188 0.034 6.81 22.56 11.49
12/18/2021 5:00:00 PM 5.67 42.206 0.034 6.84 21.12 11.49
12/18/2021 5:15:00 PM 5.67 42.206 0.034 6.83 21.03 11.48
12/18/2021 5:30:00 PM 5.68 42.224 0.034 6.84 22.36 11.48
12/18/2021 5:45:00 PM 5.68 42.224 0.034 6.83 19.97 11.47
12/18/2021 6:00:00 PM 5.69 42.242 0.034 6.82 20.23 11.47
12/18/2021 6:15:00 PM 5.69 42.242 0.034 6.83 20.86 11.47
12/18/2021 6:30:00 PM 5.69 42.242 0.034 6.81 20.17 11.46
12/18/2021 6:45:00 PM 5.69 42.242 0.034 6.83 21.08 11.46
12/18/2021 7:00:00 PM 5.7 42.26 0.034 6.85 21.21 11.46
12/18/2021 7:15:00 PM 5.7 42.26 0.034 6.82 19.9 11.46
12/18/2021 7:30:00 PM 5.71 42.278 0.034 6.75 20.9 11.45
12/18/2021 7:45:00 PM 5.71 42.278 0.034 6.84 22.82 11.46
12/18/2021 8:00:00 PM 5.72 42.296 0.034 6.81 19.9 11.45
12/18/2021 8:15:00 PM 5.73 42.314 0.034 6.77 21.02 11.44
12/18/2021 8:30:00 PM 5.73 42.314 0.034 6.83 20.02 11.45
12/18/2021 8:45:00 PM 5.74 42.332 0.034 6.82 20.1 11.44
12/18/2021 9:00:00 PM 5.74 42.332 0.034 6.81 20.34 11.44
12/18/2021 9:15:00 PM 5.75 42.35 0.034 6.74 20.1 11.44
12/18/2021 9:30:00 PM 5.76 42.368 0.034 6.77 16.79 11.43
12/18/2021 9:45:00 PM 5.76 42.368 0.034 6.77 19.87 11.43
12/18/2021 10:00:00 PM 5.76 42.368 0.034 6.83 20.46 11.43
12/18/2021 10:15:00 PM 5.77 42.386 0.034 6.82 20.81 11.43
12/18/2021 10:30:00 PM 5.77 42.386 0.034 6.81 22.55 11.43
12/18/2021 10:45:00 PM 5.78 42.404 0.034 6.78 20.38 11.43
12/18/2021 11:00:00 PM 5.78 42.404 0.034 6.75 20.62 11.44
12/18/2021 11:15:00 PM 5.79 42.422 0.034 6.77 20.76 11.44
12/18/2021 11:30:00 PM 5.79 42.422 0.034 6.81 20.03 11.44
12/18/2021 11:45:00 PM 5.8 42.44 0.034 6.81 20.74 11.44
12/19/2021 12:00:00 AM 5.8 42.44 0.034 6.81 19.86 11.43
12/19/2021 12:15:00 AM 5.8 42.44 0.034 6.79 22.15 11.44
12/19/2021 12:30:00 AM 5.81 42.458 0.034 6.82 20.25 11.45
12/19/2021 12:45:00 AM 5.81 42.458 0.034 6.82 22.08 11.45
12/19/2021 1:00:00 AM 5.79 42.422 0.034 6.81 21.46 11.46
12/19/2021 1:15:00 AM 5.77 42.386 0.034 6.81 22.7 11.46
12/19/2021 1:30:00 AM 5.74 42.332 0.034 6.74 19.41 11.47
12/19/2021 1:45:00 AM 5.71 42.278 0.034 6.76 21.33 11.49
12/19/2021 2:00:00 AM 5.67 42.206 0.034 6.81 21.18 11.51
12/19/2021 2:15:00 AM 5.63 42.134 0.034 6.71 22.77 11.53
12/19/2021 2:30:00 AM 5.6 42.08 0.034 6.81 20.2 11.54
12/19/2021 2:45:00 AM 5.56 42.008 0.034 6.79 21.6 11.57
12/19/2021 3:00:00 AM 5.53 41.954 0.034 6.78 20.26 11.58
12/19/2021 3:15:00 AM 5.5 41.9 0.034 6.81 20.07 11.59
12/19/2021 3:30:00 AM 5.46 41.828 0.034 6.8 24.71 11.6
12/19/2021 3:45:00 AM 5.43 41.774 0.034 6.72 18.24 11.62
12/19/2021 4:00:00 AM 5.4 41.72 0.034 6.73 21.53 11.63
12/19/2021 4:15:00 AM 5.36 41.648 0.034 6.81 21.97 11.64
12/19/2021 4:30:00 AM 5.33 41.594 0.034 6.71 18.27 11.65
12/19/2021 4:45:00 AM 5.3 41.54 0.034 6.81 24.54 11.66
12/19/2021 5:00:00 AM 5.27 41.486 0.034 6.81 19.91 11.66
12/19/2021 5:15:00 AM 5.24 41.432 0.034 6.81 19.83 11.67
12/19/2021 5:30:00 AM 5.24 41.432 0.034 6.81 23 11.68
12/19/2021 5:45:00 AM 5.22 41.396 0.034 6.8 18.79 11.69
12/19/2021 6:00:00 AM 5.21 41.378 0.034 6.79 18.81 11.68
12/19/2021 6:15:00 AM 5.19 41.342 0.034 6.81 18.52 11.69
12/19/2021 6:30:00 AM 5.17 41.306 0.034 6.79 20.84 11.69
12/19/2021 6:45:00 AM 5.15 41.27 0.034 6.77 16.87 11.71
12/19/2021 7:00:00 AM 5.13 41.234 0.014 6.8 17.71 11.71
12/19/2021 7:15:00 AM 5.11 41.198 0.033 6.81 20.42 11.72
12/19/2021 7:30:00 AM 5.09 41.162 0.033 6.79 20.38 11.72
12/19/2021 7:45:00 AM 5.07 41.126 0.034 6.8 20.37 11.74
12/19/2021 8:00:00 AM 5.05 41.09 0.034 6.76 18.85 11.76
12/19/2021 8:15:00 AM 5.02 41.036 0.034 6.82 19.68 11.79
12/19/2021 8:30:00 AM 4.97 40.946 0.034 6.81 18.3 11.82
12/19/2021 8:45:00 AM 4.94 40.892 0.034 6.82 18.81 11.83
12/19/2021 9:00:00 AM 4.93 40.874 0.034 6.8 18.7 11.86
12/19/2021 9:15:00 AM 4.91 40.838 0.034 6.76 18.89 11.9
12/19/2021 9:30:00 AM 4.9 40.82 0.034 6.84 19.44 11.93
12/19/2021 9:45:00 AM 4.88 40.784 0.031 6.84 22.18 11.95
12/19/2021 10:00:00 AM 4.86 40.748 0.034 6.8 20.48 11.97
12/19/2021 10:15:00 AM 4.85 40.73 0.034 6.82 19.33 11.97
12/19/2021 10:30:00 AM 4.84 40.712 0.034 6.82 21.1 11.99
12/19/2021 10:45:00 AM 4.83 40.694 0.034 6.82 18.44 12.01
12/19/2021 11:00:00 AM 4.83 40.694 0.034 6.84 20.48 12.01
12/19/2021 11:15:00 AM 4.83 40.694 0.034 6.83 18.67 12.03
12/19/2021 11:30:00 AM 4.84 40.712 0.034 6.86 20.29 12.03
12/19/2021 11:45:00 AM 4.85 40.73 0.034 6.84 18.56 12.03
12/19/2021 12:00:00 PM 4.87 40.766 0.033 6.85 21.75 12.03
12/19/2021 12:15:00 PM 4.89 40.802 0.033 6.84 19.94 12.02
12/19/2021 12:30:00 PM 4.91 40.838 0.033 6.82 20.14 12.03
12/19/2021 12:45:00 PM 4.94 40.892 0.033 6.79 20.05 12.02
12/19/2021 1:00:00 PM 4.97 40.946 0.033 6.81 22.26 12
12/19/2021 1:15:00 PM 5 41 0.033 6.86 22.79 11.98
12/19/2021 1:30:00 PM 5.01 41.018 0.033 6.87 19.49 11.97
12/19/2021 1:45:00 PM 5.01 41.018 0.033 6.85 19.64 11.97
12/19/2021 2:00:00 PM 5.01 41.018 0.033 6.77 20.67 11.97
12/19/2021 2:15:00 PM 4.99 40.982 0.033 6.83 20.19 11.96
12/19/2021 2:30:00 PM 4.98 40.964 0.033 6.83 15.1 11.97
12/19/2021 2:45:00 PM 4.95 40.91 0.033 6.84 19.47 11.97
12/19/2021 3:00:00 PM 4.91 40.838 0.033 6.78 20.05 11.96
12/19/2021 3:15:00 PM 4.87 40.766 0.034 6.84 20.55 11.97
12/19/2021 3:30:00 PM 4.81 40.658 0.034 6.81 20.38 11.97
12/19/2021 3:45:00 PM 4.75 40.55 0.034 6.85 19.06 11.97
12/19/2021 4:00:00 PM 4.71 40.478 0.034 6.76 19.94 11.98
12/19/2021 4:15:00 PM 4.67 40.406 0.034 6.76 19.39 11.98
12/19/2021 4:30:00 PM 4.64 40.352 0.034 6.76 20.59 11.98
12/19/2021 4:45:00 PM 4.58 40.244 0.034 6.82 20.71 11.97
12/19/2021 5:00:00 PM 4.54 40.172 0.034 6.79 20.03 11.97
12/19/2021 5:15:00 PM 4.49 40.082 0.034 6.82 19.08 11.97
12/19/2021 5:30:00 PM 4.44 39.992 0.034 6.81 18.8 11.98
12/19/2021 5:45:00 PM 4.4 39.92 0.034 6.79 20.77 12
12/19/2021 6:00:00 PM 4.36 39.848 0.034 6.79 21.95 12.02
12/19/2021 6:15:00 PM 4.33 39.794 0.034 6.71 20.29 12.03
12/19/2021 6:30:00 PM 4.29 39.722 0.034 6.81 20.22 12.04
12/19/2021 6:45:00 PM 4.26 39.668 0.034 6.79 18.71 12.05
12/19/2021 7:00:00 PM 4.22 39.596 0.034 6.76 19.67 12.07
12/19/2021 7:15:00 PM 4.2 39.56 0.034 6.78 20.13 12.08
12/19/2021 7:30:00 PM 4.18 39.524 0.034 6.79 20.01 12.09
12/19/2021 7:45:00 PM 4.15 39.47 0.034 6.76 19.45 12.09
12/19/2021 8:00:00 PM 4.12 39.416 0.034 6.79 22.31 12.1
12/19/2021 8:15:00 PM 4.08 39.344 0.034 6.79 18.1 12.12
12/19/2021 8:30:00 PM 4.05 39.29 0.034 6.79 19.86 12.13
12/19/2021 8:45:00 PM 4.02 39.236 0.034 6.8 22.81 12.13
12/19/2021 9:00:00 PM 3.99 39.182 0.034 6.79 18.9 12.15
12/19/2021 9:15:00 PM 3.96 39.128 0.034 6.76 22.65 12.15
12/19/2021 9:30:00 PM 3.94 39.092 0.034 6.72 20.97 12.15
12/19/2021 9:45:00 PM 3.91 39.038 0.034 6.78 19.41 12.16
12/19/2021 10:00:00 PM 3.87 38.966 0.034 6.78 20.18 12.17
12/19/2021 10:15:00 PM 3.84 38.912 0.034 6.78 18.86 12.18
12/19/2021 10:30:00 PM 3.8 38.84 0.034 6.77 20.14 12.2
12/19/2021 10:45:00 PM 3.77 38.786 0.034 6.7 19.63 12.21
12/19/2021 11:00:00 PM 3.73 38.714 0.034 6.79 19.67 12.23
12/19/2021 11:15:00 PM 3.69 38.642 0.034 6.72 21.11 12.25
12/19/2021 11:30:00 PM 3.66 38.588 0.034 6.75 18.43 12.26
12/19/2021 11:45:00 PM 3.63 38.534 0.034 6.73 21.06 12.27
12/20/2021 12:00:00 AM 3.59 38.462 0.034 6.7 19.56 12.29
12/20/2021 12:15:00 AM 3.55 38.39 0.034 6.67 20.8 12.3
12/20/2021 12:30:00 AM 3.52 38.336 0.034 6.72 20.27 12.31
12/20/2021 12:45:00 AM 3.48 38.264 0.034 6.7 17.67 12.34
12/20/2021 1:00:00 AM 3.44 38.192 0.034 6.61 19.54 12.34
12/20/2021 1:15:00 AM 3.41 38.138 0.034 6.63 18.91 12.35
12/20/2021 1:30:00 AM 3.37 38.066 0.034 6.62 19.52 12.36
12/20/2021 1:45:00 AM 3.34 38.012 0.034 6.71 20.15 12.36
12/20/2021 2:00:00 AM 3.3 37.94 0.034 6.71 20.18 12.37
12/20/2021 2:15:00 AM 3.26 37.868 0.034 6.72 20.21 12.39
12/20/2021 2:30:00 AM 3.23 37.814 0.034 6.7 20.19 12.39
12/20/2021 2:45:00 AM 3.19 37.742 0.034 6.72 19.35 12.4
12/20/2021 3:00:00 AM 3.16 37.688 0.034 6.61 18.92 12.42
12/20/2021 3:15:00 AM 3.13 37.634 0.034 6.72 19.92 12.43
12/20/2021 3:30:00 AM 3.09 37.562 0.034 6.74 19.66 12.45
12/20/2021 3:45:00 AM 3.06 37.508 0.034 6.71 19.56 12.47
12/20/2021 4:00:00 AM 3.04 37.472 0.034 6.65 18.47 12.48
12/20/2021 4:15:00 AM 3 37.4 0.034 6.71 20.59 12.49
12/20/2021 4:30:00 AM 2.97 37.346 0.034 6.72 20.99 12.5
12/20/2021 4:45:00 AM 2.94 37.292 0.034 6.7 20.59 12.51
12/20/2021 5:00:00 AM 2.91 37.238 0.034 6.72 21.22 12.52
12/20/2021 5:15:00 AM 2.88 37.184 0.034 6.7 21.33 12.54
12/20/2021 5:30:00 AM 2.84 37.112 0.034 6.71 21.65 12.55
12/20/2021 5:45:00 AM 2.82 37.076 0.034 6.65 20.62 12.56
12/20/2021 6:00:00 AM 2.78 37.004 0.033 6.74 19.48 12.57
12/20/2021 6:15:00 AM 2.75 36.95 0.034 6.7 19.43 12.57
12/20/2021 6:30:00 AM 2.73 36.914 0.034 6.69 18.57 12.57
12/20/2021 6:45:00 AM 2.7 36.86 0.034 6.7 18.66 12.58
12/20/2021 7:00:00 AM 2.67 36.806 0.034 6.7 18.1 12.59
12/20/2021 7:15:00 AM 2.65 36.77 0.034 6.7 21.84 12.59
12/20/2021 7:30:00 AM 2.62 36.716 0.034 6.73 20.42 12.6
12/20/2021 7:45:00 AM 2.6 36.68 0.034 6.65 20.57 12.62
12/20/2021 8:00:00 AM 2.57 36.626 0.034 6.71 19 12.66
12/20/2021 8:15:00 AM 2.56 36.608 0.034 6.73 19.11 12.66
12/20/2021 8:30:00 AM 2.53 36.554 0.034 6.62 19.63 12.68
12/20/2021 8:45:00 AM 2.52 36.536 0.034 6.71 21.13 12.71
12/20/2021 9:00:00 AM 2.51 36.518 0.034 6.72 20.26 12.73
12/20/2021 9:15:00 AM 2.5 36.5 0.034 6.71 22.58 12.75
12/20/2021 9:30:00 AM 2.5 36.5 0.034 6.74 20.67 12.75
12/20/2021 9:45:00 AM 2.51 36.518 0.034 6.66 21.02 12.76
12/20/2021 10:00:00 AM 2.54 36.572 0.034 6.7 26.62 12.77
12/20/2021 10:15:00 AM 2.56 36.608 0.034 6.77 18.89 12.77
12/20/2021 10:30:00 AM 2.63 36.734 0.034 6.75 20.27 12.74
12/20/2021 10:45:00 AM 2.69 36.842 0.034 6.73 21.21 12.74
12/20/2021 11:00:00 AM 2.76 36.968 0.034 6.76 22.5 12.74
12/20/2021 11:15:00 AM 2.83 37.094 0.034 6.76 21.99 12.72
12/20/2021 11:30:00 AM 2.9 37.22 0.034 6.78 19.42 12.69
12/20/2021 11:45:00 AM 2.98 37.364 0.034 6.78 19.64 12.66
12/20/2021 12:00:00 PM 3.06 37.508 0.034 6.65 19.9 12.64
12/20/2021 12:15:00 PM 3.13 37.634 0.034 6.79 19.53 12.61
12/20/2021 12:30:00 PM 3.22 37.796 0.034 6.68 19.66 12.58
12/20/2021 12:45:00 PM 3.31 37.958 0.034 6.79 20.47 12.53
12/20/2021 1:00:00 PM 3.37 38.066 0.034 6.75 19.59 12.5
12/20/2021 1:15:00 PM 3.45 38.21 0.034 6.79 18.84 12.48
12/20/2021 1:30:00 PM 3.49 38.282 0.034 6.78 19.28 12.46
12/20/2021 1:45:00 PM 3.53 38.354 0.034 6.78 19.91 12.43
12/20/2021 2:00:00 PM 3.57 38.426 0.034 6.75 19.52 12.41
12/20/2021 2:15:00 PM 3.59 38.462 0.034 6.73 20.53 12.4
12/20/2021 2:30:00 PM 3.6 38.48 0.034 6.81 17.67 12.38
12/20/2021 2:45:00 PM 3.61 38.498 0.034 6.79 20.42 12.37
12/20/2021 3:00:00 PM 3.61 38.498 0.034 6.78 20.75 12.36
12/20/2021 3:15:00 PM 3.61 38.498 0.034 6.8 20.7 12.35
12/20/2021 3:30:00 PM 3.61 38.498 0.034 6.81 21.91 12.35
12/20/2021 3:45:00 PM 3.6 38.48 0.034 6.79 23.67 12.35
12/20/2021 4:00:00 PM 3.6 38.48 0.034 6.79 23.43 12.32
12/20/2021 4:15:00 PM 3.59 38.462 0.034 6.79 22.84 12.31
12/20/2021 4:30:00 PM 3.57 38.426 0.034 6.71 22.68 12.3
12/20/2021 4:45:00 PM 3.56 38.408 0.034 6.79 20.28 12.29
12/20/2021 5:00:00 PM 3.53 38.354 0.034 6.79 22.7 12.28
12/20/2021 5:15:00 PM 3.51 38.318 0.034 6.78 21.42 12.28
12/20/2021 5:30:00 PM 3.48 38.264 0.034 6.76 20.57 12.28
12/20/2021 5:45:00 PM 3.45 38.21 0.034 6.69 21.36 12.28
12/20/2021 6:00:00 PM 3.42 38.156 0.034 6.77 21.6 12.29
12/20/2021 6:15:00 PM 3.39 38.102 0.034 6.78 21.6 12.31
12/20/2021 6:30:00 PM 3.37 38.066 0.034 6.77 22.36 12.32
12/20/2021 6:45:00 PM 3.35 38.03 0.034 6.7 22.06 12.32
12/20/2021 7:00:00 PM 3.32 37.976 0.034 6.78 24.5 12.31
12/20/2021 7:15:00 PM 3.29 37.922 0.034 6.7 25 12.33
12/20/2021 7:30:00 PM 3.28 37.904 0.034 6.72 24.51 12.33
12/20/2021 7:45:00 PM 3.25 37.85 0.034 6.77 22.39 12.34
12/20/2021 8:00:00 PM 3.23 37.814 0.034 6.77 22.23 12.34
12/20/2021 8:15:00 PM 3.2 37.76 0.034 6.79 22.62 12.35
12/20/2021 8:30:00 PM 3.17 37.706 0.034 6.67 20.02 12.36
12/20/2021 8:45:00 PM 3.15 37.67 0.034 6.73 25.74 12.37
12/20/2021 9:00:00 PM 3.12 37.616 0.034 6.77 23.46 12.39
12/20/2021 9:15:00 PM 3.09 37.562 0.034 6.75 21.65 12.4
12/20/2021 9:30:00 PM 3.05 37.49 0.034 6.76 19.53 12.41
12/20/2021 9:45:00 PM 3.02 37.436 0.034 6.77 22.04 12.43
12/20/2021 10:00:00 PM 3 37.4 0.034 6.71 24.4 12.43
12/20/2021 10:15:00 PM 2.97 37.346 0.034 6.77 38.73 12.44
12/20/2021 10:30:00 PM 2.93 37.274 0.034 6.78 19.43 12.44
12/20/2021 10:45:00 PM 2.9 37.22 0.034 6.77 20.79 12.46
12/20/2021 11:00:00 PM 2.87 37.166 0.034 6.63 20.94 12.47
12/20/2021 11:15:00 PM 2.84 37.112 0.034 6.74 23.59 12.49
12/20/2021 11:30:00 PM 2.82 37.076 0.034 6.73 33.06 12.47
12/20/2021 11:45:00 PM 2.79 37.022 0.034 6.68 22.78 12.48
12/21/2021 12:00:00 AM 2.77 36.986 0.034 6.77 22.11 12.48
12/21/2021 12:15:00 AM 2.74 36.932 0.034 6.75 20.69 12.49
12/21/2021 12:30:00 AM 2.71 36.878 0.034 6.69 21.95 12.49
12/21/2021 12:45:00 AM 2.68 36.824 0.034 6.77 23.06 12.51
12/21/2021 1:00:00 AM 2.66 36.788 0.034 6.69 24.84 12.51
12/21/2021 1:15:00 AM 2.64 36.752 0.034 6.77 22.59 12.5
12/21/2021 1:30:00 AM 2.62 36.716 0.034 6.77 23.29 12.51
12/21/2021 1:45:00 AM 2.6 36.68 0.034 6.65 26.91 12.52
12/21/2021 2:00:00 AM 2.58 36.644 0.034 6.77 21.21 12.53
12/21/2021 2:15:00 AM 2.56 36.608 0.034 6.72 22.45 12.52
12/21/2021 2:30:00 AM 2.54 36.572 0.034 6.69 20.49 12.55
12/21/2021 2:45:00 AM 2.52 36.536 0.034 6.76 23.56 12.55
12/21/2021 3:00:00 AM 2.5 36.5 0.034 6.75 21.23 12.55
12/21/2021 3:15:00 AM 2.48 36.464 0.034 6.67 25.14 12.56
12/21/2021 3:30:00 AM 2.46 36.428 0.034 6.77 23.4 12.59
12/21/2021 3:45:00 AM 2.44 36.392 0.034 6.72 26.04 12.59
12/21/2021 4:00:00 AM 2.43 36.374 0.034 6.76 27.32 12.59
12/21/2021 4:15:00 AM 2.4 36.32 0.034 6.7 20.75 12.61
12/21/2021 4:30:00 AM 2.38 36.284 0.034 6.73 21.89 12.62
12/21/2021 4:45:00 AM 2.37 36.266 0.034 6.75 21.55 12.62
12/21/2021 5:00:00 AM 2.35 36.23 0.034 6.75 16.5 12.62
12/21/2021 5:15:00 AM 2.33 36.194 0.034 6.76 24.11 12.63
12/21/2021 5:30:00 AM 2.31 36.158 0.034 6.65 21.01 12.64
12/21/2021 5:45:00 AM 2.3 36.14 0.034 6.71 19.5 12.65
12/21/2021 6:00:00 AM 2.29 36.122 0.034 6.7 23.87 12.66
12/21/2021 6:15:00 AM 2.29 36.122 0.034 6.73 22.96 12.65
12/21/2021 6:30:00 AM 2.3 36.14 0.034 6.75 23.47 12.65
12/21/2021 6:45:00 AM 2.31 36.158 0.034 6.72 19.43 12.66
12/21/2021 7:00:00 AM 2.33 36.194 0.034 6.74 23.29 12.66
12/21/2021 7:15:00 AM 2.34 36.212 0.034 6.72 22.44 12.65
12/21/2021 7:30:00 AM 2.36 36.248 0.034 6.63 20.42 12.66
12/21/2021 7:45:00 AM 2.39 36.302 0.034 6.68 21.07 12.63
12/21/2021 8:00:00 AM 2.41 36.338 0.034 6.66 20.86 12.65
12/21/2021 8:15:00 AM 2.44 36.392 0.034 6.74 23.28 12.64
12/21/2021 8:30:00 AM 2.47 36.446 0.034 6.69 21.45 12.64
12/21/2021 8:45:00 AM 2.5 36.5 0.034 6.74 20.82 12.63
12/21/2021 9:00:00 AM 2.53 36.554 0.034 6.73 22.33 12.64
12/21/2021 9:15:00 AM 2.57 36.626 0.034 6.77 29.72 12.65
12/21/2021 9:30:00 AM 2.6 36.68 0.034 6.7 23.46 12.66
12/21/2021 9:45:00 AM 2.65 36.77 0.034 6.79 23.04 12.65
12/21/2021 10:00:00 AM 2.71 36.878 0.034 6.79 20.9 12.66
12/21/2021 10:15:00 AM 2.78 37.004 0.034 6.78 22.66 12.68
12/21/2021 10:30:00 AM 2.86 37.148 0.034 6.79 22.11 12.67
12/21/2021 10:45:00 AM 2.94 37.292 0.034 6.81 22.29 12.65
12/21/2021 11:00:00 AM 3.01 37.418 0.034 6.79 23.52 12.62
12/21/2021 11:15:00 AM 3.08 37.544 0.034 6.77 24.57 12.59
12/21/2021 11:30:00 AM 3.15 37.67 0.034 6.79 22.29 12.57
12/21/2021 11:45:00 AM 3.24 37.832 0.034 6.72 21.64 12.52
12/21/2021 12:00:00 PM 3.33 37.994 0.034 6.78 21.61 12.48
12/21/2021 12:15:00 PM 3.43 38.174 0.034 6.69 20.83 12.45
12/21/2021 12:30:00 PM 3.51 38.318 0.034 6.79 22.25 12.43
12/21/2021 12:45:00 PM 3.59 38.462 0.034 6.73 23.04 12.4
12/21/2021 1:00:00 PM 3.64 38.552 0.034 6.73 20.06 12.36
12/21/2021 1:15:00 PM 3.73 38.714 0.034 6.76 21.42 12.33
12/21/2021 1:30:00 PM 3.79 38.822 0.034 6.79 23.37 12.29
12/21/2021 1:45:00 PM 3.84 38.912 0.034 6.71 20.24 12.27
12/21/2021 2:00:00 PM 3.87 38.966 0.034 6.81 22.95 12.23
12/21/2021 2:15:00 PM 3.89 39.002 0.034 6.79 21.55 12.21
12/21/2021 2:30:00 PM 3.9 39.02 0.034 6.79 22.05 12.19
12/21/2021 2:45:00 PM 3.91 39.038 0.034 6.8 19.89 12.2
12/21/2021 3:00:00 PM 3.91 39.038 0.034 6.75 20.56 12.17
12/21/2021 3:15:00 PM 3.91 39.038 0.034 6.81 21.78 12.17
12/21/2021 3:30:00 PM 3.9 39.02 0.034 6.79 23.47 12.15
12/21/2021 3:45:00 PM 3.89 39.002 0.034 6.79 29.3 12.15
12/21/2021 4:00:00 PM 3.88 38.984 0.034 6.78 23.4 12.14
12/21/2021 4:15:00 PM 3.87 38.966 0.034 6.8 22.05 12.12
12/21/2021 4:30:00 PM 3.85 38.93 0.034 6.79 23.36 12.11
12/21/2021 4:45:00 PM 3.83 38.894 0.034 6.71 22.68 12.1
12/21/2021 5:00:00 PM 3.8 38.84 0.034 6.79 25.67 12.09
12/21/2021 5:15:00 PM 3.76 38.768 0.034 6.71 20.83 12.1
12/21/2021 5:30:00 PM 3.72 38.696 0.034 6.7 22.06 12.1
12/21/2021 5:45:00 PM 3.68 38.624 0.034 6.77 22.94 12.1
12/21/2021 6:00:00 PM 3.65 38.57 0.034 6.77 22.28 12.1
12/21/2021 6:15:00 PM 3.62 38.516 0.034 6.76 22.03 12.13
12/21/2021 6:30:00 PM 3.59 38.462 0.034 6.76 23.17 12.12
12/21/2021 6:45:00 PM 3.56 38.408 0.034 6.68 32.82 12.13
12/21/2021 7:00:00 PM 3.54 38.372 0.034 6.75 20.41 12.15
12/21/2021 7:15:00 PM 3.52 38.336 0.034 6.72 21.77 12.14
12/21/2021 7:30:00 PM 3.5 38.3 0.034 6.78 22.52 12.15
12/21/2021 7:45:00 PM 3.47 38.246 0.032 6.75 20.14 12.16
12/21/2021 8:00:00 PM 3.45 38.21 0.034 6.77 24.23 12.16
12/21/2021 8:15:00 PM 3.42 38.156 0.034 6.7 23.05 12.16
12/21/2021 8:30:00 PM 3.4 38.12 0.034 6.75 24.46 12.17
12/21/2021 8:45:00 PM 3.38 38.084 0.034 6.75 22.98 12.17
12/21/2021 9:00:00 PM 3.35 38.03 0.034 6.76 26.03 12.19
12/21/2021 9:15:00 PM 3.32 37.976 0.034 6.71 18.47 12.19
12/21/2021 9:30:00 PM 3.3 37.94 0.034 6.75 20.39 12.2
12/21/2021 9:45:00 PM 3.28 37.904 0.034 6.75 21.66 12.2
12/21/2021 10:00:00 PM 3.26 37.868 0.034 6.73 24.02 12.2
12/21/2021 10:15:00 PM 3.23 37.814 0.034 6.74 24.75 12.21
12/21/2021 10:30:00 PM 3.23 37.814 0.034 6.68 23.88 12.19
12/21/2021 10:45:00 PM 3.19 37.742 0.034 6.73 41.15 12.21
12/21/2021 11:00:00 PM 3.17 37.706 0.034 6.73 22.36 12.23
12/21/2021 11:15:00 PM 3.16 37.688 0.034 6.69 25.05 12.21
12/21/2021 11:30:00 PM 3.13 37.634 0.034 6.74 37.27 12.22
12/21/2021 11:45:00 PM 3.11 37.598 0.034 6.76 24.09 12.23
12/22/2021 12:00:00 AM 3.09 37.562 0.034 6.67 31.27 12.24
12/22/2021 12:15:00 AM 3.08 37.544 0.034 6.77 26.39 12.24
12/22/2021 12:30:00 AM 3.04 37.472 0.034 6.75 22.08 12.26
12/22/2021 12:45:00 AM 3.02 37.436 0.034 6.75 28.49 12.25
12/22/2021 1:00:00 AM 2.99 37.382 0.033 6.71 21.54 12.27
12/22/2021 1:15:00 AM 2.97 37.346 0.034 6.77 31.97 12.25
12/22/2021 1:30:00 AM 2.95 37.31 0.034 6.72 25.01 12.26
12/22/2021 1:45:00 AM 2.93 37.274 0.034 6.71 42.39 12.27
12/22/2021 2:00:00 AM 2.9 37.22 0.034 6.78 25.6 12.28
12/22/2021 2:15:00 AM 2.88 37.184 0.034 6.68 30.96 12.28
12/22/2021 2:30:00 AM 2.86 37.148 0.034 6.72 21.44 12.28
12/22/2021 2:45:00 AM 2.84 37.112 0.034 6.75 20.92 12.28
12/22/2021 3:00:00 AM 2.82 37.076 0.034 6.66 22.19 12.29
12/22/2021 3:15:00 AM 2.8 37.04 0.034 6.69 24.12 12.29
12/22/2021 3:30:00 AM 2.79 37.022 0.034 6.73 25.52 12.29
12/22/2021 3:45:00 AM 2.77 36.986 0.034 6.68 27.08 12.28
12/22/2021 4:00:00 AM 2.74 36.932 0.034 6.74 24.35 12.31
12/22/2021 4:15:00 AM 2.73 36.914 0.034 6.68 28.23 12.3
12/22/2021 4:30:00 AM 2.73 36.914 0.034 6.72 24.83 12.3
12/22/2021 4:45:00 AM 2.73 36.914 0.034 6.7 21.4 12.31
12/22/2021 5:00:00 AM 2.74 36.932 0.034 6.7 23.4 12.31
12/22/2021 5:15:00 AM 2.75 36.95 0.034 6.72 22.98 12.31
12/22/2021 5:30:00 AM 2.77 36.986 0.034 6.75 31.47 12.29
12/22/2021 5:45:00 AM 2.79 37.022 0.034 6.67 30.45 12.3
12/22/2021 6:00:00 AM 2.8 37.04 0.034 6.75 33.56 12.3
12/22/2021 6:15:00 AM 2.81 37.058 0.034 6.72 23.79 12.31
12/22/2021 6:30:00 AM 2.84 37.112 0.034 6.75 27.26 12.28
12/22/2021 6:45:00 AM 2.84 37.112 0.032 6.72 24.64 12.3
12/22/2021 7:00:00 AM 2.84 37.112 0.034 6.68 22.65 12.28
12/22/2021 7:15:00 AM 2.87 37.166 0.034 6.7 26.19 12.29
12/22/2021 7:30:00 AM 2.89 37.202 0.034 6.7 27.29 12.27
12/22/2021 7:45:00 AM 2.91 37.238 0.034 6.77 24.23 12.28
12/22/2021 8:00:00 AM 2.93 37.274 0.034 6.72 26.4 12.28
12/22/2021 8:15:00 AM 2.95 37.31 0.034 6.71 35.65 12.28
12/22/2021 8:30:00 AM 2.97 37.346 0.034 6.71 24.09 12.3
12/22/2021 8:45:00 AM 3.01 37.418 0.034 6.78 25.87 12.29
12/22/2021 9:00:00 AM 3.03 37.454 0.034 6.81 21.14 12.31
12/22/2021 9:15:00 AM 3.06 37.508 0.034 6.7 32.91 12.31
12/22/2021 9:30:00 AM 3.09 37.562 0.034 6.75 33.45 12.32
12/22/2021 9:45:00 AM 3.12 37.616 0.034 6.73 25.8 12.31
12/22/2021 10:00:00 AM 3.16 37.688 0.034 6.74 39.51 12.33
12/22/2021 10:15:00 AM 3.2 37.76 0.034 6.74 21 12.32
12/22/2021 10:30:00 AM 3.24 37.832 0.034 6.74 38.98 12.3
12/22/2021 10:45:00 AM 3.29 37.922 0.032 6.79 25.25 12.3
12/22/2021 11:00:00 AM 3.34 38.012 0.034 6.75 39.16 12.28
12/22/2021 11:15:00 AM 3.37 38.066 0.034 6.78 27.84 12.26
12/22/2021 11:30:00 AM 3.4 38.12 0.034 6.73 33.5 12.26
12/22/2021 11:45:00 AM 3.43 38.174 0.034 6.81 22.11 12.27
12/22/2021 12:00:00 PM 3.51 38.318 0.034 6.81 24.07 12.27
12/22/2021 12:15:00 PM 3.55 38.39 0.034 6.81 22.45 12.26
12/22/2021 12:30:00 PM 3.61 38.498 0.034 6.81 31.38 12.22
12/22/2021 12:45:00 PM 3.64 38.552 0.034 6.79 25.17 12.22
12/22/2021 1:00:00 PM 3.69 38.642 0.034 6.75 35.52 12.22
12/22/2021 1:15:00 PM 3.68 38.624 0.032 6.81 24.09 12.21
12/22/2021 1:30:00 PM 3.71 38.678 0.033 6.84 23.43 12.2
12/22/2021 1:45:00 PM 3.74 38.732 0.034 6.79 26.53 12.19
12/22/2021 2:00:00 PM 3.75 38.75 0.034 6.78 30.57 12.18
12/22/2021 2:15:00 PM 3.75 38.75 0.034 6.8 29.02 12.16
12/22/2021 2:30:00 PM 3.74 38.732 0.034 6.83 24.68 12.17
12/22/2021 2:45:00 PM 3.72 38.696 0.034 6.79 29.29 12.17
12/22/2021 3:00:00 PM 3.67 38.606 0.032 6.81 23.51 12.18
12/22/2021 3:15:00 PM 3.64 38.552 0.034 6.79 21.86 12.21
12/22/2021 3:30:00 PM 3.64 38.552 0.034 6.81 20.2 12.22
12/22/2021 3:45:00 PM 3.61 38.498 0.034 6.81 21.58 12.21
12/22/2021 4:00:00 PM 3.57 38.426 0.034 6.79 21.67 12.21
12/22/2021 4:15:00 PM 3.55 38.39 0.034 6.78 22.11 12.2
12/22/2021 4:30:00 PM 3.5 38.3 0.034 6.8 21.54 12.21
12/22/2021 4:45:00 PM 3.48 38.264 0.034 6.73 22.78 12.19
12/22/2021 5:00:00 PM 3.46 38.228 0.034 6.76 24.6 12.17
12/22/2021 5:15:00 PM 3.43 38.174 0.034 6.79 22.14 12.17
12/22/2021 5:30:00 PM 3.39 38.102 0.034 6.7 20.56 12.18
12/22/2021 5:45:00 PM 3.37 38.066 0.034 6.77 22.69 12.19
12/22/2021 6:00:00 PM 3.35 38.03 0.034 6.68 26.88 12.19
12/22/2021 6:15:00 PM 3.3 37.94 0.034 6.78 21.43 12.2
12/22/2021 6:30:00 PM 3.29 37.922 0.034 6.68 34.09 12.2
12/22/2021 6:45:00 PM 3.27 37.886 0.034 6.71 35.4 12.22
12/22/2021 7:00:00 PM 3.27 37.886 0.034 6.77 31.73 12.22
12/22/2021 7:15:00 PM 3.24 37.832 0.034 6.75 31.27 12.22
12/22/2021 7:30:00 PM 3.21 37.778 0.034 6.73 34.01 12.25
12/22/2021 7:45:00 PM 3.2 37.76 0.034 6.75 36.14 12.25
12/22/2021 8:00:00 PM 3.19 37.742 0.034 6.71 36.25 12.26
12/22/2021 8:15:00 PM 3.19 37.742 0.034 6.71 31.5 12.25
12/22/2021 8:30:00 PM 3.17 37.706 0.034 6.77 25.53 12.27
12/22/2021 8:45:00 PM 3.16 37.688 0.034 6.74 26.53 12.28
12/22/2021 9:00:00 PM 3.16 37.688 0.034 6.77 21.57 12.27
12/22/2021 9:15:00 PM 3.16 37.688 0.034 6.7 34.53 12.27
12/22/2021 9:30:00 PM 3.15 37.67 0.034 6.7 42.72 12.28
12/22/2021 9:45:00 PM 3.12 37.616 0.032 6.74 37.98 12.3
12/22/2021 10:00:00 PM 3.11 37.598 0.034 6.76 35.67 12.3
12/22/2021 10:15:00 PM 3.11 37.598 0.034 6.67 37.57 12.3
12/22/2021 10:30:00 PM 3.09 37.562 0.034 6.71 21.35 12.31
12/22/2021 10:45:00 PM 3.08 37.544 0.034 6.75 22.94 12.31
12/22/2021 11:00:00 PM 3.04 37.472 0.034 6.75 22.34 12.33
12/22/2021 11:15:00 PM 3.05 37.49 0.034 6.69 34.07 12.33
12/22/2021 11:30:00 PM 3.03 37.454 0.034 6.7 40.03 12.34
12/22/2021 11:45:00 PM 3.02 37.436 0.034 6.7 31.82 12.34
12/23/2021 12:00:00 AM 2.99 37.382 0.034 6.69 22.52 12.34
12/23/2021 12:15:00 AM 2.98 37.364 0.034 6.76 35.42 12.36
12/23/2021 12:30:00 AM 2.93 37.274 0.034 6.69 50.61 12.38
12/23/2021 12:45:00 AM 2.93 37.274 0.034 6.7 31.67 12.38
12/23/2021 1:00:00 AM 2.91 37.238 0.034 6.73 46.24 12.38
12/23/2021 1:15:00 AM 2.91 37.238 0.034 6.76 36.06 12.39
12/23/2021 1:30:00 AM 2.88 37.184 0.034 6.69 22.91 12.4
12/23/2021 1:45:00 AM 2.87 37.166 0.034 6.7 24.97 12.41
12/23/2021 2:00:00 AM 2.85 37.13 0.034 6.74 25.76 12.42
12/23/2021 2:15:00 AM 2.85 37.13 0.034 6.71 23.33 12.42
12/23/2021 2:30:00 AM 2.83 37.094 0.034 6.72 22.36 12.44
12/23/2021 2:45:00 AM 2.84 37.112 0.034 6.74 25 12.44
12/23/2021 3:00:00 AM 2.84 37.112 0.034 6.73 31.55 12.42
12/23/2021 3:15:00 AM 2.83 37.094 0.034 6.7 27.75 12.43
12/23/2021 3:30:00 AM 2.8 37.04 0.032 6.74 24.91 12.45
12/23/2021 3:45:00 AM 2.79 37.022 0.034 6.72 34.28 12.44
12/23/2021 4:00:00 AM 2.75 36.95 0.034 6.75 40.12 12.47
12/23/2021 4:15:00 AM 2.74 36.932 0.034 6.76 32.06 12.47
12/23/2021 4:30:00 AM 2.7 36.86 0.034 6.71 21.24 12.48
12/23/2021 4:45:00 AM 2.67 36.806 0.034 6.69 56.99 12.48
12/23/2021 5:00:00 AM 2.64 36.752 0.034 6.73 38.84 12.49
12/23/2021 5:15:00 AM 2.62 36.716 0.034 6.72 31.77 12.49
12/23/2021 5:30:00 AM 2.58 36.644 0.034 6.75 27.01 12.53
12/23/2021 5:45:00 AM 2.55 36.59 0.034 6.73 47.63 12.52
12/23/2021 6:00:00 AM 2.52 36.536 0.034 6.73 46.71 12.54
12/23/2021 6:15:00 AM 2.5 36.5 0.034 6.73 40.93 12.56
12/23/2021 6:30:00 AM 2.47 36.446 0.028 6.73 26.55 12.58
12/23/2021 6:45:00 AM 2.45 36.41 0.032 6.76 22.75 12.6
12/23/2021 7:00:00 AM 2.46 36.428 0.034 6.69 28.69 12.59
12/23/2021 7:15:00 AM 2.45 36.41 0.034 6.74 27.97 12.6
12/23/2021 7:30:00 AM 2.44 36.392 0.034 6.67 23.51 12.61
12/23/2021 7:45:00 AM 2.44 36.392 0.034 6.73 40.97 12.62
12/23/2021 8:00:00 AM 2.45 36.41 0.034 6.74 38.7 12.64
12/23/2021 8:15:00 AM 2.47 36.446 0.034 6.69 39.39 12.64
12/23/2021 8:30:00 AM 2.48 36.464 0.034 6.74 59.05 12.68
12/23/2021 8:45:00 AM 2.49 36.482 0.034 6.72 28.99 12.69
12/23/2021 9:00:00 AM 2.51 36.518 0.034 6.78 23.13 12.72
12/23/2021 9:15:00 AM 2.55 36.59 0.034 6.73 36.11 12.71
12/23/2021 9:30:00 AM 2.56 36.608 0.034 6.71 22.19 12.72
12/23/2021 9:45:00 AM 2.61 36.698 0.034 6.72 61.85 12.71
12/23/2021 10:00:00 AM 2.65 36.77 0.034 6.73 31.58 12.71
12/23/2021 10:15:00 AM 2.71 36.878 0.033 6.73 21.68 12.72
12/23/2021 10:30:00 AM 2.75 36.95 0.034 6.76 22.88 12.7
12/23/2021 10:45:00 AM 2.78 37.004 0.034 6.77 32.94 12.72
12/23/2021 11:00:00 AM 2.81 37.058 0.034 6.77 26.47 12.7
12/23/2021 11:15:00 AM 2.86 37.148 0.034 6.73 22.29 12.7
12/23/2021 11:30:00 AM 2.91 37.238 0.034 6.75 22.26 12.67
12/23/2021 11:45:00 AM 2.97 37.346 0.034 6.79 33.5 12.63
12/23/2021 12:00:00 PM 3.06 37.508 0.034 6.72 28.93 12.59
12/23/2021 12:15:00 PM 3.14 37.652 0.034 6.73 30.04 12.58
12/23/2021 12:30:00 PM 3.19 37.742 0.034 6.75 32.13 12.53
12/23/2021 12:45:00 PM 3.22 37.796 0.034 6.75 22.68 12.51
12/23/2021 1:00:00 PM 3.26 37.868 0.034 6.8 33.26 12.48
12/23/2021 1:15:00 PM 3.3 37.94 0.034 6.8 20.08 12.47
12/23/2021 1:30:00 PM 3.33 37.994 0.034 6.77 23.13 12.44
12/23/2021 1:45:00 PM 3.34 38.012 0.034 6.76 24.5 12.44
12/23/2021 2:00:00 PM 3.38 38.084 0.034 6.79 36.9 12.42
12/23/2021 2:15:00 PM 3.4 38.12 0.034 6.74 22.44 12.44
12/23/2021 2:30:00 PM 3.43 38.174 0.034 6.81 30.85 12.44
12/23/2021 2:45:00 PM 3.44 38.192 0.034 6.74 24.85 12.42
12/23/2021 3:00:00 PM 3.44 38.192 0.034 6.76 36.99 12.41
12/23/2021 3:15:00 PM 3.45 38.21 0.034 6.77 28.25 12.41
12/23/2021 3:30:00 PM 3.45 38.21 0.034 6.75 28.63 12.41
12/23/2021 3:45:00 PM 3.43 38.174 0.034 6.79 39.84 12.4
12/23/2021 4:00:00 PM 3.42 38.156 0.034 6.81 43.1 12.39
12/23/2021 4:15:00 PM 3.41 38.138 0.034 6.7 24.47 12.35
12/23/2021 4:30:00 PM 3.38 38.084 0.03 6.78 22.35 12.35
12/23/2021 4:45:00 PM 3.36 38.048 0.034 6.77 36.55 12.34
12/23/2021 5:00:00 PM 3.36 38.048 0.034 6.72 28.38 12.31
12/23/2021 5:15:00 PM 3.36 38.048 0.034 6.76 27.79 12.29
12/23/2021 5:30:00 PM 3.34 38.012 0.034 6.78 36.5 12.29
12/23/2021 5:45:00 PM 3.34 38.012 0.034 6.76 24.21 12.29
12/23/2021 6:00:00 PM 3.35 38.03 0.034 6.75 35.27 12.27
12/23/2021 6:15:00 PM 3.34 38.012 0.034 6.75 61.12 12.28
12/23/2021 6:30:00 PM 3.33 37.994 0.034 6.77 35.63 12.29
12/23/2021 6:45:00 PM 3.33 37.994 0.034 6.7 37.76 12.28
12/23/2021 7:00:00 PM 3.32 37.976 0.034 6.73 28.33 12.27
12/23/2021 7:15:00 PM 3.3 37.94 0.034 6.78 39.45 12.28
12/23/2021 7:30:00 PM 3.29 37.922 0.034 6.77 31.59 12.27
12/23/2021 7:45:00 PM 3.29 37.922 0.034 6.75 27.63 12.27
12/23/2021 8:00:00 PM 3.28 37.904 0.034 6.77 40.93 12.27
12/23/2021 8:15:00 PM 3.28 37.904 0.034 6.74 42.98 12.28
12/23/2021 8:30:00 PM 3.27 37.886 0.034 6.7 23 12.27
12/23/2021 8:45:00 PM 3.27 37.886 0.034 6.76 46.54 12.27
12/23/2021 9:00:00 PM 3.25 37.85 0.034 6.77 29.99 12.28
12/23/2021 9:15:00 PM 3.25 37.85 0.034 6.73 34.16 12.27
12/23/2021 9:30:00 PM 3.26 37.868 0.034 6.76 21.14 12.26
12/23/2021 9:45:00 PM 3.26 37.868 0.034 6.7 40.53 12.27
12/23/2021 10:00:00 PM 3.25 37.85 0.034 6.78 26.3 12.27
12/23/2021 10:15:00 PM 3.24 37.832 0.034 6.69 21.9 12.28
12/23/2021 10:30:00 PM 3.24 37.832 0.034 6.7 27.21 12.27
12/23/2021 10:45:00 PM 3.25 37.85 0.034 6.71 32.58 12.26
12/23/2021 11:00:00 PM 3.24 37.832 0.034 6.69 23.24 12.27
12/23/2021 11:15:00 PM 3.24 37.832 0.034 6.73 24.27 12.27
12/23/2021 11:30:00 PM 3.24 37.832 0.034 6.77 30.38 12.26
12/23/2021 11:45:00 PM 3.23 37.814 0.034 6.69 42.99 12.28
12/24/2021 12:00:00 AM 3.23 37.814 0.034 6.75 22.07 12.25
12/24/2021 12:15:00 AM 3.2 37.76 0.034 6.72 25.7 12.27
12/24/2021 12:30:00 AM 3.17 37.706 0.034 6.73 28.3 12.27
12/24/2021 12:45:00 AM 3.11 37.598 0.034 6.75 26.28 12.27
12/24/2021 1:00:00 AM 3.09 37.562 0.034 6.71 45.72 12.3
12/24/2021 1:15:00 AM 3.09 37.562 0.034 6.74 26.44 12.32
12/24/2021 1:30:00 AM 3.09 37.562 0.034 6.72 36.35 12.32
12/24/2021 1:45:00 AM 3.1 37.58 0.034 6.75 22.08 12.32
12/24/2021 2:00:00 AM 3.12 37.616 0.034 6.72 23.22 12.31
12/24/2021 2:15:00 AM 3.12 37.616 0.034 6.7 42.82 12.32
12/24/2021 2:30:00 AM 3.12 37.616 0.034 6.69 32.15 12.31
12/24/2021 2:45:00 AM 3.12 37.616 0.034 6.7 40.26 12.32
12/24/2021 3:00:00 AM 3.13 37.634 0.034 6.75 39 12.31
12/24/2021 3:15:00 AM 3.14 37.652 0.034 6.72 27.91 12.31
12/24/2021 3:30:00 AM 3.14 37.652 0.034 6.71 31.48 12.31
12/24/2021 3:45:00 AM 3.16 37.688 0.034 6.75 34.91 12.29
12/24/2021 4:00:00 AM 3.15 37.67 0.034 6.67 24.57 12.3
12/24/2021 4:15:00 AM 3.16 37.688 0.034 6.69 47.61 12.29
12/24/2021 4:30:00 AM 3.17 37.706 0.034 6.7 25.09 12.29
12/24/2021 4:45:00 AM 3.18 37.724 0.034 6.69 30.01 12.28
12/24/2021 5:00:00 AM 3.19 37.742 0.034 6.74 35.69 12.29
12/24/2021 5:15:00 AM 3.21 37.778 0.034 6.73 33.8 12.28
12/24/2021 5:30:00 AM 3.22 37.796 0.034 6.71 20.97 12.26
12/24/2021 5:45:00 AM 3.22 37.796 0.034 6.75 25.94 12.28
12/24/2021 6:00:00 AM 3.23 37.814 0.033 6.72 36.37 12.26
12/24/2021 6:15:00 AM 3.26 37.868 0.034 6.74 28.02 12.26
12/24/2021 6:30:00 AM 3.26 37.868 0.034 6.69 41.43 12.27
12/24/2021 6:45:00 AM 3.26 37.868 0.034 6.71 22.21 12.27
12/24/2021 7:00:00 AM 3.27 37.886 0.034 6.68 22.98 12.26
12/24/2021 7:15:00 AM 3.28 37.904 0.034 6.69 22.19 12.27
12/24/2021 7:30:00 AM 3.28 37.904 0.034 6.72 27.53 12.27
12/24/2021 7:45:00 AM 3.29 37.922 0.034 6.74 53.34 12.27
12/24/2021 8:00:00 AM 3.29 37.922 0.032 6.73 24.87 12.28
12/24/2021 8:15:00 AM 3.3 37.94 0.034 6.74 44.94 12.27
12/24/2021 8:30:00 AM 3.31 37.958 0.034 6.69 23.51 12.28
12/24/2021 8:45:00 AM 3.32 37.976 0.034 6.76 20.81 12.31
12/24/2021 9:00:00 AM 3.33 37.994 0.034 6.66 22.26 12.33
12/24/2021 9:15:00 AM 3.36 38.048 0.034 6.74 64.63 12.31
12/24/2021 9:30:00 AM 3.37 38.066 0.034 6.77 36.06 12.34
12/24/2021 9:45:00 AM 3.39 38.102 0.016 6.76 24.78 12.38
12/24/2021 10:00:00 AM 3.41 38.138 0.034 6.78 26.5 12.38
12/24/2021 10:15:00 AM 3.44 38.192 0.034 6.68 27.26 12.39
12/24/2021 10:30:00 AM 3.48 38.264 0.034 6.79 42.25 12.39
12/24/2021 10:45:00 AM 3.51 38.318 0.034 6.79 42.53 12.4
12/24/2021 11:00:00 AM 3.55 38.39 0.034 6.8 36.24 12.4
12/24/2021 11:15:00 AM 3.6 38.48 0.034 6.71 41.78 12.39
12/24/2021 11:30:00 AM 3.66 38.588 0.033 6.77 27 12.34
12/24/2021 11:45:00 AM 3.71 38.678 0.033 6.8 29.57 12.32
12/24/2021 12:00:00 PM 3.77 38.786 0.033 6.71 24.07 12.31
12/24/2021 12:15:00 PM 3.82 38.876 0.033 6.79 34.73 12.29
12/24/2021 12:30:00 PM 3.87 38.966 0.033 6.81 29.94 12.26
12/24/2021 12:45:00 PM 3.93 39.074 0.033 6.71 26.87 12.23
12/24/2021 1:00:00 PM 3.96 39.128 0.033 6.81 24.88 12.22
12/24/2021 1:15:00 PM 4.02 39.236 0.033 6.8 36.81 12.21
12/24/2021 1:30:00 PM 4.08 39.344 0.033 6.81 38.58 12.19
12/24/2021 1:45:00 PM 4.1 39.38 0.033 6.81 41.59 12.17
12/24/2021 2:00:00 PM 4.13 39.434 0.033 6.81 40.94 12.16
12/24/2021 2:15:00 PM 4.15 39.47 0.033 6.76 20.7 12.15
12/24/2021 2:30:00 PM 4.19 39.542 0.034 6.8 35.58 12.13
12/24/2021 2:45:00 PM 4.2 39.56 0.034 6.79 25.03 12.13
12/24/2021 3:00:00 PM 4.21 39.578 0.034 6.74 40.6 12.12
12/24/2021 3:15:00 PM 4.22 39.596 0.034 6.75 21.7 12.11
12/24/2021 3:30:00 PM 4.23 39.614 0.034 6.77 38.05 12.09
12/24/2021 3:45:00 PM 4.23 39.614 0.034 6.8 21.94 12.1
12/24/2021 4:00:00 PM 4.22 39.596 0.034 6.8 35.19 12.09
12/24/2021 4:15:00 PM 4.22 39.596 0.034 6.78 27.14 12.04
12/24/2021 4:30:00 PM 4.2 39.56 0.034 6.78 30.64 12.03
12/24/2021 4:45:00 PM 4.19 39.542 0.034 6.76 26.53 12.02
12/24/2021 5:00:00 PM 4.17 39.506 0.034 6.77 23.59 12
12/24/2021 5:15:00 PM 4.14 39.452 0.034 6.76 23.28 11.99
12/24/2021 5:30:00 PM 4.12 39.416 0.034 6.69 27.34 11.98
12/24/2021 5:45:00 PM 4.08 39.344 0.021 6.75 28.48 11.99
12/24/2021 6:00:00 PM 4.06 39.308 0.034 6.78 39.46 11.99
12/24/2021 6:15:00 PM 4.05 39.29 0.034 6.68 27.18 11.98
12/24/2021 6:30:00 PM 4.02 39.236 0.034 6.77 24.75 12
12/24/2021 6:45:00 PM 4.01 39.218 0.034 6.67 24.55 12
12/24/2021 7:00:00 PM 4 39.2 0.034 6.69 27.29 11.99
12/24/2021 7:15:00 PM 3.97 39.146 0.034 6.71 27.57 12
12/24/2021 7:30:00 PM 3.97 39.146 0.034 6.73 39.82 12
12/24/2021 7:45:00 PM 3.95 39.11 0.034 6.75 53.5 12.01
12/24/2021 8:00:00 PM 3.93 39.074 0.034 6.7 34.2 12
12/24/2021 8:15:00 PM 3.93 39.074 0.034 6.77 41.84 12.01
12/24/2021 8:30:00 PM 3.93 39.074 0.034 6.73 29.86 12.01
12/24/2021 8:45:00 PM 3.93 39.074 0.034 6.76 24.81 12
12/24/2021 9:00:00 PM 3.93 39.074 0.034 6.69 34.23 12.01
12/24/2021 9:15:00 PM 3.93 39.074 0.034 6.7 24.92 11.99
12/24/2021 9:30:00 PM 3.94 39.092 0.034 6.7 21.98 11.99
12/24/2021 9:45:00 PM 3.95 39.11 0.034 6.76 27.37 11.98
12/24/2021 10:00:00 PM 3.95 39.11 0.034 6.73 24.17 11.98
12/24/2021 10:15:00 PM 3.95 39.11 0.034 6.78 30.67 11.98
12/24/2021 10:30:00 PM 3.97 39.146 0.034 6.73 37.12 11.99
12/24/2021 10:45:00 PM 3.97 39.146 0.034 6.77 39.3 11.98
12/24/2021 11:00:00 PM 3.99 39.182 0.034 6.71 30.82 11.97
12/24/2021 11:15:00 PM 3.99 39.182 0.034 6.78 31.6 11.97
12/24/2021 11:30:00 PM 4.01 39.218 0.034 6.72 25.41 11.96
12/24/2021 11:45:00 PM 4.01 39.218 0.034 6.71 25.45 11.96
12/25/2021 12:00:00 AM 4.03 39.254 0.034 6.72 34.38 11.95
12/25/2021 12:15:00 AM 4.04 39.272 0.034 6.76 24.57 11.96
12/25/2021 12:30:00 AM 4.05 39.29 0.034 6.76 23.78 11.95
12/25/2021 12:45:00 AM 4.08 39.344 0.034 6.74 28.37 11.93
12/25/2021 1:00:00 AM 4.09 39.362 0.034 6.68 34.97 11.92
12/25/2021 1:15:00 AM 4.1 39.38 0.034 6.7 26.44 11.92
12/25/2021 1:30:00 AM 4.11 39.398 0.034 6.74 24.38 11.91
12/25/2021 1:45:00 AM 4.12 39.416 0.034 6.69 22.11 11.91
12/25/2021 2:00:00 AM 4.14 39.452 0.034 6.74 24.71 11.89
12/25/2021 2:15:00 AM 4.15 39.47 0.034 6.72 26 11.88
12/25/2021 2:30:00 AM 4.16 39.488 0.034 6.75 25.99 11.89
12/25/2021 2:45:00 AM 4.17 39.506 0.034 6.68 26.4 11.87
12/25/2021 3:00:00 AM 4.18 39.524 0.034 6.72 36.42 11.87
12/25/2021 3:15:00 AM 4.18 39.524 0.034 6.75 23.03 11.86
12/25/2021 3:30:00 AM 4.2 39.56 0.034 6.76 34.35 11.84
12/25/2021 3:45:00 AM 4.2 39.56 0.034 6.76 22.69 11.87
12/25/2021 4:00:00 AM 4.22 39.596 0.034 6.69 24.77 11.85
12/25/2021 4:15:00 AM 4.22 39.596 0.034 6.7 24.22 11.84
12/25/2021 4:30:00 AM 4.24 39.632 0.034 6.71 32.11 11.83
12/25/2021 4:45:00 AM 4.26 39.668 0.034 6.75 22.37 11.81
12/25/2021 5:00:00 AM 4.26 39.668 0.034 6.7 21.54 11.83
12/25/2021 5:15:00 AM 4.28 39.704 0.034 6.75 26.88 11.81
12/25/2021 5:30:00 AM 4.29 39.722 0.034 6.78 30.1 11.8
12/25/2021 5:45:00 AM 4.3 39.74 0.034 6.76 19.93 11.81
12/25/2021 6:00:00 AM 4.31 39.758 0.034 6.69 24.73 11.79
12/25/2021 6:15:00 AM 4.33 39.794 0.034 6.73 23.89 11.78
12/25/2021 6:30:00 AM 4.33 39.794 0.034 6.75 28.27 11.79
12/25/2021 6:45:00 AM 4.34 39.812 0.034 6.74 34.35 11.78
12/25/2021 7:00:00 AM 4.36 39.848 0.034 6.73 25.61 11.78
12/25/2021 7:15:00 AM 4.37 39.866 0.034 6.74 27.06 11.77
12/25/2021 7:30:00 AM 4.38 39.884 0.034 6.7 38.17 11.76
12/25/2021 7:45:00 AM 4.4 39.92 0.034 6.76 22.13 11.74
12/25/2021 8:00:00 AM 4.41 39.938 0.034 6.78 26.57 11.75
12/25/2021 8:15:00 AM 4.42 39.956 0.034 6.69 28.97 11.76
12/25/2021 8:30:00 AM 4.43 39.974 0.034 6.75 48.03 11.75
12/25/2021 8:45:00 AM 4.44 39.992 0.034 6.75 25.44 11.77
12/25/2021 9:00:00 AM 4.46 40.028 0.034 6.75 28.49 11.78
12/25/2021 9:15:00 AM 4.47 40.046 0.034 6.73 23.35 11.77
12/25/2021 9:30:00 AM 4.49 40.082 0.034 6.72 23.67 11.77
12/25/2021 9:45:00 AM 4.51 40.118 0.034 6.8 28.33 11.76
12/25/2021 10:00:00 AM 4.53 40.154 0.034 6.74 43.32 11.77
12/25/2021 10:15:00 AM 4.55 40.19 0.034 6.72 23.6 11.78
12/25/2021 10:30:00 AM 4.57 40.226 0.034 6.74 24.98 11.79
12/25/2021 10:45:00 AM 4.61 40.298 0.034 6.79 25.19 11.82
12/25/2021 11:00:00 AM 4.64 40.352 0.034 6.75 24.8 11.82
12/25/2021 11:15:00 AM 4.67 40.406 0.034 6.76 21.57 11.81
12/25/2021 11:30:00 AM 4.69 40.442 0.034 6.81 33.68 11.79
12/25/2021 11:45:00 AM 4.71 40.478 0.034 6.8 22.39 11.77
12/25/2021 12:00:00 PM 4.74 40.532 0.034 6.82 36.59 11.75
12/25/2021 12:15:00 PM 4.75 40.55 0.034 6.77 20.41 11.75
12/25/2021 12:30:00 PM 4.79 40.622 0.034 6.78 22.05 11.74
12/25/2021 12:45:00 PM 4.81 40.658 0.034 6.76 23.77 11.74
12/25/2021 1:00:00 PM 4.83 40.694 0.034 6.82 23.79 11.73
12/25/2021 1:15:00 PM 4.87 40.766 0.034 6.78 24.95 11.74
12/25/2021 1:30:00 PM 4.91 40.838 0.034 6.8 19.51 11.72
12/25/2021 1:45:00 PM 4.93 40.874 0.034 6.85 29.17 11.7
12/25/2021 2:00:00 PM 4.95 40.91 0.034 6.74 20.8 11.68
12/25/2021 2:15:00 PM 4.97 40.946 0.034 6.83 22.72 11.67
12/25/2021 2:30:00 PM 4.99 40.982 0.034 6.79 23.75 11.67
12/25/2021 2:45:00 PM 5.01 41.018 0.034 6.8 20.42 11.67
12/25/2021 3:00:00 PM 5.03 41.054 0.034 6.86 22.25 11.65
12/25/2021 3:15:00 PM 5.05 41.09 0.034 6.78 22.92 11.65
12/25/2021 3:30:00 PM 5.06 41.108 0.034 6.83 22.91 11.63
12/25/2021 3:45:00 PM 5.08 41.144 0.034 6.77 22.84 11.63
12/25/2021 4:00:00 PM 5.1 41.18 0.034 6.76 20.67 11.59
12/25/2021 4:15:00 PM 5.11 41.198 0.034 6.77 22.03 11.58
12/25/2021 4:30:00 PM 5.12 41.216 0.034 6.77 22.46 11.56
12/25/2021 4:45:00 PM 5.12 41.216 0.034 6.77 24.84 11.54
12/25/2021 5:00:00 PM 5.12 41.216 0.034 6.8 22.37 11.53
12/25/2021 5:15:00 PM 5.12 41.216 0.034 6.76 23.69 11.51
12/25/2021 5:30:00 PM 5.12 41.216 0.034 6.78 21.35 11.51
12/25/2021 5:45:00 PM 5.13 41.234 0.034 6.82 21.87 11.52
12/25/2021 6:00:00 PM 5.13 41.234 0.034 6.75 20.72 11.51
12/25/2021 6:15:00 PM 5.13 41.234 0.034 6.79 20.53 11.52
12/25/2021 6:30:00 PM 5.13 41.234 0.034 6.76 22.31 11.51
12/25/2021 6:45:00 PM 5.13 41.234 0.034 6.78 21.7 11.51
12/25/2021 7:00:00 PM 5.13 41.234 0.034 6.74 20.93 11.51
12/25/2021 7:15:00 PM 5.13 41.234 0.034 6.75 20.14 11.52
12/25/2021 7:30:00 PM 5.13 41.234 0.034 6.73 20.87 11.51
12/25/2021 7:45:00 PM 5.13 41.234 0.034 6.76 20.69 11.51
12/25/2021 8:00:00 PM 5.12 41.216 0.034 6.8 20.56 11.52
12/25/2021 8:15:00 PM 5.12 41.216 0.034 6.73 19.11 11.53
12/25/2021 8:30:00 PM 5.13 41.234 0.034 6.74 22.35 11.52
12/25/2021 8:45:00 PM 5.12 41.216 0.034 6.73 21.98 11.53
12/25/2021 9:00:00 PM 5.12 41.216 0.034 6.72 20.72 11.53
12/25/2021 9:15:00 PM 5.12 41.216 0.034 6.77 21.55 11.53
12/25/2021 9:30:00 PM 5.12 41.216 0.034 6.72 21.1 11.54
12/25/2021 9:45:00 PM 5.12 41.216 0.034 6.79 21.46 11.55
12/25/2021 10:00:00 PM 5.12 41.216 0.034 6.76 21.03 11.54
12/25/2021 10:15:00 PM 5.12 41.216 0.034 6.72 20.76 11.55
12/25/2021 10:30:00 PM 5.12 41.216 0.034 6.78 21.46 11.55
12/25/2021 10:45:00 PM 5.12 41.216 0.034 6.7 22.8 11.55
12/25/2021 11:00:00 PM 5.13 41.234 0.034 6.75 20.58 11.55
12/25/2021 11:15:00 PM 5.13 41.234 0.034 6.7 21.96 11.57
12/25/2021 11:30:00 PM 5.13 41.234 0.034 6.73 22.06 11.56
12/25/2021 11:45:00 PM 5.14 41.252 0.034 6.77 20.92 11.56
12/26/2021 12:00:00 AM 5.13 41.234 0.034 6.76 22.75 11.57
12/26/2021 12:15:00 AM 5.13 41.234 0.034 6.75 20.6 11.58
12/26/2021 12:30:00 AM 5.12 41.216 0.034 6.77 21.15 11.58
12/26/2021 12:45:00 AM 5.12 41.216 0.034 6.72 21.4 11.58
12/26/2021 1:00:00 AM 5.11 41.198 0.034 6.74 20.84 11.58
12/26/2021 1:15:00 AM 5.1 41.18 0.034 6.79 20.31 11.59
12/26/2021 1:30:00 AM 5.1 41.18 0.034 6.73 23.28 11.6
12/26/2021 1:45:00 AM 5.09 41.162 0.034 6.79 21.58 11.6
12/26/2021 2:00:00 AM 5.07 41.126 0.034 6.69 22.79 11.6
12/26/2021 2:15:00 AM 5.04 41.072 0.034 6.71 23.28 11.61
12/26/2021 2:30:00 AM 5.01 41.018 0.034 6.72 22.19 11.63
12/26/2021 2:45:00 AM 4.99 40.982 0.034 6.75 23.14 11.64
12/26/2021 3:00:00 AM 4.97 40.946 0.034 6.75 22.34 11.66
12/26/2021 3:15:00 AM 4.96 40.928 0.034 6.77 21.76 11.67
12/26/2021 3:30:00 AM 4.96 40.928 0.034 6.72 20.12 11.67
12/26/2021 3:45:00 AM 4.95 40.91 0.034 6.75 22.26 11.68
12/26/2021 4:00:00 AM 4.95 40.91 0.034 6.78 22.39 11.68
12/26/2021 4:15:00 AM 4.94 40.892 0.034 6.78 21.85 11.68
12/26/2021 4:30:00 AM 4.94 40.892 0.034 6.72 23.03 11.68
12/26/2021 4:45:00 AM 4.93 40.874 0.034 6.79 22.84 11.69
12/26/2021 5:00:00 AM 4.92 40.856 0.034 6.69 21.56 11.7
12/26/2021 5:15:00 AM 4.92 40.856 0.034 6.77 23.33 11.7
12/26/2021 5:30:00 AM 4.91 40.838 0.034 6.7 23.59 11.69
12/26/2021 5:45:00 AM 4.91 40.838 0.034 6.69 23.44 11.71
12/26/2021 6:00:00 AM 4.89 40.802 0.034 6.72 21.17 11.71
12/26/2021 6:15:00 AM 4.87 40.766 0.034 6.78 24.41 11.71
12/26/2021 6:30:00 AM 4.86 40.748 0.034 6.76 23.53 11.73
12/26/2021 6:45:00 AM 4.85 40.73 0.034 6.79 23.77 11.74
12/26/2021 7:00:00 AM 4.84 40.712 0.034 6.76 21.77 11.74
12/26/2021 7:15:00 AM 4.83 40.694 0.034 6.76 21.65 11.75
12/26/2021 7:30:00 AM 4.81 40.658 0.034 6.73 23.65 11.76
12/26/2021 7:45:00 AM 4.81 40.658 0.034 6.78 27.7 11.77
12/26/2021 8:00:00 AM 4.79 40.622 0.034 6.72 21.81 11.79
12/26/2021 8:15:00 AM 4.79 40.622 0.034 6.77 20.02 11.81
12/26/2021 8:30:00 AM 4.78 40.604 0.034 6.77 21.83 11.85
12/26/2021 8:45:00 AM 4.79 40.622 0.034 6.74 22.18 11.87
12/26/2021 9:00:00 AM 4.79 40.622 0.034 6.81 23.52 11.88
12/26/2021 9:15:00 AM 4.78 40.604 0.034 6.84 22.58 11.89
12/26/2021 9:30:00 AM 4.78 40.604 0.034 6.74 23.19 11.91
12/26/2021 9:45:00 AM 4.79 40.622 0.034 6.77 20.85 11.92
12/26/2021 10:00:00 AM 4.8 40.64 0.034 6.8 24.15 11.92
12/26/2021 10:15:00 AM 4.81 40.658 0.034 6.83 25.21 11.93
12/26/2021 10:30:00 AM 4.86 40.748 0.034 6.78 19.18 11.92
12/26/2021 10:45:00 AM 4.91 40.838 0.034 6.76 22.55 11.91
12/26/2021 11:00:00 AM 4.97 40.946 0.034 6.83 21.17 11.9
12/26/2021 11:15:00 AM 5.03 41.054 0.033 6.78 26.59 11.89
12/26/2021 11:30:00 AM 5.08 41.144 0.033 6.8 25.18 11.87
12/26/2021 11:45:00 AM 5.14 41.252 0.033 6.86 23 11.84
12/26/2021 12:00:00 PM 5.2 41.36 0.033 6.86 22.54 11.83
12/26/2021 12:15:00 PM 5.28 41.504 0.033 6.83 23.2 11.83
12/26/2021 12:30:00 PM 5.36 41.648 0.033 6.78 23.54 11.8
12/26/2021 12:45:00 PM 5.4 41.72 0.033 6.86 21.84 11.79
12/26/2021 1:00:00 PM 5.43 41.774 0.033 6.8 22.34 11.77
12/26/2021 1:15:00 PM 5.45 41.81 0.033 6.86 22.76 11.75
12/26/2021 1:30:00 PM 5.49 41.882 0.033 6.79 24.99 11.74
12/26/2021 1:45:00 PM 5.52 41.936 0.033 6.83 21.87 11.73
12/26/2021 2:00:00 PM 5.58 42.044 0.033 6.86 23.55 11.72
12/26/2021 2:15:00 PM 5.62 42.116 0.033 6.81 22.65 11.7
12/26/2021 2:30:00 PM 5.65 42.17 0.033 6.8 20.42 11.68
12/26/2021 2:45:00 PM 5.65 42.17 0.033 6.81 23.08 11.65
12/26/2021 3:00:00 PM 5.63 42.134 0.033 6.81 20.93 11.66
12/26/2021 3:15:00 PM 5.6 42.08 0.033 6.85 21.27 11.65
12/26/2021 3:30:00 PM 5.57 42.026 0.033 6.8 22.32 11.64
12/26/2021 3:45:00 PM 5.53 41.954 0.034 6.83 21.06 11.65
12/26/2021 4:00:00 PM 5.5 41.9 0.034 6.8 22.18 11.67
12/26/2021 4:15:00 PM 5.46 41.828 0.034 6.83 22.6 11.65
12/26/2021 4:30:00 PM 5.42 41.756 0.034 6.82 21.06 11.65
12/26/2021 4:45:00 PM 5.38 41.684 0.034 6.84 23.48 11.64
12/26/2021 5:00:00 PM 5.33 41.594 0.034 6.79 21.16 11.64
12/26/2021 5:15:00 PM 5.28 41.504 0.034 6.82 24.33 11.65
12/26/2021 5:30:00 PM 5.22 41.396 0.034 6.81 22.15 11.67
12/26/2021 5:45:00 PM 5.16 41.288 0.034 6.74 23.04 11.67
12/26/2021 6:00:00 PM 5.1 41.18 0.034 6.8 20.51 11.68
12/26/2021 6:15:00 PM 5.04 41.072 0.034 6.76 21.59 11.71
12/26/2021 6:30:00 PM 4.97 40.946 0.034 6.77 22.3 11.74
12/26/2021 6:45:00 PM 4.92 40.856 0.034 6.76 22.86 11.76
12/26/2021 7:00:00 PM 4.85 40.73 0.034 6.79 22.73 11.79
12/26/2021 7:15:00 PM 4.79 40.622 0.034 6.79 21.53 11.81
12/26/2021 7:30:00 PM 4.74 40.532 0.034 6.79 22.28 11.82
12/26/2021 7:45:00 PM 4.69 40.442 0.034 6.82 22.08 11.84
12/26/2021 8:00:00 PM 4.65 40.37 0.034 6.73 22.61 11.85
12/26/2021 8:15:00 PM 4.6 40.28 0.034 6.8 20.68 11.87
12/26/2021 8:30:00 PM 4.57 40.226 0.034 6.82 23.12 11.88
12/26/2021 8:45:00 PM 4.54 40.172 0.034 6.82 21.76 11.88
12/26/2021 9:00:00 PM 4.52 40.136 0.034 6.74 24.47 11.89
12/26/2021 9:15:00 PM 4.49 40.082 0.034 6.75 21.39 11.9
12/26/2021 9:30:00 PM 4.49 40.082 0.034 6.75 21.44 11.9
12/26/2021 9:45:00 PM 4.48 40.064 0.034 6.78 22.25 11.9
12/26/2021 10:00:00 PM 4.46 40.028 0.034 6.74 22.7 11.91
12/26/2021 10:15:00 PM 4.46 40.028 0.034 6.77 21.81 11.91
12/26/2021 10:30:00 PM 4.46 40.028 0.034 6.78 24.12 11.91
12/26/2021 10:45:00 PM 4.45 40.01 0.034 6.81 21.47 11.92
12/26/2021 11:00:00 PM 4.46 40.028 0.034 6.77 21.63 11.91
12/26/2021 11:15:00 PM 4.44 39.992 0.034 6.73 21.2 11.92
12/26/2021 11:30:00 PM 4.45 40.01 0.034 6.8 23.67 11.92
12/26/2021 11:45:00 PM 4.45 40.01 0.034 6.8 23.27 11.92
12/27/2021 12:00:00 AM 4.45 40.01 0.034 6.72 21.59 11.92
12/27/2021 12:15:00 AM 4.45 40.01 0.034 6.79 22.65 11.93
12/27/2021 12:30:00 AM 4.45 40.01 0.034 6.75 22.65 11.92
12/27/2021 12:45:00 AM 4.45 40.01 0.034 6.81 22.24 11.93
12/27/2021 1:00:00 AM 4.45 40.01 0.034 6.74 22.65 11.92
12/27/2021 1:15:00 AM 4.44 39.992 0.034 6.81 22.51 11.92
12/27/2021 1:30:00 AM 4.43 39.974 0.034 6.74 21.33 11.93
12/27/2021 1:45:00 AM 4.4 39.92 0.034 6.76 24.04 11.93
12/27/2021 2:00:00 AM 4.39 39.902 0.034 6.76 21.2 11.93
12/27/2021 2:15:00 AM 4.36 39.848 0.034 6.75 21.16 11.95
12/27/2021 2:30:00 AM 4.34 39.812 0.034 6.77 22.34 11.96
12/27/2021 2:45:00 AM 4.3 39.74 0.034 6.8 21.96 11.97
12/27/2021 3:00:00 AM 4.29 39.722 0.034 6.75 22.96 11.98
12/27/2021 3:15:00 AM 4.24 39.632 0.034 6.79 24.94 12
12/27/2021 3:30:00 AM 4.22 39.596 0.034 6.79 22.39 12
12/27/2021 3:45:00 AM 4.2 39.56 0.034 6.77 22.02 12
12/27/2021 4:00:00 AM 4.19 39.542 0.034 6.78 21.93 12
12/27/2021 4:15:00 AM 4.16 39.488 0.034 6.8 25.1 12.02
12/27/2021 4:30:00 AM 4.16 39.488 0.034 6.78 22.73 12.01
12/27/2021 4:45:00 AM 4.14 39.452 0.034 6.79 21.43 12.03
12/27/2021 5:00:00 AM 4.12 39.416 0.034 6.76 23.17 12.04
12/27/2021 5:15:00 AM 4.11 39.398 0.034 6.8 22.89 12.03
12/27/2021 5:30:00 AM 4.09 39.362 0.034 6.73 22.78 12.04
12/27/2021 5:45:00 AM 4.08 39.344 0.034 6.82 22.89 12.04
12/27/2021 6:00:00 AM 4.07 39.326 0.034 6.74 23.1 12.04
12/27/2021 6:15:00 AM 4.06 39.308 0.034 6.81 21.06 12.05
12/27/2021 6:30:00 AM 4.05 39.29 0.034 6.77 21.56 12.05
12/27/2021 6:45:00 AM 4.05 39.29 0.034 6.79 22.2 12.04
12/27/2021 7:00:00 AM 4.04 39.272 0.034 6.8 21.32 12.06
12/27/2021 7:15:00 AM 4.04 39.272 0.034 6.78 22.95 12.04
12/27/2021 7:30:00 AM 4.04 39.272 0.034 6.79 20.77 12.04
12/27/2021 7:45:00 AM 4.04 39.272 0.034 6.8 20.25 12.04
12/27/2021 8:00:00 AM 4.04 39.272 0.034 6.81 20.77 12.06
12/27/2021 8:15:00 AM 4.04 39.272 0.034 6.7 22.15 12.07
12/27/2021 8:30:00 AM 4.05 39.29 0.034 6.75 20.37 12.07
12/27/2021 8:45:00 AM 4.06 39.308 0.034 6.76 21.56 12.08
12/27/2021 9:00:00 AM 4.06 39.308 0.034 6.8 20.9 12.08
12/27/2021 9:15:00 AM 4.08 39.344 0.034 6.81 20.35 12.09
12/27/2021 9:30:00 AM 4.08 39.344 0.034 6.76 22.05 12.09
12/27/2021 9:45:00 AM 4.1 39.38 0.034 6.82 22.63 12.11
12/27/2021 10:00:00 AM 4.12 39.416 0.034 6.82 20.85 12.12
12/27/2021 10:15:00 AM 4.13 39.434 0.034 6.81 20.16 12.15
12/27/2021 10:30:00 AM 4.14 39.452 0.034 6.82 21.36 12.15
12/27/2021 10:45:00 AM 4.12 39.416 0.034 6.8 21.74 12.15
12/27/2021 11:00:00 AM 4.13 39.434 0.034 6.85 21.29 12.18
12/27/2021 11:15:00 AM 4.16 39.488 0.034 6.83 23.12 12.16
12/27/2021 11:30:00 AM 4.18 39.524 0.034 6.83 21.35 12.17
12/27/2021 11:45:00 AM 4.19 39.542 0.034 6.85 22.05 12.16
12/27/2021 12:00:00 PM 4.21 39.578 0.034 6.85 20.88 12.15
12/27/2021 12:15:00 PM 4.22 39.596 0.034 6.81 19.68 12.13
12/27/2021 12:30:00 PM 4.23 39.614 0.034 6.84 20.92 12.13
12/27/2021 12:45:00 PM 4.21 39.578 0.033 6.77 21.32 12.1
12/27/2021 1:00:00 PM 4.21 39.578 0.033 6.78 21.11 12.09
12/27/2021 1:15:00 PM 4.12 39.416 0.033 6.79 20.95 12.08
12/27/2021 1:30:00 PM 4.13 39.434 0.033 6.84 21.2 12.09
12/27/2021 1:45:00 PM 4.15 39.47 0.034 6.77 21.83 12.08
12/27/2021 2:00:00 PM 4.17 39.506 0.034 6.77 20.64 12.06
12/27/2021 2:15:00 PM 4.16 39.488 0.034 6.81 19.94 12.07
12/27/2021 2:30:00 PM 4.15 39.47 0.034 6.83 21.93 12.06
12/27/2021 2:45:00 PM 4.16 39.488 0.034 6.8 19.99 12.04
12/27/2021 3:00:00 PM 4.16 39.488 0.034 6.77 22.05 12.05
12/27/2021 3:15:00 PM 4.15 39.47 0.034 6.8 21.31 12.04
12/27/2021 3:30:00 PM 4.14 39.452 0.034 6.77 21.64 12.02
12/27/2021 3:45:00 PM 4.14 39.452 0.034 6.77 21.95 12.01
12/27/2021 4:00:00 PM 4.13 39.434 0.034 6.84 22 12
12/27/2021 4:15:00 PM 4.14 39.452 0.034 6.77 23.04 12
12/27/2021 4:30:00 PM 4.13 39.434 0.034 6.77 21.13 11.98
12/27/2021 4:45:00 PM 4.13 39.434 0.034 6.8 22.23 11.97
12/27/2021 5:00:00 PM 4.12 39.416 0.034 6.79 23.93 11.97
12/27/2021 5:15:00 PM 4.12 39.416 0.034 6.8 22.48 11.97
12/27/2021 5:30:00 PM 4.12 39.416 0.034 6.76 67.93 11.96
12/27/2021 5:45:00 PM 4.12 39.416 0.034 6.8 21.66 11.95
12/27/2021 6:00:00 PM 4.12 39.416 0.034 6.79 35.18 11.94
12/27/2021 6:15:00 PM 4.13 39.434 0.034 6.79 21.86 11.94
12/27/2021 6:30:00 PM 4.1 39.38 0.034 6.79 22.45 11.95
12/27/2021 6:45:00 PM 4.1 39.38 0.034 6.79 23.92 11.95
12/27/2021 7:00:00 PM 4.09 39.362 0.034 6.75 19.7 11.96
12/27/2021 7:15:00 PM 4.1 39.38 0.034 6.83 23.66 11.95
12/27/2021 7:30:00 PM 4.09 39.362 0.034 6.72 22.26 11.96
12/27/2021 7:45:00 PM 4.08 39.344 0.034 6.82 21.22 11.95
12/27/2021 8:00:00 PM 4.07 39.326 0.034 6.79 22.11 11.96
12/27/2021 8:15:00 PM 4.07 39.326 0.034 6.82 23.03 11.96
12/27/2021 8:30:00 PM 4.06 39.308 0.034 6.78 21.89 11.95
12/27/2021 8:45:00 PM 4.05 39.29 0.034 6.83 23.7 11.95
12/27/2021 9:00:00 PM 4.05 39.29 0.034 6.79 21.27 11.95
12/27/2021 9:15:00 PM 4.05 39.29 0.034 6.8 24.14 11.95
12/27/2021 9:30:00 PM 4.04 39.272 0.034 6.79 23.43 11.95
12/27/2021 9:45:00 PM 4.03 39.254 0.034 6.77 24.3 11.95
12/27/2021 10:00:00 PM 4.03 39.254 0.034 6.75 22.32 11.96
12/27/2021 10:15:00 PM 4.04 39.272 0.034 6.79 25.34 11.95
12/27/2021 10:30:00 PM 4.04 39.272 0.034 6.78 21.54 11.95
12/27/2021 10:45:00 PM 4.03 39.254 0.034 6.81 22.76 11.95
12/27/2021 11:00:00 PM 4.03 39.254 0.034 6.72 21.82 11.95
12/27/2021 11:15:00 PM 4.04 39.272 0.034 6.81 23.75 11.95
12/27/2021 11:30:00 PM 4.03 39.254 0.034 6.8 22.58 11.96
12/27/2021 11:45:00 PM 4.04 39.272 0.034 6.79 21.58 11.96
12/28/2021 12:00:00 AM 4.04 39.272 0.034 6.77 22.4 11.95
12/28/2021 12:15:00 AM 4.04 39.272 0.034 6.82 22.85 11.96
12/28/2021 12:30:00 AM 4.06 39.308 0.034 6.78 23.32 11.95
12/28/2021 12:45:00 AM 4.06 39.308 0.034 6.76 22.26 11.95
12/28/2021 1:00:00 AM 4.07 39.326 0.034 6.8 24.49 11.94
12/28/2021 1:15:00 AM 4.08 39.344 0.034 6.8 21.88 11.94
12/28/2021 1:30:00 AM 4.08 39.344 0.034 6.81 23.66 11.94
12/28/2021 1:45:00 AM 4.09 39.362 0.034 6.74 21.89 11.94
12/28/2021 2:00:00 AM 4.09 39.362 0.034 6.82 24.29 11.94
12/28/2021 2:15:00 AM 4.11 39.398 0.034 6.74 23.47 11.94
12/28/2021 2:30:00 AM 4.11 39.398 0.034 6.77 23.84 11.94
12/28/2021 2:45:00 AM 4.11 39.398 0.034 6.8 26.3 11.94
12/28/2021 3:00:00 AM 4.12 39.416 0.034 6.74 22.13 11.94
12/28/2021 3:15:00 AM 4.12 39.416 0.034 6.79 22 11.94
12/28/2021 3:30:00 AM 4.13 39.434 0.034 6.8 22.13 11.94
12/28/2021 3:45:00 AM 4.13 39.434 0.034 6.73 23.57 11.94
12/28/2021 4:00:00 AM 4.14 39.452 0.034 6.77 22.5 11.94
12/28/2021 4:15:00 AM 4.13 39.434 0.034 6.75 21.2 11.94
12/28/2021 4:30:00 AM 4.14 39.452 0.034 6.77 24.1 11.93
12/28/2021 4:45:00 AM 4.14 39.452 0.034 6.74 23.03 11.94
12/28/2021 5:00:00 AM 4.13 39.434 0.034 6.81 24.21 11.93
12/28/2021 5:15:00 AM 4.11 39.398 0.034 6.77 22.23 11.94
12/28/2021 5:30:00 AM 4.1 39.38 0.034 6.79 20.99 11.94
12/28/2021 5:45:00 AM 4.09 39.362 0.034 6.81 22.39 11.95
12/28/2021 6:00:00 AM 4.08 39.344 0.034 6.74 21.52 11.96
12/28/2021 6:15:00 AM 4.08 39.344 0.034 6.78 21.37 11.96
12/28/2021 6:30:00 AM 4.08 39.344 0.034 6.77 20.69 11.96
12/28/2021 6:45:00 AM 4.08 39.344 0.034 6.78 22 11.97
12/28/2021 7:00:00 AM 4.08 39.344 0.034 6.76 21.57 11.97
12/28/2021 7:15:00 AM 4.09 39.362 0.034 6.79 23.36 11.97
12/28/2021 7:30:00 AM 4.09 39.362 0.034 6.82 20.33 11.98
12/28/2021 7:45:00 AM 4.1 39.38 0.034 6.75 22.14 11.98
12/28/2021 8:00:00 AM 4.11 39.398 0.034 6.8 21.7 11.99
12/28/2021 8:15:00 AM 4.11 39.398 0.034 6.79 21.98 12.01
12/28/2021 8:30:00 AM 4.12 39.416 0.034 6.8 22.34 12.03
12/28/2021 8:45:00 AM 4.13 39.434 0.034 6.77 22.06 12.05
12/28/2021 9:00:00 AM 4.15 39.47 0.034 6.78 21.37 12.07
12/28/2021 9:15:00 AM 4.17 39.506 0.034 6.84 21.24 12.09
12/28/2021 9:30:00 AM 4.2 39.56 0.034 6.82 21.2 12.11
12/28/2021 9:45:00 AM 4.23 39.614 0.034 6.87 21.17 12.12
12/28/2021 10:00:00 AM 4.27 39.686 0.034 6.81 20.89 12.12
12/28/2021 10:15:00 AM 4.29 39.722 0.034 6.81 20.23 12.11
12/28/2021 10:30:00 AM 4.32 39.776 0.034 6.84 21.12 12.11
12/28/2021 10:45:00 AM 4.36 39.848 0.034 6.85 21.95 12.1
12/28/2021 11:00:00 AM 4.41 39.938 0.034 6.88 22.29 12.08
12/28/2021 11:15:00 AM 4.49 40.082 0.034 6.8 20.4 12.08
12/28/2021 11:30:00 AM 4.56 40.208 0.034 6.8 21.71 12.05
12/28/2021 11:45:00 AM 4.62 40.316 0.033 6.85 20.67 12.04
12/28/2021 12:00:00 PM 4.69 40.442 0.033 6.83 20.74 12.02
12/28/2021 12:15:00 PM 4.74 40.532 0.033 6.86 20.86 11.99
12/28/2021 12:30:00 PM 4.77 40.586 0.033 6.79 21.68 11.97
12/28/2021 12:45:00 PM 4.8 40.64 0.034 6.84 21.84 11.92
12/28/2021 1:00:00 PM 4.82 40.676 0.034 6.85 21.53 11.9
12/28/2021 1:15:00 PM 4.83 40.694 0.034 6.86 21.88 11.88
12/28/2021 1:30:00 PM 4.85 40.73 0.034 6.77 20.12 11.86
12/28/2021 1:45:00 PM 4.86 40.748 0.034 6.86 20.93 11.85
12/28/2021 2:00:00 PM 4.88 40.784 0.034 6.82 22.85 11.84
12/28/2021 2:15:00 PM 4.9 40.82 0.034 6.83 21.43 11.84
12/28/2021 2:30:00 PM 4.92 40.856 0.034 6.86 21.61 11.86
12/28/2021 2:45:00 PM 4.93 40.874 0.034 6.83 21.46 11.84
12/28/2021 3:00:00 PM 4.94 40.892 0.034 6.79 22.68 11.8
12/28/2021 3:15:00 PM 4.94 40.892 0.034 6.85 20.89 11.78
12/28/2021 3:30:00 PM 4.94 40.892 0.034 6.86 21.93 11.78
12/28/2021 3:45:00 PM 4.94 40.892 0.034 6.83 22.48 11.76
12/28/2021 4:00:00 PM 4.94 40.892 0.034 6.77 21.45 11.76
12/28/2021 4:15:00 PM 4.93 40.874 0.034 6.83 22.06 11.76
12/28/2021 4:30:00 PM 4.92 40.856 0.034 6.83 22.13 11.76
12/28/2021 4:45:00 PM 4.91 40.838 0.034 6.79 20.28 11.74
12/28/2021 5:00:00 PM 4.9 40.82 0.034 6.77 20.64 11.75
12/28/2021 5:15:00 PM 4.89 40.802 0.034 6.83 20.76 11.73
12/28/2021 5:30:00 PM 4.88 40.784 0.034 6.8 23.84 11.74
12/28/2021 5:45:00 PM 4.87 40.766 0.034 6.77 20.77 11.74
12/28/2021 6:00:00 PM 4.86 40.748 0.034 6.81 23.28 11.74
12/28/2021 6:15:00 PM 4.85 40.73 0.034 6.81 20.19 11.75
12/28/2021 6:30:00 PM 4.83 40.694 0.034 6.76 21.54 11.75
12/28/2021 6:45:00 PM 4.82 40.676 0.034 6.82 20.98 11.74
12/28/2021 7:00:00 PM 4.79 40.622 0.034 6.81 21.83 11.75
12/28/2021 7:15:00 PM 4.76 40.568 0.034 6.77 21.88 11.75
12/28/2021 7:30:00 PM 4.72 40.496 0.034 6.8 22.81 11.76
12/28/2021 7:45:00 PM 4.66 40.388 0.034 6.8 23.14 11.76
12/28/2021 8:00:00 PM 4.61 40.298 0.034 6.82 22.41 11.77
12/28/2021 8:15:00 PM 4.55 40.19 0.034 6.77 26.31 11.78
12/28/2021 8:30:00 PM 4.5 40.1 0.034 6.82 23 11.79
12/28/2021 8:45:00 PM 4.4 39.92 0.034 6.74 23.24 11.8
12/28/2021 9:00:00 PM 4.33 39.794 0.034 6.82 25.95 11.84
12/28/2021 9:15:00 PM 4.29 39.722 0.034 6.77 25 11.86
12/28/2021 9:30:00 PM 4.26 39.668 0.034 6.77 21.89 11.88
12/28/2021 9:45:00 PM 4.22 39.596 0.034 6.75 24.19 11.9
12/28/2021 10:00:00 PM 4.19 39.542 0.034 6.78 23.03 11.91
12/28/2021 10:15:00 PM 4.16 39.488 0.034 6.8 22.71 11.93
12/28/2021 10:30:00 PM 4.13 39.434 0.034 6.73 23.26 11.94
12/28/2021 10:45:00 PM 4.11 39.398 0.034 6.79 24.89 11.93
12/28/2021 11:00:00 PM 4.09 39.362 0.034 6.72 21.97 11.94
12/28/2021 11:15:00 PM 4.09 39.362 0.034 6.81 22.85 11.94
12/28/2021 11:30:00 PM 4.09 39.362 0.034 6.73 20.07 11.94
12/28/2021 11:45:00 PM 4.1 39.38 0.034 6.8 21.3 11.93
12/29/2021 12:00:00 AM 4.1 39.38 0.034 6.81 22.43 11.92
12/29/2021 12:15:00 AM 4.11 39.398 0.034 6.72 22.57 11.93
12/29/2021 12:30:00 AM 4.13 39.434 0.034 6.81 21.67 11.92
12/29/2021 12:45:00 AM 4.16 39.488 0.034 6.72 22.61 11.9
12/29/2021 1:00:00 AM 4.17 39.506 0.034 6.81 23.49 11.9
12/29/2021 1:15:00 AM 4.2 39.56 0.034 6.79 24.15 11.89
12/29/2021 1:30:00 AM 4.23 39.614 0.034 6.79 23.95 11.88
12/29/2021 1:45:00 AM 4.25 39.65 0.034 6.81 23.7 11.86
12/29/2021 2:00:00 AM 4.27 39.686 0.034 6.8 20.9 11.86
12/29/2021 2:15:00 AM 4.29 39.722 0.034 6.81 21.74 11.85
12/29/2021 2:30:00 AM 4.3 39.74 0.034 6.8 22.96 11.85
12/29/2021 2:45:00 AM 4.3 39.74 0.034 6.83 23.82 11.85
12/29/2021 3:00:00 AM 4.32 39.776 0.033 6.76 25.15 11.84
12/29/2021 3:15:00 AM 4.33 39.794 0.034 6.8 22 11.84
12/29/2021 3:30:00 AM 4.33 39.794 0.034 6.78 23.54 11.84
12/29/2021 3:45:00 AM 4.33 39.794 0.034 6.79 22.85 11.84
12/29/2021 4:00:00 AM 4.34 39.812 0.034 6.82 23.82 11.84
12/29/2021 4:15:00 AM 4.35 39.83 0.034 6.79 23.45 11.83
12/29/2021 4:30:00 AM 4.35 39.83 0.034 6.8 23.51 11.84
12/29/2021 4:45:00 AM 4.36 39.848 0.034 6.76 23.23 11.84
12/29/2021 5:00:00 AM 4.36 39.848 0.034 6.78 20.45 11.83
12/29/2021 5:15:00 AM 4.37 39.866 0.034 6.8 24.34 11.82
12/29/2021 5:30:00 AM 4.37 39.866 0.034 6.78 22.53 11.83
12/29/2021 5:45:00 AM 4.38 39.884 0.034 6.8 24.1 11.83
12/29/2021 6:00:00 AM 4.38 39.884 0.034 6.77 21.55 11.83
12/29/2021 6:15:00 AM 4.39 39.902 0.034 6.81 23.23 11.83
12/29/2021 6:30:00 AM 4.4 39.92 0.034 6.77 24.38 11.82
12/29/2021 6:45:00 AM 4.41 39.938 0.034 6.77 23.68 11.82
12/29/2021 7:00:00 AM 4.41 39.938 0.034 6.81 22.99 11.82
12/29/2021 7:15:00 AM 4.42 39.956 0.034 6.78 23.78 11.83
12/29/2021 7:30:00 AM 4.42 39.956 0.034 6.81 23.5 11.83
12/29/2021 7:45:00 AM 4.42 39.956 0.034 6.81 23.72 11.83
12/29/2021 8:00:00 AM 4.43 39.974 0.034 6.77 22.08 11.83
12/29/2021 8:15:00 AM 4.44 39.992 0.034 6.8 23.21 11.84
12/29/2021 8:30:00 AM 4.45 40.01 0.034 6.8 21.1 11.84
12/29/2021 8:45:00 AM 4.46 40.028 0.034 6.81 20.63 11.84
12/29/2021 9:00:00 AM 4.47 40.046 0.034 6.75 23.2 11.86
12/29/2021 9:15:00 AM 4.48 40.064 0.034 6.8 23.74 11.88
12/29/2021 9:30:00 AM 4.5 40.1 0.034 6.82 21.74 11.89
12/29/2021 9:45:00 AM 4.52 40.136 0.034 6.81 23.91 11.9
12/29/2021 10:00:00 AM 4.55 40.19 0.034 6.82 22.06 11.92
12/29/2021 10:15:00 AM 4.58 40.244 0.034 6.83 20.95 11.93
12/29/2021 10:30:00 AM 4.61 40.298 0.034 6.83 20.33 11.95
12/29/2021 10:45:00 AM 4.64 40.352 0.034 6.85 22.89 11.95
12/29/2021 11:00:00 AM 4.68 40.424 0.034 6.85 24.79 11.95
12/29/2021 11:15:00 AM 4.71 40.478 0.034 6.83 23.57 11.95
12/29/2021 11:30:00 AM 4.74 40.532 0.034 6.85 22.53 11.94
12/29/2021 11:45:00 AM 4.77 40.586 0.034 6.82 21.5 11.93
12/29/2021 12:00:00 PM 4.81 40.658 0.034 6.85 22.78 11.93
12/29/2021 12:15:00 PM 4.84 40.712 0.034 6.85 22.28 11.91
12/29/2021 12:30:00 PM 4.87 40.766 0.034 6.87 22.85 11.9
12/29/2021 12:45:00 PM 4.9 40.82 0.034 6.83 23.47 11.88
12/29/2021 1:00:00 PM 4.93 40.874 0.032 6.84 40.41 11.87
12/29/2021 1:15:00 PM 4.96 40.928 0.034 6.81 23.39 11.86
12/29/2021 1:30:00 PM 4.99 40.982 0.034 6.82 23.71 11.85
12/29/2021 1:45:00 PM 5.02 41.036 0.034 6.88 22.38 11.84
12/29/2021 2:00:00 PM 5.05 41.09 0.034 6.86 23.89 11.83
12/29/2021 2:15:00 PM 5.07 41.126 0.034 6.85 22.44 11.82
12/29/2021 2:30:00 PM 5.1 41.18 0.034 6.81 22.44 11.8
12/29/2021 2:45:00 PM 5.13 41.234 0.034 6.82 23.05 11.78
12/29/2021 3:00:00 PM 5.15 41.27 0.034 6.85 21.04 11.76
12/29/2021 3:15:00 PM 5.17 41.306 0.034 6.87 22.23 11.75
12/29/2021 3:30:00 PM 5.19 41.342 0.034 6.84 21.78 11.73
12/29/2021 3:45:00 PM 5.2 41.36 0.034 6.81 22.91 11.73
12/29/2021 4:00:00 PM 5.22 41.396 0.034 6.79 22.85 11.71
12/29/2021 4:15:00 PM 5.22 41.396 0.034 6.81 23.12 11.69
12/29/2021 4:30:00 PM 5.23 41.414 0.034 6.8 22.47 11.67
12/29/2021 4:45:00 PM 5.23 41.414 0.034 6.84 23.46 11.66
12/29/2021 5:00:00 PM 5.23 41.414 0.034 6.79 22.97 11.65
12/29/2021 5:15:00 PM 5.24 41.432 0.034 6.84 21.4 11.63
12/29/2021 5:30:00 PM 5.24 41.432 0.034 6.78 21.74 11.64
12/29/2021 5:45:00 PM 5.24 41.432 0.034 6.82 21.42 11.63
12/29/2021 6:00:00 PM 5.24 41.432 0.034 6.77 21.71 11.63
12/29/2021 6:15:00 PM 5.24 41.432 0.034 6.83 22.1 11.63
12/29/2021 6:30:00 PM 5.24 41.432 0.034 6.76 21.37 11.64
12/29/2021 6:45:00 PM 5.24 41.432 0.034 6.81 21.79 11.63
12/29/2021 7:00:00 PM 5.24 41.432 0.034 6.78 22.72 11.64
12/29/2021 7:15:00 PM 5.24 41.432 0.034 6.75 23.66 11.64
12/29/2021 7:30:00 PM 5.23 41.414 0.034 6.84 22.76 11.63
12/29/2021 7:45:00 PM 5.24 41.432 0.034 6.73 22.39 11.64
12/29/2021 8:00:00 PM 5.24 41.432 0.034 6.78 21.71 11.64
12/29/2021 8:15:00 PM 5.24 41.432 0.034 6.76 22.18 11.63
12/29/2021 8:30:00 PM 5.24 41.432 0.034 6.77 21.24 11.64
12/29/2021 8:45:00 PM 5.23 41.414 0.034 6.81 22.26 11.63
12/29/2021 9:00:00 PM 5.24 41.432 0.034 6.8 22.44 11.62
12/29/2021 9:15:00 PM 5.23 41.414 0.034 6.8 22.1 11.65
12/29/2021 9:30:00 PM 5.24 41.432 0.034 6.79 23.4 11.63
12/29/2021 9:45:00 PM 5.24 41.432 0.034 6.79 22.08 11.63
12/29/2021 10:00:00 PM 5.24 41.432 0.034 6.79 21.2 11.63
12/29/2021 10:15:00 PM 5.24 41.432 0.034 6.74 21.49 11.64
12/29/2021 10:30:00 PM 5.24 41.432 0.034 6.78 22.98 11.63
12/29/2021 10:45:00 PM 5.24 41.432 0.034 6.8 22.67 11.64
12/29/2021 11:00:00 PM 5.25 41.45 0.034 6.8 20.74 11.63
12/29/2021 11:15:00 PM 5.25 41.45 0.034 6.76 20.81 11.63
12/29/2021 11:30:00 PM 5.25 41.45 0.034 6.78 22.03 11.63
12/29/2021 11:45:00 PM 5.26 41.468 0.034 6.8 21.47 11.64
12/30/2021 12:00:00 AM 5.26 41.468 0.034 6.75 22.24 11.63
12/30/2021 12:15:00 AM 5.26 41.468 0.034 6.79 21.1 11.64
12/30/2021 12:30:00 AM 5.26 41.468 0.034 6.76 21.65 11.64
12/30/2021 12:45:00 AM 5.27 41.486 0.034 6.79 21.41 11.63
12/30/2021 1:00:00 AM 5.27 41.486 0.034 6.74 21.99 11.62
12/30/2021 1:15:00 AM 5.28 41.504 0.034 6.79 20.59 11.62
12/30/2021 1:30:00 AM 5.28 41.504 0.034 6.76 21.21 11.62
12/30/2021 1:45:00 AM 5.29 41.522 0.034 6.77 21.76 11.62
12/30/2021 2:00:00 AM 5.29 41.522 0.034 6.78 21.88 11.6
12/30/2021 2:15:00 AM 5.29 41.522 0.034 6.78 21.4 11.6
12/30/2021 2:30:00 AM 5.3 41.54 0.034 6.76 22.03 11.62
12/30/2021 2:45:00 AM 5.3 41.54 0.034 6.76 21.48 11.61
12/30/2021 3:00:00 AM 5.3 41.54 0.034 6.75 21.4 11.61
12/30/2021 3:15:00 AM 5.31 41.558 0.034 6.79 22.33 11.6
12/30/2021 3:30:00 AM 5.31 41.558 0.034 6.76 21.56 11.61
12/30/2021 3:45:00 AM 5.31 41.558 0.034 6.76 22.79 11.61
12/30/2021 4:00:00 AM 5.31 41.558 0.034 6.77 20.13 11.6
12/30/2021 4:15:00 AM 5.32 41.576 0.034 6.8 20.28 11.6
12/30/2021 4:30:00 AM 5.32 41.576 0.034 6.79 21.59 11.59
12/30/2021 4:45:00 AM 5.32 41.576 0.034 6.81 22.75 11.6
12/30/2021 5:00:00 AM 5.33 41.594 0.034 6.79 21.2 11.6
12/30/2021 5:15:00 AM 5.33 41.594 0.034 6.75 21.97 11.59
12/30/2021 5:30:00 AM 5.34 41.612 0.034 6.79 21.66 11.59
12/30/2021 5:45:00 AM 5.34 41.612 0.034 6.72 20.35 11.6
12/30/2021 6:00:00 AM 5.34 41.612 0.034 6.77 22.28 11.6
12/30/2021 6:15:00 AM 5.34 41.612 0.034 6.78 21.53 11.6
12/30/2021 6:30:00 AM 5.35 41.63 0.034 6.76 23.31 11.59
12/30/2021 6:45:00 AM 5.35 41.63 0.034 6.76 22.01 11.59
12/30/2021 7:00:00 AM 5.36 41.648 0.034 6.76 20.88 11.6
12/30/2021 7:15:00 AM 5.36 41.648 0.034 6.78 23.14 11.6
12/30/2021 7:30:00 AM 5.36 41.648 0.034 6.74 21.63 11.6
12/30/2021 7:45:00 AM 5.37 41.666 0.034 6.75 21.73 11.6
12/30/2021 8:00:00 AM 5.37 41.666 0.034 6.74 21.75 11.6
12/30/2021 8:15:00 AM 5.38 41.684 0.034 6.74 22.92 11.6
12/30/2021 8:30:00 AM 5.38 41.684 0.034 6.77 21.78 11.61
12/30/2021 8:45:00 AM 5.39 41.702 0.034 6.78 22.73 11.62
12/30/2021 9:00:00 AM 5.4 41.72 0.034 6.79 21.88 11.64
12/30/2021 9:15:00 AM 5.41 41.738 0.034 6.75 22.31 11.63
12/30/2021 9:30:00 AM 5.42 41.756 0.034 6.75 20.99 11.65
12/30/2021 9:45:00 AM 5.43 41.774 0.034 6.81 22.36 11.65
12/30/2021 10:00:00 AM 5.45 41.81 0.034 6.8 21.9 11.66
12/30/2021 10:15:00 AM 5.46 41.828 0.034 6.77 21.97 11.67
12/30/2021 10:30:00 AM 5.48 41.864 0.034 6.82 22.44 11.68
12/30/2021 10:45:00 AM 5.5 41.9 0.034 6.77 22.31 11.68
12/30/2021 11:00:00 AM 5.52 41.936 0.034 6.83 22.23 11.67
12/30/2021 11:15:00 AM 5.55 41.99 0.034 6.8 21.47 11.67
12/30/2021 11:30:00 AM 5.59 42.062 0.034 6.83 22.49 11.68
12/30/2021 11:45:00 AM 5.61 42.098 0.034 6.8 21.18 11.66
12/30/2021 12:00:00 PM 5.64 42.152 0.034 6.81 21.19 11.66
12/30/2021 12:15:00 PM 5.67 42.206 0.034 6.84 21.35 11.65
12/30/2021 12:30:00 PM 5.7 42.26 0.034 6.8 21.03 11.63
12/30/2021 12:45:00 PM 5.73 42.314 0.034 6.83 21.49 11.62
12/30/2021 1:00:00 PM 5.75 42.35 0.034 6.8 20.84 11.6
12/30/2021 1:15:00 PM 5.78 42.404 0.034 6.81 22.68 11.58
12/30/2021 1:30:00 PM 5.8 42.44 0.034 6.8 21.31 11.57
12/30/2021 1:45:00 PM 5.82 42.476 0.034 6.82 21.66 11.56
12/30/2021 2:00:00 PM 5.84 42.512 0.034 6.82 21.59 11.55
12/30/2021 2:15:00 PM 5.86 42.548 0.034 6.83 21.85 11.54
12/30/2021 2:30:00 PM 5.88 42.584 0.034 6.84 20.67 11.53
12/30/2021 2:45:00 PM 5.89 42.602 0.034 6.8 22.16 11.51
12/30/2021 3:00:00 PM 5.91 42.638 0.034 6.83 21.09 11.49
12/30/2021 3:15:00 PM 5.92 42.656 0.034 6.82 22.1 11.48
12/30/2021 3:30:00 PM 5.93 42.674 0.034 6.84 21.83 11.47
12/30/2021 3:45:00 PM 5.94 42.692 0.034 6.75 22.09 11.46
12/30/2021 4:00:00 PM 5.94 42.692 0.034 6.78 22 11.45
12/30/2021 4:15:00 PM 5.95 42.71 0.034 6.79 21.23 11.44
12/30/2021 4:30:00 PM 5.95 42.71 0.034 6.75 21.83 11.44
12/30/2021 4:45:00 PM 5.95 42.71 0.034 6.8 21.27 11.42
12/30/2021 5:00:00 PM 5.95 42.71 0.034 6.78 20.22 11.42
12/30/2021 5:15:00 PM 5.95 42.71 0.034 6.77 22.14 11.42
12/30/2021 5:30:00 PM 5.95 42.71 0.034 6.79 21.68 11.42
12/30/2021 5:45:00 PM 5.96 42.728 0.034 6.75 21.52 11.41
12/30/2021 6:00:00 PM 5.96 42.728 0.034 6.77 20.22 11.4
12/30/2021 6:15:00 PM 5.96 42.728 0.034 6.77 20.92 11.4
12/30/2021 6:30:00 PM 5.96 42.728 0.034 6.75 21.5 11.41
12/30/2021 6:45:00 PM 5.96 42.728 0.034 6.75 20.74 11.41
12/30/2021 7:00:00 PM 5.96 42.728 0.034 6.79 22.86 11.41
12/30/2021 7:15:00 PM 5.96 42.728 0.034 6.78 22.21 11.41
12/30/2021 7:30:00 PM 5.96 42.728 0.034 6.77 21.78 11.41
12/30/2021 7:45:00 PM 5.96 42.728 0.034 6.79 20.89 11.41
12/30/2021 8:00:00 PM 5.97 42.746 0.034 6.78 21.18 11.41
12/30/2021 8:15:00 PM 5.97 42.746 0.034 6.72 20.94 11.41
12/30/2021 8:30:00 PM 5.98 42.764 0.034 6.77 22.25 11.4
12/30/2021 8:45:00 PM 5.98 42.764 0.034 6.73 21.4 11.41
12/30/2021 9:00:00 PM 5.98 42.764 0.034 6.77 20.12 11.41
12/30/2021 9:15:00 PM 5.98 42.764 0.034 6.76 21.29 11.41
12/30/2021 9:30:00 PM 5.98 42.764 0.034 6.73 21.52 11.41
12/30/2021 9:45:00 PM 5.98 42.764 0.034 6.77 21.1 11.41
12/30/2021 10:00:00 PM 5.98 42.764 0.034 6.72 21.94 11.41
12/30/2021 10:15:00 PM 5.98 42.764 0.034 6.77 21.68 11.4
12/30/2021 10:30:00 PM 5.99 42.782 0.034 6.76 35.46 11.41
12/30/2021 10:45:00 PM 5.99 42.782 0.034 6.73 21.07 11.4
12/30/2021 11:00:00 PM 6 42.8 0.034 6.75 20.84 11.4
12/30/2021 11:15:00 PM 6 42.8 0.034 6.78 21.45 11.4
12/30/2021 11:30:00 PM 6.01 42.818 0.034 6.73 22.44 11.4
12/30/2021 11:45:00 PM 6.01 42.818 0.034 6.76 21.22 11.4
12/31/2021 12:00:00 AM 6.02 42.836 0.035 6.77 22.22 11.4
12/31/2021 12:15:00 AM 6.02 42.836 0.035 6.76 22.74 11.4
12/31/2021 12:30:00 AM 6.02 42.836 0.035 6.72 21.23 11.4
12/31/2021 12:45:00 AM 6.03 42.854 0.035 6.74 22.84 11.4
12/31/2021 1:00:00 AM 6.03 42.854 0.035 6.76 22.88 11.39
12/31/2021 1:15:00 AM 6.04 42.872 0.035 6.77 21.93 11.38
12/31/2021 1:30:00 AM 6.04 42.872 0.035 6.75 22.12 11.39
12/31/2021 1:45:00 AM 6.05 42.89 0.035 6.73 22.05 11.39
12/31/2021 2:00:00 AM 6.05 42.89 0.035 6.79 22.45 11.39
12/31/2021 2:15:00 AM 6.05 42.89 0.035 6.71 23.36 11.38
12/31/2021 2:30:00 AM 6.06 42.908 0.035 6.76 22.38 11.38
12/31/2021 2:45:00 AM 6.06 42.908 0.035 6.72 20.17 11.38
12/31/2021 3:00:00 AM 6.07 42.926 0.035 6.72 20.97 11.38
12/31/2021 3:15:00 AM 6.07 42.926 0.035 6.73 22.45 11.37
12/31/2021 3:30:00 AM 6.08 42.944 0.035 6.75 22.74 11.37
12/31/2021 3:45:00 AM 6.08 42.944 0.035 6.78 21.8 11.37
12/31/2021 4:00:00 AM 6.09 42.962 0.035 6.74 22.65 11.37
12/31/2021 4:15:00 AM 6.09 42.962 0.035 6.74 21.41 11.37
12/31/2021 4:30:00 AM 6.09 42.962 0.035 6.77 23.07 11.36
12/31/2021 4:45:00 AM 6.1 42.98 0.035 6.77 21.42 11.36
12/31/2021 5:00:00 AM 6.1 42.98 0.035 6.77 22.88 11.36
12/31/2021 5:15:00 AM 6.1 42.98 0.035 6.75 21.06 11.35
12/31/2021 5:30:00 AM 6.1 42.98 0.035 6.77 20.99 11.35
12/31/2021 5:45:00 AM 6.11 42.998 0.035 6.78 22.91 11.36
12/31/2021 6:00:00 AM 6.11 42.998 0.035 6.74 22.34 11.35
12/31/2021 6:15:00 AM 6.11 42.998 0.035 6.78 21.9 11.35
12/31/2021 6:30:00 AM 6.12 43.016 0.035 6.77 21.21 11.35
12/31/2021 6:45:00 AM 6.12 43.016 0.035 6.77 21.11 11.35
12/31/2021 7:00:00 AM 6.12 43.016 0.035 6.71 20.68 11.35
12/31/2021 7:15:00 AM 6.12 43.016 0.035 6.74 21.83 11.36
12/31/2021 7:30:00 AM 6.13 43.034 0.035 6.77 21.93 11.35
12/31/2021 7:45:00 AM 6.13 43.034 0.035 6.75 22.27 11.36
12/31/2021 8:00:00 AM 6.13 43.034 0.035 6.78 21.65 11.36
12/31/2021 8:15:00 AM 6.14 43.052 0.035 6.75 21.66 11.37
12/31/2021 8:30:00 AM 6.15 43.07 0.035 6.77 21.2 11.38
12/31/2021 8:45:00 AM 6.17 43.106 0.034 6.8 22.25 11.4
12/31/2021 9:00:00 AM 6.18 43.124 0.034 6.76 22.29 11.41
12/31/2021 9:15:00 AM 6.2 43.16 0.034 6.81 22.89 11.42
12/31/2021 9:30:00 AM 6.22 43.196 0.034 6.78 20.59 11.43
12/31/2021 9:45:00 AM 6.24 43.232 0.034 6.82 20.66 11.44
12/31/2021 10:00:00 AM 6.28 43.304 0.034 6.73 20.48 11.46
12/31/2021 10:15:00 AM 6.29 43.322 0.034 6.82 22.4 11.47
12/31/2021 10:30:00 AM 6.33 43.394 0.034 6.78 22 11.46
12/31/2021 10:45:00 AM 6.38 43.484 0.034 6.85 22.45 11.46
12/31/2021 11:00:00 AM 6.43 43.574 0.034 6.87 21.77 11.45
12/31/2021 11:15:00 AM 6.47 43.646 0.034 6.78 22.87 11.45
12/31/2021 11:30:00 AM 6.54 43.772 0.034 6.87 21.67 11.44
12/31/2021 11:45:00 AM 6.63 43.934 0.034 6.79 21.86 11.44
12/31/2021 12:00:00 PM 6.73 44.114 0.034 6.83 22.49 11.43
12/31/2021 12:15:00 PM 6.82 44.276 0.034 6.89 22.34 11.38
12/31/2021 12:30:00 PM 6.89 44.402 0.034 6.86 22.49 11.34
12/31/2021 12:45:00 PM 7 44.6 0.034 6.89 21.53 11.3
12/31/2021 1:00:00 PM 7.08 44.744 0.034 6.83 22.23 11.29
12/31/2021 1:15:00 PM 7.12 44.816 0.034 6.89 22.05 11.27
12/31/2021 1:30:00 PM 7.16 44.888 0.034 6.89 22.83 11.27
12/31/2021 1:45:00 PM 7.19 44.942 0.034 6.89 21.89 11.25
12/31/2021 2:00:00 PM 7.23 45.014 0.034 6.84 22.78 11.23
12/31/2021 2:15:00 PM 7.26 45.068 0.034 6.9 22.8 11.23
12/31/2021 2:30:00 PM 7.29 45.122 0.034 6.89 24.01 11.21
12/31/2021 2:45:00 PM 7.31 45.158 0.034 6.89 22.12 11.21
12/31/2021 3:00:00 PM 7.32 45.176 0.034 6.88 21.95 11.19
12/31/2021 3:15:00 PM 7.34 45.212 0.034 6.9 22.49 11.19
12/31/2021 3:30:00 PM 7.34 45.212 0.034 6.88 23.19 11.17
12/31/2021 3:45:00 PM 7.32 45.176 0.034 6.88 23.36 11.15
12/31/2021 4:00:00 PM 7.29 45.122 0.034 6.88 21.8 11.13
12/31/2021 4:15:00 PM 7.25 45.05 0.034 6.78 22.14 11.11
12/31/2021 4:30:00 PM 7.21 44.978 0.034 6.83 22.27 11.09
12/31/2021 4:45:00 PM 7.18 44.924 0.034 6.84 22.16 11.09
12/31/2021 5:00:00 PM 7.14 44.852 0.034 6.78 23.68 11.07
12/31/2021 5:15:00 PM 7.1 44.78 0.034 6.83 22.17 11.07
12/31/2021 5:30:00 PM 7.07 44.726 0.034 6.83 22.65 11.07
12/31/2021 5:45:00 PM 7.04 44.672 0.034 6.78 23.31 11.06
12/31/2021 6:00:00 PM 7.02 44.636 0.034 6.83 20.96 11.08
12/31/2021 6:15:00 PM 7 44.6 0.034 6.82 21.51 11.08
12/31/2021 6:30:00 PM 6.98 44.564 0.034 6.81 23.29 11.08
12/31/2021 6:45:00 PM 6.97 44.546 0.034 6.8 20.11 11.09
12/31/2021 7:00:00 PM 6.96 44.528 0.035 6.82 22.89 11.1
12/31/2021 7:15:00 PM 6.95 44.51 0.035 6.78 23.2 11.1
12/31/2021 7:30:00 PM 6.95 44.51 0.035 6.82 21.95 11.1
12/31/2021 7:45:00 PM 6.94 44.492 0.035 6.84 23.88 11.11
12/31/2021 8:00:00 PM 6.93 44.474 0.035 6.8 22.73 11.11
12/31/2021 8:15:00 PM 6.93 44.474 0.035 6.85 21.36 11.12
12/31/2021 8:30:00 PM 6.92 44.456 0.035 6.79 23.56 11.1
12/31/2021 8:45:00 PM 6.92 44.456 0.035 6.83 22.38 11.1
12/31/2021 9:00:00 PM 6.92 44.456 0.035 6.82 22.82 11.11
12/31/2021 9:15:00 PM 6.93 44.474 0.035 6.84 22.59 11.1
12/31/2021 9:30:00 PM 6.93 44.474 0.035 6.83 22.48 11.1
12/31/2021 9:45:00 PM 6.94 44.492 0.035 6.84 21.73 11.09
12/31/2021 10:00:00 PM 6.94 44.492 0.035 6.82 21.87 11.09
12/31/2021 10:15:00 PM 6.94 44.492 0.035 6.78 22.55 11.1
12/31/2021 10:30:00 PM 6.95 44.51 0.035 6.77 21.77 11.08
12/31/2021 10:45:00 PM 6.96 44.528 0.035 6.84 22.06 11.08
12/31/2021 11:00:00 PM 6.97 44.546 0.035 6.83 21.47 11.08
12/31/2021 11:15:00 PM 6.99 44.582 0.035 6.82 22.28 11.07
12/31/2021 11:30:00 PM 6.99 44.582 0.035 6.82 21.84 11.07
12/31/2021 11:45:00 PM 7 44.6 0.035 6.76 20.82 11.07
1/1/2022 12:00:00 AM 7.01 44.618 0.035 6.83 22.71 11.07
1/1/2022 12:15:00 AM 7.02 44.636 0.035 6.84 21.29 11.06
1/1/2022 12:30:00 AM 7.03 44.654 0.035 6.74 19.66 11.05
1/1/2022 12:45:00 AM 7.03 44.654 0.035 6.8 21.92 11.05
1/1/2022 1:00:00 AM 7.04 44.672 0.034 6.83 21.71 11.05
1/1/2022 1:15:00 AM 7.04 44.672 0.034 6.83 20.96 11.05
1/1/2022 1:30:00 AM 7.05 44.69 0.034 6.84 20.94 11.04
1/1/2022 1:45:00 AM 7.05 44.69 0.035 6.79 21.47 11.05
1/1/2022 2:00:00 AM 7.06 44.708 0.035 6.77 21.07 11.04
1/1/2022 2:15:00 AM 7.06 44.708 0.035 6.83 22.67 11.03
1/1/2022 2:30:00 AM 7.07 44.726 0.034 6.82 21.42 11.03
1/1/2022 2:45:00 AM 7.07 44.726 0.034 6.8 20.97 11.04
1/1/2022 3:00:00 AM 7.08 44.744 0.034 6.75 20.93 11.03
1/1/2022 3:15:00 AM 7.08 44.744 0.034 6.79 23.6 11.03
1/1/2022 3:30:00 AM 7.08 44.744 0.034 6.83 21.19 11.03
1/1/2022 3:45:00 AM 7.09 44.762 0.034 6.78 22.27 11.03
1/1/2022 4:00:00 AM 7.1 44.78 0.034 6.84 20.75 11.03
1/1/2022 4:15:00 AM 7.1 44.78 0.034 6.83 21.14 11.03
1/1/2022 4:30:00 AM 7.1 44.78 0.034 6.83 21.3 11.02
1/1/2022 4:45:00 AM 7.1 44.78 0.034 6.73 21.04 11.02
1/1/2022 5:00:00 AM 7.1 44.78 0.034 6.84 21.69 11.02
1/1/2022 5:15:00 AM 7.11 44.798 0.034 6.83 21.4 11.02
1/1/2022 5:30:00 AM 7.11 44.798 0.034 6.83 22.84 11.02
1/1/2022 5:45:00 AM 7.11 44.798 0.034 6.74 22.27 11.01
1/1/2022 6:00:00 AM 7.11 44.798 0.034 6.81 19.94 11.02
1/1/2022 6:15:00 AM 7.11 44.798 0.034 6.81 20.25 11.02
1/1/2022 6:30:00 AM 7.11 44.798 0.034 6.74 22.51 11.02
1/1/2022 6:45:00 AM 7.11 44.798 0.034 6.74 21.52 11.02
1/1/2022 7:00:00 AM 7.11 44.798 0.035 6.8 20.97 11.02
1/1/2022 7:15:00 AM 7.11 44.798 0.035 6.81 21.7 11.02
1/1/2022 7:30:00 AM 7.11 44.798 0.035 6.73 22.5 11.02
1/1/2022 7:45:00 AM 7.11 44.798 0.035 6.81 20.63 11.02
1/1/2022 8:00:00 AM 7.11 44.798 0.035 6.81 20.13 11.03
1/1/2022 8:15:00 AM 7.12 44.816 0.035 6.8 21.3 11.03
1/1/2022 8:30:00 AM 7.12 44.816 0.035 6.8 20.57 11.03
1/1/2022 8:45:00 AM 7.12 44.816 0.035 6.76 22.33 11.05
1/1/2022 9:00:00 AM 7.13 44.834 0.035 6.8 20.46 11.05
1/1/2022 9:15:00 AM 7.13 44.834 0.035 6.75 21.11 11.06
1/1/2022 9:30:00 AM 7.14 44.852 0.035 6.81 21.65 11.07
1/1/2022 9:45:00 AM 7.15 44.87 0.035 6.82 20.95 11.08
1/1/2022 10:00:00 AM 7.16 44.888 0.035 6.8 22.24 11.09
1/1/2022 10:15:00 AM 7.17 44.906 0.035 6.77 21.18 11.1
1/1/2022 10:30:00 AM 7.19 44.942 0.035 6.82 20.45 11.11
1/1/2022 10:45:00 AM 7.21 44.978 0.034 6.83 19.66 11.14
1/1/2022 11:00:00 AM 7.23 45.014 0.034 6.8 22.05 11.14
1/1/2022 11:15:00 AM 7.25 45.05 0.034 6.82 21.62 11.14
1/1/2022 11:30:00 AM 7.28 45.104 0.034 6.85 20.62 11.15
1/1/2022 11:45:00 AM 7.3 45.14 0.034 6.76 21.04 11.15
1/1/2022 12:00:00 PM 7.33 45.194 0.034 6.86 21.99 11.15
1/1/2022 12:15:00 PM 7.36 45.248 0.034 6.86 20.98 11.14
1/1/2022 12:30:00 PM 7.38 45.284 0.034 6.84 18.58 11.13
1/1/2022 12:45:00 PM 7.41 45.338 0.034 6.88 20.77 11.14
1/1/2022 1:00:00 PM 7.44 45.392 0.034 6.86 22.91 11.12
1/1/2022 1:15:00 PM 7.47 45.446 0.034 6.89 20.89 11.11
1/1/2022 1:30:00 PM 7.5 45.5 0.034 6.8 21.14 11.1
1/1/2022 1:45:00 PM 7.53 45.554 0.034 6.88 21.42 11.08
1/1/2022 2:00:00 PM 7.55 45.59 0.034 6.89 19.79 11.06
1/1/2022 2:15:00 PM 7.57 45.626 0.034 6.87 21 11.05
1/1/2022 2:30:00 PM 7.58 45.644 0.034 6.84 22.41 11.01
1/1/2022 2:45:00 PM 7.59 45.662 0.034 6.83 22.97 11
1/1/2022 3:00:00 PM 7.59 45.662 0.034 6.79 22.15 10.98
1/1/2022 3:15:00 PM 7.6 45.68 0.034 6.86 22.47 10.94
1/1/2022 3:30:00 PM 7.6 45.68 0.034 6.75 22.53 10.93
1/1/2022 3:45:00 PM 7.6 45.68 0.034 6.79 21.33 10.92
1/1/2022 4:00:00 PM 7.6 45.68 0.034 6.77 21.92 10.9
1/1/2022 4:15:00 PM 7.6 45.68 0.034 6.81 20.35 10.89
1/1/2022 4:30:00 PM 7.6 45.68 0.034 6.8 20.34 10.88
1/1/2022 4:45:00 PM 7.59 45.662 0.034 6.82 21.82 10.88
1/1/2022 5:00:00 PM 7.59 45.662 0.034 6.8 20.55 10.87
1/1/2022 5:15:00 PM 7.58 45.644 0.035 6.78 22.11 10.87
1/1/2022 5:30:00 PM 7.57 45.626 0.035 6.73 22.15 10.87
1/1/2022 5:45:00 PM 7.56 45.608 0.035 6.73 21.15 10.87
1/1/2022 6:00:00 PM 7.55 45.59 0.035 6.74 23.32 10.87
1/1/2022 6:15:00 PM 7.54 45.572 0.035 6.79 20.17 10.86
1/1/2022 6:30:00 PM 7.53 45.554 0.035 6.73 22.26 10.88
1/1/2022 6:45:00 PM 7.52 45.536 0.035 6.8 21.56 10.88
1/1/2022 7:00:00 PM 7.52 45.536 0.035 6.81 22.07 10.88
1/1/2022 7:15:00 PM 7.51 45.518 0.035 6.76 22.35 10.88
1/1/2022 7:30:00 PM 7.5 45.5 0.035 6.77 22.21 10.88
1/1/2022 7:45:00 PM 7.5 45.5 0.035 6.72 22.67 10.88
1/1/2022 8:00:00 PM 7.5 45.5 0.035 6.77 22.61 10.89
1/1/2022 8:15:00 PM 7.5 45.5 0.035 6.79 19.97 10.88
1/1/2022 8:30:00 PM 7.49 45.482 0.035 6.79 21.76 10.88
1/1/2022 8:45:00 PM 7.49 45.482 0.035 6.72 19.67 10.88
1/1/2022 9:00:00 PM 7.49 45.482 0.035 6.81 19.7 10.88
1/1/2022 9:15:00 PM 7.5 45.5 0.035 6.81 22.14 10.87
1/1/2022 9:30:00 PM 7.5 45.5 0.035 6.81 20.19 10.87
1/1/2022 9:45:00 PM 7.5 45.5 0.035 6.8 21.83 10.87
1/1/2022 10:00:00 PM 7.5 45.5 0.035 6.72 20.12 10.86
1/1/2022 10:15:00 PM 7.5 45.5 0.035 6.75 20.69 10.87
1/1/2022 10:30:00 PM 7.5 45.5 0.035 6.83 20.25 10.86
1/1/2022 10:45:00 PM 7.5 45.5 0.035 6.81 21.43 10.87
1/1/2022 11:00:00 PM 7.5 45.5 0.035 6.81 20.28 10.86
1/1/2022 11:15:00 PM 7.5 45.5 0.035 6.8 20.49 10.86
1/1/2022 11:30:00 PM 7.5 45.5 0.035 6.8 20.77 10.86
1/1/2022 11:45:00 PM 7.51 45.518 0.035 6.78 20.88 10.86
1/2/2022 12:00:00 AM 7.51 45.518 0.035 6.81 20.85 10.87
1/2/2022 12:15:00 AM 7.51 45.518 0.035 6.76 20.72 10.87
1/2/2022 12:30:00 AM 7.52 45.536 0.035 6.84 20.78 10.87
1/2/2022 12:45:00 AM 7.51 45.518 0.035 6.82 22.35 10.87
1/2/2022 1:00:00 AM 7.5 45.5 0.035 6.85 21.29 10.88
1/2/2022 1:15:00 AM 7.49 45.482 0.035 6.87 21.52 10.89
1/2/2022 1:30:00 AM 7.47 45.446 0.035 6.84 21.8 10.89
1/2/2022 1:45:00 AM 7.46 45.428 0.035 6.86 21.93 10.89
1/2/2022 2:00:00 AM 7.44 45.392 0.035 6.88 21.69 10.9
1/2/2022 2:15:00 AM 7.42 45.356 0.035 6.74 21.58 10.91
1/2/2022 2:30:00 AM 7.39 45.302 0.035 6.83 22.27 10.92
1/2/2022 2:45:00 AM 7.37 45.266 0.035 6.83 21.38 10.92
1/2/2022 3:00:00 AM 7.35 45.23 0.035 6.79 22.23 10.93
1/2/2022 3:15:00 AM 7.33 45.194 0.035 6.84 21.5 10.94
1/2/2022 3:30:00 AM 7.3 45.14 0.035 6.86 22.17 10.94
1/2/2022 3:45:00 AM 7.28 45.104 0.035 6.76 20.24 10.96
1/2/2022 4:00:00 AM 7.26 45.068 0.035 6.78 21.68 10.96
1/2/2022 4:15:00 AM 7.24 45.032 0.035 6.79 21.18 10.97
1/2/2022 4:30:00 AM 7.21 44.978 0.035 6.78 22.42 10.97
1/2/2022 4:45:00 AM 7.19 44.942 0.035 6.81 21.72 10.98
1/2/2022 5:00:00 AM 7.17 44.906 0.035 6.85 21.56 10.98
1/2/2022 5:15:00 AM 7.15 44.87 0.035 6.86 20.3 10.99
1/2/2022 5:30:00 AM 7.13 44.834 0.035 6.87 20.35 10.99
1/2/2022 5:45:00 AM 7.11 44.798 0.035 6.76 20.14 10.99
1/2/2022 6:00:00 AM 7.08 44.744 0.035 6.79 20.7 10.99
1/2/2022 6:15:00 AM 7.06 44.708 0.035 6.83 21.72 10.99
1/2/2022 6:30:00 AM 7.04 44.672 0.035 6.79 20.77 11
1/2/2022 6:45:00 AM 7.01 44.618 0.035 6.85 21.33 11.01
1/2/2022 7:00:00 AM 6.99 44.582 0.035 6.85 21.05 11.02
1/2/2022 7:15:00 AM 6.96 44.528 0.035 6.87 19.67 11.03
1/2/2022 7:30:00 AM 6.94 44.492 0.035 6.76 20.45 11.04
1/2/2022 7:45:00 AM 6.92 44.456 0.035 6.86 21.68 11.05
1/2/2022 8:00:00 AM 6.9 44.42 0.035 6.81 21.06 11.07
1/2/2022 8:15:00 AM 6.88 44.384 0.035 6.88 20.36 11.09
1/2/2022 8:30:00 AM 6.86 44.348 0.035 6.85 21.31 11.12
1/2/2022 8:45:00 AM 6.85 44.33 0.035 6.87 22.22 11.15
1/2/2022 9:00:00 AM 6.84 44.312 0.035 6.78 21.15 11.17
1/2/2022 9:15:00 AM 6.83 44.294 0.035 6.84 22.25 11.2
1/2/2022 9:30:00 AM 6.82 44.276 0.035 6.87 20.81 11.22
1/2/2022 9:45:00 AM 6.81 44.258 0.035 6.88 21.34 11.24
1/2/2022 10:00:00 AM 6.8 44.24 0.034 6.81 20.71 11.25
1/2/2022 10:15:00 AM 6.78 44.204 0.034 6.9 21.09 11.26
1/2/2022 10:30:00 AM 6.77 44.186 0.034 6.9 22.22 11.26
1/2/2022 10:45:00 AM 6.76 44.168 0.034 6.87 20.7 11.29
1/2/2022 11:00:00 AM 6.74 44.132 0.034 6.86 20.41 11.29
1/2/2022 11:15:00 AM 6.72 44.096 0.034 6.91 20.68 11.3
1/2/2022 11:30:00 AM 6.7 44.06 0.034 6.92 20.43 11.31
1/2/2022 11:45:00 AM 6.69 44.042 0.034 6.9 20.96 11.32
1/2/2022 12:00:00 PM 6.67 44.006 0.034 6.91 21.55 11.33
1/2/2022 12:15:00 PM 6.64 43.952 0.034 6.88 20.75 11.32
1/2/2022 12:30:00 PM 6.62 43.916 0.034 6.85 20.82 11.33
1/2/2022 12:45:00 PM 6.6 43.88 0.034 6.84 21.15 11.34
1/2/2022 1:00:00 PM 6.58 43.844 0.034 6.85 20.74 11.34
1/2/2022 1:15:00 PM 6.57 43.826 0.034 6.91 21.05 11.36
1/2/2022 1:30:00 PM 6.56 43.808 0.034 6.9 20.23 11.37
1/2/2022 1:45:00 PM 6.54 43.772 0.034 6.86 21.01 11.38
1/2/2022 2:00:00 PM 6.52 43.736 0.034 6.84 21.82 11.37
1/2/2022 2:15:00 PM 6.49 43.682 0.034 6.91 20.34 11.36
1/2/2022 2:30:00 PM 6.46 43.628 0.034 6.92 20.98 11.34
1/2/2022 2:45:00 PM 6.42 43.556 0.034 6.89 20.17 11.34
1/2/2022 3:00:00 PM 6.39 43.502 0.034 6.88 21.9 11.34
1/2/2022 3:15:00 PM 6.35 43.43 0.034 6.83 20.99 11.34
1/2/2022 3:30:00 PM 6.32 43.376 0.034 6.86 20.08 11.35
1/2/2022 3:45:00 PM 6.28 43.304 0.034 6.89 21.65 11.36
1/2/2022 4:00:00 PM 6.25 43.25 0.034 6.84 21.66 11.39
1/2/2022 4:15:00 PM 6.22 43.196 0.035 6.8 20.3 11.38
1/2/2022 4:30:00 PM 6.18 43.124 0.035 6.83 20.56 11.39
1/2/2022 4:45:00 PM 6.13 43.034 0.035 6.86 20.04 11.4
1/2/2022 5:00:00 PM 6.08 42.944 0.035 6.86 21.98 11.4
1/2/2022 5:15:00 PM 6.02 42.836 0.035 6.78 19.66 11.42
1/2/2022 5:30:00 PM 5.97 42.746 0.035 6.85 21.22 11.43
1/2/2022 5:45:00 PM 5.91 42.638 0.035 6.79 21.04 11.44
1/2/2022 6:00:00 PM 5.87 42.566 0.035 6.83 21.87 11.45
1/2/2022 6:15:00 PM 5.83 42.494 0.035 6.8 18.87 11.47
1/2/2022 6:30:00 PM 5.78 42.404 0.035 6.86 21.94 11.47
1/2/2022 6:45:00 PM 5.74 42.332 0.035 6.84 21.97 11.49
1/2/2022 7:00:00 PM 5.7 42.26 0.035 6.77 20.79 11.5
1/2/2022 7:15:00 PM 5.66 42.188 0.035 6.82 22.65 11.52
1/2/2022 7:30:00 PM 5.62 42.116 0.035 6.85 20.59 11.54
1/2/2022 7:45:00 PM 5.57 42.026 0.035 6.77 20.04 11.56
1/2/2022 8:00:00 PM 5.53 41.954 0.035 6.84 20.11 11.59
1/2/2022 8:15:00 PM 5.48 41.864 0.035 6.77 21.75 11.6
1/2/2022 8:30:00 PM 5.44 41.792 0.035 6.83 20.34 11.61
1/2/2022 8:45:00 PM 5.39 41.702 0.035 6.85 20.78 11.61
1/2/2022 9:00:00 PM 5.34 41.612 0.035 6.85 21.34 11.63
1/2/2022 9:15:00 PM 5.3 41.54 0.035 6.77 20.97 11.64
1/2/2022 9:30:00 PM 5.26 41.468 0.035 6.78 22 11.66
1/2/2022 9:45:00 PM 5.23 41.414 0.035 6.86 21.72 11.67
1/2/2022 10:00:00 PM 5.19 41.342 0.035 6.8 24.45 11.68
1/2/2022 10:15:00 PM 5.15 41.27 0.035 6.85 21.54 11.69
1/2/2022 10:30:00 PM 5.11 41.198 0.035 6.77 19.98 11.7
1/2/2022 10:45:00 PM 5.08 41.144 0.035 6.85 21.93 11.71
1/2/2022 11:00:00 PM 5.05 41.09 0.035 6.83 21.47 11.73
1/2/2022 11:15:00 PM 5.01 41.018 0.035 6.82 23.28 11.75
1/2/2022 11:30:00 PM 4.97 40.946 0.035 6.79 21.28 11.76
1/2/2022 11:45:00 PM 4.93 40.874 0.035 6.83 20.38 11.78
1/3/2022 12:00:00 AM 4.9 40.82 0.035 6.77 18.25 11.79
1/3/2022 12:15:00 AM 4.88 40.784 0.035 6.83 21.16 11.8
1/3/2022 12:30:00 AM 4.85 40.73 0.035 6.77 21.95 11.81
1/3/2022 12:45:00 AM 4.82 40.676 0.035 6.83 21.88 11.83
1/3/2022 1:00:00 AM 4.79 40.622 0.035 6.83 21.26 11.83
1/3/2022 1:15:00 AM 4.76 40.568 0.035 6.76 21.97 11.84
1/3/2022 1:30:00 AM 4.72 40.496 0.035 6.79 22.01 11.86
1/3/2022 1:45:00 AM 4.67 40.406 0.035 6.84 19.7 11.87
1/3/2022 2:00:00 AM 4.62 40.316 0.035 6.75 19.79 11.89
1/3/2022 2:15:00 AM 4.59 40.262 0.035 6.84 22.36 11.89
1/3/2022 2:30:00 AM 4.56 40.208 0.035 6.75 19.51 11.91
1/3/2022 2:45:00 AM 4.53 40.154 0.035 6.78 21.35 11.92
1/3/2022 3:00:00 AM 4.5 40.1 0.035 6.83 21.23 11.92
1/3/2022 3:15:00 AM 4.48 40.064 0.035 6.82 22.22 11.92
1/3/2022 3:30:00 AM 4.44 39.992 0.035 6.76 21.26 11.94
1/3/2022 3:45:00 AM 4.4 39.92 0.035 6.8 22.08 11.96
1/3/2022 4:00:00 AM 4.36 39.848 0.035 6.78 20.12 11.97
1/3/2022 4:15:00 AM 4.32 39.776 0.035 6.82 22.25 12
1/3/2022 4:30:00 AM 4.28 39.704 0.035 6.77 21.93 12
1/3/2022 4:45:00 AM 4.23 39.614 0.035 6.71 21.21 12.02
1/3/2022 5:00:00 AM 4.18 39.524 0.035 6.77 21.8 12.04
1/3/2022 5:15:00 AM 4.13 39.434 0.035 6.65 21.45 12.06
1/3/2022 5:30:00 AM 4.07 39.326 0.035 6.68 21.63 12.08
1/3/2022 5:45:00 AM 4.02 39.236 0.035 6.68 21.57 12.1
1/3/2022 6:00:00 AM 3.96 39.128 0.035 6.68 21.84 12.1
1/3/2022 6:15:00 AM 3.92 39.056 0.035 6.7 21.35 12.11
1/3/2022 6:30:00 AM 3.88 38.984 0.035 6.74 20.07 12.12
1/3/2022 6:45:00 AM 3.83 38.894 0.035 6.75 20.43 12.14
1/3/2022 7:00:00 AM 3.78 38.804 0.035 6.73 20.57 12.16
1/3/2022 7:15:00 AM 3.74 38.732 0.035 6.68 18.74 12.18
1/3/2022 7:30:00 AM 3.68 38.624 0.035 6.69 21.38 12.2
1/3/2022 7:45:00 AM 3.64 38.552 0.035 6.66 20.7 12.23
1/3/2022 8:00:00 AM 3.6 38.48 0.035 6.71 20.69 12.26
1/3/2022 8:15:00 AM 3.55 38.39 0.035 6.72 20.83 12.28
1/3/2022 8:30:00 AM 3.5 38.3 0.035 6.7 21.29 12.31
1/3/2022 8:45:00 AM 3.47 38.246 0.035 6.71 20.32 12.34
1/3/2022 9:00:00 AM 3.43 38.174 0.035 6.76 21.5 12.36
1/3/2022 9:15:00 AM 3.41 38.138 0.035 6.78 20.65 12.39
1/3/2022 9:30:00 AM 3.38 38.084 0.035 6.78 21.57 12.43
1/3/2022 9:45:00 AM 3.36 38.048 0.035 6.73 20.12 12.46
1/3/2022 10:00:00 AM 3.36 38.048 0.035 6.76 22.01 12.47
1/3/2022 10:15:00 AM 3.34 38.012 0.035 6.75 19.17 12.49
1/3/2022 10:30:00 AM 3.33 37.994 0.035 6.83 20.63 12.5
1/3/2022 10:45:00 AM 3.32 37.976 0.035 6.83 20.83 12.51
1/3/2022 11:00:00 AM 3.32 37.976 0.035 6.77 22.22 12.51
1/3/2022 11:15:00 AM 3.34 38.012 0.035 6.85 21.67 12.51
1/3/2022 11:30:00 AM 3.35 38.03 0.035 6.87 21.28 12.51
1/3/2022 11:45:00 AM 3.36 38.048 0.035 6.85 20.65 12.51
1/3/2022 12:00:00 PM 3.36 38.048 0.035 6.86 21.55 12.51
1/3/2022 12:15:00 PM 3.37 38.066 0.035 6.84 24.04 12.51
1/3/2022 12:30:00 PM 3.39 38.102 0.035 6.81 22.8 12.5
1/3/2022 12:45:00 PM 3.39 38.102 0.035 6.89 23.56 12.5
1/3/2022 1:00:00 PM 3.41 38.138 0.035 6.8 23.36 12.5
1/3/2022 1:15:00 PM 3.42 38.156 0.035 6.89 24.25 12.49
1/3/2022 1:30:00 PM 3.43 38.174 0.035 6.89 22.9 12.49
1/3/2022 1:45:00 PM 3.43 38.174 0.035 6.85 22.4 12.49
1/3/2022 2:00:00 PM 3.42 38.156 0.035 6.89 22.25 12.48
1/3/2022 2:15:00 PM 3.41 38.138 0.035 6.79 24.9 12.48
1/3/2022 2:30:00 PM 3.39 38.102 0.035 6.85 25.23 12.47
1/3/2022 2:45:00 PM 3.37 38.066 0.036 6.95 27.77 12.45
1/3/2022 3:00:00 PM 3.34 38.012 0.036 6.92 26.03 12.44
1/3/2022 3:15:00 PM 3.29 37.922 0.035 6.82 21.56 12.44
1/3/2022 3:30:00 PM 3.26 37.868 0.035 6.85 20.98 12.44
1/3/2022 3:45:00 PM 3.21 37.778 0.035 6.84 21.14 12.44
1/3/2022 4:00:00 PM 3.17 37.706 0.035 6.78 20.72 12.45
1/3/2022 4:15:00 PM 3.13 37.634 0.035 6.81 21.73 12.46
1/3/2022 4:30:00 PM 3.09 37.562 0.035 6.76 22.49 12.47
1/3/2022 4:45:00 PM 3.03 37.454 0.035 6.78 21.3 12.48
1/3/2022 5:00:00 PM 2.99 37.382 0.035 6.77 19.06 12.48
1/3/2022 5:15:00 PM 2.94 37.292 0.035 6.71 21.55 12.5
1/3/2022 5:30:00 PM 2.88 37.184 0.035 6.76 20.63 12.52
1/3/2022 5:45:00 PM 2.83 37.094 0.035 6.76 20.36 12.53
1/3/2022 6:00:00 PM 2.78 37.004 0.035 6.67 20.85 12.55
1/3/2022 6:15:00 PM 2.72 36.896 0.035 6.75 20.15 12.56
1/3/2022 6:30:00 PM 2.68 36.824 0.035 6.67 22.16 12.58
1/3/2022 6:45:00 PM 2.62 36.716 0.035 6.68 21.21 12.59
1/3/2022 7:00:00 PM 2.58 36.644 0.035 6.75 19.88 12.61
1/3/2022 7:15:00 PM 2.54 36.572 0.035 6.74 21.5 12.63
1/3/2022 7:30:00 PM 2.5 36.5 0.035 6.67 21.3 12.66
1/3/2022 7:45:00 PM 2.46 36.428 0.035 6.71 21.86 12.68
1/3/2022 8:00:00 PM 2.43 36.374 0.035 6.7 21.63 12.69
1/3/2022 8:15:00 PM 2.39 36.302 0.035 6.74 22.16 12.71
1/3/2022 8:30:00 PM 2.36 36.248 0.035 6.74 22.09 12.72
1/3/2022 8:45:00 PM 2.33 36.194 0.035 6.67 21.98 12.73
1/3/2022 9:00:00 PM 2.29 36.122 0.035 6.7 22.01 12.75
1/3/2022 9:15:00 PM 2.26 36.068 0.035 6.76 21.32 12.76
1/3/2022 9:30:00 PM 2.23 36.014 0.035 6.68 20.97 12.78
1/3/2022 9:45:00 PM 2.2 35.96 0.035 6.75 20.73 12.8
1/3/2022 10:00:00 PM 2.17 35.906 0.035 6.76 20.63 12.81
1/3/2022 10:15:00 PM 2.13 35.834 0.035 6.7 21.29 12.81
1/3/2022 10:30:00 PM 2.1 35.78 0.035 6.7 21.14 12.81
1/3/2022 10:45:00 PM 2.06 35.708 0.035 6.68 22.93 12.83
1/3/2022 11:00:00 PM 2.03 35.654 0.035 6.73 22.15 12.84
1/3/2022 11:15:00 PM 2 35.6 0.035 6.73 21.38 12.85
1/3/2022 11:30:00 PM 1.97 35.546 0.035 6.75 21.64 12.86
1/3/2022 11:45:00 PM 1.94 35.492 0.035 6.76 21.94 12.87
1/4/2022 12:00:00 AM 1.91 35.438 0.035 6.67 21.99 12.88
1/4/2022 12:15:00 AM 1.88 35.384 0.035 6.7 20.52 12.91
1/4/2022 12:30:00 AM 1.85 35.33 0.035 6.76 21.04 12.92
1/4/2022 12:45:00 AM 1.82 35.276 0.035 6.68 22.77 12.94
1/4/2022 1:00:00 AM 1.79 35.222 0.035 6.69 20.72 12.94
1/4/2022 1:15:00 AM 1.76 35.168 0.035 6.69 22.54 12.96
1/4/2022 1:30:00 AM 1.73 35.114 0.035 6.75 22.38 12.98
1/4/2022 1:45:00 AM 1.71 35.078 0.035 6.76 22.1 12.99
1/4/2022 2:00:00 AM 1.68 35.024 0.035 6.68 21.95 13
1/4/2022 2:15:00 AM 1.65 34.97 0.035 6.69 22.57 13.01
1/4/2022 2:30:00 AM 1.62 34.916 0.035 6.69 23.13 13.02
1/4/2022 2:45:00 AM 1.59 34.862 0.035 6.74 22.79 13.04
1/4/2022 3:00:00 AM 1.56 34.808 0.035 6.68 22.4 13.05
1/4/2022 3:15:00 AM 1.55 34.79 0.035 6.71 21.05 13.06
1/4/2022 3:30:00 AM 1.54 34.772 0.035 6.76 21.29 13.07
1/4/2022 3:45:00 AM 1.52 34.736 0.035 6.77 21.56 13.07
1/4/2022 4:00:00 AM 1.51 34.718 0.035 6.76 22.42 13.06
1/4/2022 4:15:00 AM 1.49 34.682 0.035 6.78 21.82 13.06
1/4/2022 4:30:00 AM 1.48 34.664 0.035 6.73 24.2 13.07
1/4/2022 4:45:00 AM 1.47 34.646 0.035 6.79 21.05 13.07
1/4/2022 5:00:00 AM 1.46 34.628 0.035 6.7 21.45 13.07
1/4/2022 5:15:00 AM 1.45 34.61 0.035 6.73 20.25 13.07
1/4/2022 5:30:00 AM 1.44 34.592 0.035 6.73 22.62 13.07
1/4/2022 5:45:00 AM 1.43 34.574 0.035 6.72 20.88 13.07
1/4/2022 6:00:00 AM 1.41 34.538 0.035 6.73 23.58 13.08
1/4/2022 6:15:00 AM 1.39 34.502 0.035 6.74 21.71 13.08
1/4/2022 6:30:00 AM 1.38 34.484 0.035 6.79 20.05 13.09
1/4/2022 6:45:00 AM 1.37 34.466 0.035 6.71 21.56 13.09
1/4/2022 7:00:00 AM 1.35 34.43 0.035 6.75 22.33 13.1
1/4/2022 7:15:00 AM 1.34 34.412 0.035 6.68 21.54 13.11
1/4/2022 7:30:00 AM 1.33 34.394 0.035 6.74 21.12 13.12
1/4/2022 7:45:00 AM 1.3 34.34 0.035 6.77 22.29 13.14
1/4/2022 8:00:00 AM 1.29 34.322 0.035 6.77